PWSweather.com
Personal Weather Stations
Station Observations
ESTGRALPAZ
Santa Fe, Santa FeAR 3000

Santa FeSanta FeAR 3000

Lat: -31.6280555556, Lon: -60.6908333333

Elevation: 69

Station Type: WH1081

http://www.estaciongralpaz.com.ar

Latest ConditionsUpdated 4:58:00 PM GMT-03:57 Sunday, Nov 19, 2017
Currently Today's Max Today's Min Today's Average
Temperature 89.6°F32.0°C 91.6°F33.1°C 57.4°F14.1°C 73.3°F22.9°C
Dew Point 46.9°F8.3°C 52.3°F11.3°C 36.7°F2.6°C 44.4°F6.9°C
Winds 6.0 mph SE9.7 kmh SE 14.5 mph WNW23.3 kmh WNW - 5.9 mph 9.5 kmh
Wind Gusts 7.6 mph12.2 kmh 20.6 mph33.2 kmh - -
Humidity 23% 62% 15% 39%
Pressure 29.65 in1004.1 mb 29.76 in1007.8 mb 29.65 in1004.1 mb -
Precipitation - 0.04 in1.0 mm - -
Hour Temp Dew Point Humidity Winds Wind Gusts Pressure Precip Precip Rate Daily Precip Total
04:58 PM 89.6°F32.0°C 46.9°F8.3°C 23% 6.0 mph SE9.7 kmh SE 7.6 mph12.2 kmh 29.65 in1004.1 mb 0.00 in0.0 mm 0.00 in0.0 mm 0.04 in1.0 mm
04:57 PM 89.6°F32.0°C 46.9°F8.3°C 23% 6.0 mph SE9.7 kmh SE 7.6 mph12.2 kmh 29.65 in1004.1 mb 0.00 in0.0 mm 0.00 in0.0 mm 0.04 in1.0 mm
04:56 PM 89.6°F32.0°C 46.9°F8.3°C 23% 6.0 mph SE9.7 kmh SE 7.6 mph12.2 kmh 29.65 in1004.1 mb 0.00 in0.0 mm 0.00 in0.0 mm 0.04 in1.0 mm
04:55 PM 89.6°F32.0°C 46.9°F8.3°C 23% 6.0 mph SE9.7 kmh SE 7.6 mph12.2 kmh 29.65 in1004.1 mb 0.00 in0.0 mm 0.00 in0.0 mm 0.04 in1.0 mm
04:54 PM 89.6°F32.0°C 46.9°F8.3°C 23% 6.0 mph SE9.7 kmh SE 7.6 mph12.2 kmh 29.66 in1004.4 mb 0.00 in0.0 mm 0.00 in0.0 mm 0.04 in1.0 mm
04:53 PM 89.6°F32.0°C 46.9°F8.3°C 23% 6.0 mph SE9.7 kmh SE 7.6 mph12.2 kmh 29.65 in1004.1 mb 0.00 in0.0 mm 0.00 in0.0 mm 0.04 in1.0 mm
04:52 PM 89.6°F32.0°C 46.9°F8.3°C 23% 6.0 mph SE9.7 kmh SE 7.6 mph12.2 kmh 29.65 in1004.1 mb 0.00 in0.0 mm 0.00 in0.0 mm 0.04 in1.0 mm
04:51 PM 89.6°F32.0°C 46.9°F8.3°C 23% 6.0 mph SE9.7 kmh SE 7.6 mph12.2 kmh 29.65 in1004.1 mb 0.00 in0.0 mm 0.00 in0.0 mm 0.04 in1.0 mm
04:50 PM 89.6°F32.0°C 46.9°F8.3°C 23% 6.0 mph SE9.7 kmh SE 7.6 mph12.2 kmh 29.65 in1004.1 mb 0.00 in0.0 mm 0.00 in0.0 mm 0.04 in1.0 mm
04:49 PM 89.6°F32.0°C 46.9°F8.3°C 23% 6.0 mph SE9.7 kmh SE 7.6 mph12.2 kmh 29.65 in1004.1 mb 0.00 in0.0 mm 0.00 in0.0 mm 0.04 in1.0 mm
04:48 PM 89.6°F32.0°C 46.9°F8.3°C 23% 6.0 mph SE9.7 kmh SE 7.6 mph12.2 kmh 29.65 in1004.1 mb 0.00 in0.0 mm 0.00 in0.0 mm 0.04 in1.0 mm
04:47 PM 89.6°F32.0°C 46.9°F8.3°C 23% 6.0 mph SE9.7 kmh SE 7.6 mph12.2 kmh 29.65 in1004.1 mb 0.00 in0.0 mm 0.00 in0.0 mm 0.04 in1.0 mm
04:46 PM 89.6°F32.0°C 46.9°F8.3°C 23% 6.0 mph SE9.7 kmh SE 7.6 mph12.2 kmh 29.65 in1004.1 mb 0.00 in0.0 mm 0.00 in0.0 mm 0.04 in1.0 mm
04:45 PM 89.6°F32.0°C 46.9°F8.3°C 23% 6.0 mph SE9.7 kmh SE 7.6 mph12.2 kmh 29.65 in1004.1 mb 0.00 in0.0 mm 0.00 in0.0 mm 0.04 in1.0 mm
04:44 PM 89.6°F32.0°C 46.9°F8.3°C 23% 6.0 mph SE9.7 kmh SE 7.6 mph12.2 kmh 29.65 in1004.1 mb 0.00 in0.0 mm 0.00 in0.0 mm 0.04 in1.0 mm
04:43 PM 89.6°F32.0°C 46.9°F8.3°C 23% 6.0 mph SE9.7 kmh SE 7.6 mph12.2 kmh 29.66 in1004.4 mb 0.00 in0.0 mm 0.00 in0.0 mm 0.04 in1.0 mm
04:42 PM 89.6°F32.0°C 46.9°F8.3°C 23% 6.0 mph SE9.7 kmh SE 7.6 mph12.2 kmh 29.66 in1004.4 mb 0.00 in0.0 mm 0.00 in0.0 mm 0.04 in1.0 mm
04:41 PM 89.6°F32.0°C 46.9°F8.3°C 23% 6.0 mph SE9.7 kmh SE 7.6 mph12.2 kmh 29.66 in1004.4 mb 0.00 in0.0 mm 0.00 in0.0 mm 0.04 in1.0 mm
04:40 PM 89.6°F32.0°C 46.9°F8.3°C 23% 6.0 mph SE9.7 kmh SE 7.6 mph12.2 kmh 29.65 in1004.1 mb 0.00 in0.0 mm 0.00 in0.0 mm 0.04 in1.0 mm
04:39 PM 89.6°F32.0°C 46.9°F8.3°C 23% 6.0 mph SE9.7 kmh SE 7.6 mph12.2 kmh 29.65 in1004.1 mb 0.00 in0.0 mm 0.00 in0.0 mm 0.04 in1.0 mm
04:38 PM 89.8°F32.1°C 45.9°F7.7°C 22% 5.4 mph SE8.7 kmh SE 9.8 mph15.8 kmh 29.65 in1004.1 mb 0.00 in0.0 mm 0.00 in0.0 mm 0.04 in1.0 mm
04:37 PM 89.8°F32.1°C 45.9°F7.7°C 22% 5.4 mph SE8.7 kmh SE 9.8 mph15.8 kmh 29.65 in1004.1 mb 0.00 in0.0 mm 0.00 in0.0 mm 0.04 in1.0 mm
04:36 PM 89.8°F32.1°C 45.9°F7.7°C 22% 5.4 mph SE8.7 kmh SE 9.8 mph15.8 kmh 29.65 in1004.1 mb 0.00 in0.0 mm 0.00 in0.0 mm 0.04 in1.0 mm
04:35 PM 89.8°F32.1°C 45.9°F7.7°C 22% 5.4 mph SE8.7 kmh SE 9.8 mph15.8 kmh 29.65 in1004.1 mb 0.00 in0.0 mm 0.00 in0.0 mm 0.04 in1.0 mm
04:34 PM 89.8°F32.1°C 45.9°F7.7°C 22% 5.4 mph SE8.7 kmh SE 9.8 mph15.8 kmh 29.65 in1004.1 mb 0.00 in0.0 mm 0.00 in0.0 mm 0.04 in1.0 mm
04:33 PM 89.8°F32.1°C 45.9°F7.7°C 22% 5.4 mph SE8.7 kmh SE 9.8 mph15.8 kmh 29.65 in1004.1 mb 0.00 in0.0 mm 0.00 in0.0 mm 0.04 in1.0 mm
04:32 PM 89.8°F32.1°C 45.9°F7.7°C 22% 5.4 mph SE8.7 kmh SE 9.8 mph15.8 kmh 29.66 in1004.4 mb 0.00 in0.0 mm 0.00 in0.0 mm 0.04 in1.0 mm
04:31 PM 89.8°F32.1°C 45.9°F7.7°C 22% 5.4 mph SE8.7 kmh SE 9.8 mph15.8 kmh 29.65 in1004.1 mb 0.00 in0.0 mm 0.00 in0.0 mm 0.04 in1.0 mm
04:30 PM 89.8°F32.1°C 45.9°F7.7°C 22% 5.4 mph SE8.7 kmh SE 9.8 mph15.8 kmh 29.65 in1004.1 mb 0.00 in0.0 mm 0.00 in0.0 mm 0.04 in1.0 mm
04:29 PM 89.8°F32.1°C 45.9°F7.7°C 22% 5.4 mph SE8.7 kmh SE 9.8 mph15.8 kmh 29.65 in1004.1 mb 0.00 in0.0 mm 0.00 in0.0 mm 0.04 in1.0 mm
04:28 PM 89.8°F32.1°C 45.9°F7.7°C 22% 5.4 mph SE8.7 kmh SE 9.8 mph15.8 kmh 29.65 in1004.1 mb 0.00 in0.0 mm 0.00 in0.0 mm 0.04 in1.0 mm
04:27 PM 89.8°F32.1°C 45.9°F7.7°C 22% 5.4 mph SE8.7 kmh SE 9.8 mph15.8 kmh 29.66 in1004.4 mb 0.00 in0.0 mm 0.00 in0.0 mm 0.04 in1.0 mm
04:26 PM 89.8°F32.1°C 45.9°F7.7°C 22% 5.4 mph SE8.7 kmh SE 9.8 mph15.8 kmh 29.66 in1004.4 mb 0.00 in0.0 mm 0.00 in0.0 mm 0.04 in1.0 mm
04:25 PM 89.8°F32.1°C 45.9°F7.7°C 22% 5.4 mph SE8.7 kmh SE 9.8 mph15.8 kmh 29.66 in1004.4 mb 0.00 in0.0 mm 0.00 in0.0 mm 0.04 in1.0 mm
04:24 PM 89.8°F32.1°C 45.9°F7.7°C 22% 5.4 mph SE8.7 kmh SE 9.8 mph15.8 kmh 29.65 in1004.1 mb 0.00 in0.0 mm 0.00 in0.0 mm 0.04 in1.0 mm
04:23 PM 89.8°F32.1°C 45.9°F7.7°C 22% 5.4 mph SE8.7 kmh SE 9.8 mph15.8 kmh 29.65 in1004.1 mb 0.00 in0.0 mm 0.00 in0.0 mm 0.04 in1.0 mm
04:22 PM 89.8°F32.1°C 45.9°F7.7°C 22% 5.4 mph SE8.7 kmh SE 9.8 mph15.8 kmh 29.65 in1004.1 mb 0.00 in0.0 mm 0.00 in0.0 mm 0.04 in1.0 mm
04:21 PM 89.8°F32.1°C 45.9°F7.7°C 22% 5.4 mph SE8.7 kmh SE 9.8 mph15.8 kmh 29.65 in1004.1 mb 0.00 in0.0 mm 0.00 in0.0 mm 0.04 in1.0 mm
04:20 PM 89.8°F32.1°C 45.9°F7.7°C 22% 5.4 mph SE8.7 kmh SE 9.8 mph15.8 kmh 29.65 in1004.1 mb 0.00 in0.0 mm 0.00 in0.0 mm 0.04 in1.0 mm
04:19 PM 89.8°F32.1°C 45.9°F7.7°C 22% 5.4 mph SE8.7 kmh SE 9.8 mph15.8 kmh 29.65 in1004.1 mb 0.00 in0.0 mm 0.00 in0.0 mm 0.04 in1.0 mm
04:18 PM 89.6°F32.0°C 46.9°F8.3°C 23% 5.4 mph SE8.7 kmh SE 9.8 mph15.8 kmh 29.65 in1004.1 mb 0.00 in0.0 mm 0.00 in0.0 mm 0.04 in1.0 mm
04:17 PM 89.6°F32.0°C 46.9°F8.3°C 23% 5.4 mph SE8.7 kmh SE 10.7 mph17.2 kmh 29.65 in1004.1 mb 0.00 in0.0 mm 0.00 in0.0 mm 0.04 in1.0 mm
04:16 PM 89.6°F32.0°C 46.9°F8.3°C 23% 4.5 mph SE7.2 kmh SE 10.7 mph17.2 kmh 29.65 in1004.1 mb 0.00 in0.0 mm 0.00 in0.0 mm 0.04 in1.0 mm
04:15 PM 89.6°F32.0°C 46.9°F8.3°C 23% 4.5 mph SE7.2 kmh SE 10.7 mph17.2 kmh 29.66 in1004.4 mb 0.00 in0.0 mm 0.00 in0.0 mm 0.04 in1.0 mm
04:14 PM 89.2°F31.8°C 46.6°F8.1°C 23% 4.5 mph SE7.2 kmh SE 10.7 mph17.2 kmh 29.66 in1004.4 mb 0.00 in0.0 mm 0.00 in0.0 mm 0.04 in1.0 mm
04:13 PM 89.2°F31.8°C 46.6°F8.1°C 23% 2.2 mph SSE3.5 kmh SSE 10.7 mph17.2 kmh 29.66 in1004.4 mb 0.00 in0.0 mm 0.00 in0.0 mm 0.04 in1.0 mm
04:12 PM 89.2°F31.8°C 46.6°F8.1°C 23% 3.1 mph SSE5.0 kmh SSE 10.7 mph17.2 kmh 29.66 in1004.4 mb 0.00 in0.0 mm 0.00 in0.0 mm 0.04 in1.0 mm
04:11 PM 88.7°F31.5°C 46.2°F7.9°C 23% 2.2 mph SSE3.5 kmh SSE 11.4 mph18.3 kmh 29.65 in1004.1 mb 0.00 in0.0 mm 0.00 in0.0 mm 0.04 in1.0 mm
04:10 PM 88.5°F31.4°C 46.0°F7.8°C 23% 3.1 mph SSE5.0 kmh SSE 11.4 mph18.3 kmh 29.65 in1004.1 mb 0.00 in0.0 mm 0.00 in0.0 mm 0.04 in1.0 mm
04:09 PM 88.5°F31.4°C 46.0°F7.8°C 23% 5.4 mph SSE8.7 kmh SSE 11.4 mph18.3 kmh 29.66 in1004.4 mb 0.00 in0.0 mm 0.00 in0.0 mm 0.04 in1.0 mm
04:08 PM 88.5°F31.4°C 46.0°F7.8°C 23% 5.4 mph SSE8.7 kmh SSE 11.4 mph18.3 kmh 29.65 in1004.1 mb 0.00 in0.0 mm 0.00 in0.0 mm 0.04 in1.0 mm
04:07 PM 88.7°F31.5°C 46.2°F7.9°C 23% 6.0 mph SSE9.7 kmh SSE 11.4 mph18.3 kmh 29.66 in1004.4 mb 0.00 in0.0 mm 0.00 in0.0 mm 0.04 in1.0 mm
04:06 PM 88.7°F31.5°C 46.2°F7.9°C 23% 5.4 mph S8.7 kmh S 11.4 mph18.3 kmh 29.66 in1004.4 mb 0.00 in0.0 mm 0.00 in0.0 mm 0.04 in1.0 mm
04:05 PM 88.5°F31.4°C 46.0°F7.8°C 23% 6.0 mph S9.7 kmh S 11.4 mph18.3 kmh 29.66 in1004.4 mb 0.00 in0.0 mm 0.00 in0.0 mm 0.04 in1.0 mm
04:04 PM 88.5°F31.4°C 46.0°F7.8°C 23% 2.2 mph S3.5 kmh S 11.4 mph18.3 kmh 29.66 in1004.4 mb 0.00 in0.0 mm 0.00 in0.0 mm 0.04 in1.0 mm
04:03 PM 88.7°F31.5°C 46.2°F7.9°C 23% 5.4 mph S8.7 kmh S 11.4 mph18.3 kmh 29.66 in1004.4 mb 0.00 in0.0 mm 0.00 in0.0 mm 0.04 in1.0 mm
04:02 PM 88.9°F31.6°C 46.3°F7.9°C 23% 8.3 mph SSE13.4 kmh SSE 11.4 mph18.3 kmh 29.65 in1004.1 mb 0.00 in0.0 mm 0.00 in0.0 mm 0.04 in1.0 mm
04:01 PM 88.9°F31.6°C 46.3°F7.9°C 23% 6.9 mph SSE11.1 kmh SSE 10.7 mph17.2 kmh 29.66 in1004.4 mb 0.00 in0.0 mm 0.00 in0.0 mm 0.04 in1.0 mm
04:00 PM 88.7°F31.5°C 46.2°F7.9°C 23% 2.2 mph S3.5 kmh S 10.7 mph17.2 kmh 29.66 in1004.4 mb 0.00 in0.0 mm 0.00 in0.0 mm 0.04 in1.0 mm
03:59 PM 88.9°F31.6°C 45.2°F7.3°C 22% 5.4 mph S8.7 kmh S 10.7 mph17.2 kmh 29.66 in1004.4 mb 0.00 in0.0 mm 0.00 in0.0 mm 0.04 in1.0 mm
03:58 PM 89.2°F31.8°C 46.6°F8.1°C 23% 7.6 mph S12.2 kmh S 10.7 mph17.2 kmh 29.66 in1004.4 mb 0.00 in0.0 mm 0.00 in0.0 mm 0.04 in1.0 mm
03:57 PM 89.2°F31.8°C 46.6°F8.1°C 23% 6.9 mph S11.1 kmh S 9.8 mph15.8 kmh 29.66 in1004.4 mb 0.00 in0.0 mm 0.00 in0.0 mm 0.04 in1.0 mm
03:56 PM 90.9°F32.7°C 45.6°F7.6°C 21% 6.9 mph SE11.1 kmh SE 9.8 mph15.8 kmh 29.66 in1004.4 mb 0.00 in0.0 mm 0.00 in0.0 mm 0.04 in1.0 mm
03:55 PM 90.9°F32.7°C 45.6°F7.6°C 21% 6.9 mph SE11.1 kmh SE 9.8 mph15.8 kmh 29.66 in1004.4 mb 0.00 in0.0 mm 0.00 in0.0 mm 0.04 in1.0 mm
03:54 PM 90.9°F32.7°C 45.6°F7.6°C 21% 6.9 mph SE11.1 kmh SE 9.8 mph15.8 kmh 29.66 in1004.4 mb 0.00 in0.0 mm 0.00 in0.0 mm 0.04 in1.0 mm
03:53 PM 90.9°F32.7°C 45.6°F7.6°C 21% 6.9 mph SE11.1 kmh SE 9.8 mph15.8 kmh 29.65 in1004.1 mb 0.00 in0.0 mm 0.00 in0.0 mm 0.04 in1.0 mm
03:52 PM 90.9°F32.7°C 45.6°F7.6°C 21% 6.9 mph SE11.1 kmh SE 9.8 mph15.8 kmh 29.66 in1004.4 mb 0.00 in0.0 mm 0.00 in0.0 mm 0.04 in1.0 mm
03:51 PM 90.9°F32.7°C 45.6°F7.6°C 21% 6.9 mph SE11.1 kmh SE 9.8 mph15.8 kmh 29.66 in1004.4 mb 0.00 in0.0 mm 0.00 in0.0 mm 0.04 in1.0 mm
03:50 PM 90.9°F32.7°C 45.6°F7.6°C 21% 6.9 mph SE11.1 kmh SE 9.8 mph15.8 kmh 29.66 in1004.4 mb 0.00 in0.0 mm 0.00 in0.0 mm 0.04 in1.0 mm
03:49 PM 90.9°F32.7°C 45.6°F7.6°C 21% 6.9 mph SE11.1 kmh SE 9.8 mph15.8 kmh 29.66 in1004.4 mb 0.00 in0.0 mm 0.00 in0.0 mm 0.04 in1.0 mm
03:48 PM 90.9°F32.7°C 45.6°F7.6°C 21% 6.9 mph SE11.1 kmh SE 9.8 mph15.8 kmh 29.66 in1004.4 mb 0.00 in0.0 mm 0.00 in0.0 mm 0.04 in1.0 mm
03:47 PM 90.9°F32.7°C 45.6°F7.6°C 21% 6.9 mph SE11.1 kmh SE 9.8 mph15.8 kmh 29.66 in1004.4 mb 0.00 in0.0 mm 0.00 in0.0 mm 0.04 in1.0 mm
03:46 PM 90.9°F32.7°C 45.6°F7.6°C 21% 6.9 mph SE11.1 kmh SE 9.8 mph15.8 kmh 29.66 in1004.4 mb 0.00 in0.0 mm 0.00 in0.0 mm 0.04 in1.0 mm
03:44 PM 90.9°F32.7°C 45.6°F7.6°C 21% 6.9 mph SE11.1 kmh SE 9.8 mph15.8 kmh 29.66 in1004.4 mb 0.00 in0.0 mm 0.00 in0.0 mm 0.04 in1.0 mm
03:43 PM 90.9°F32.7°C 45.6°F7.6°C 21% 6.9 mph SE11.1 kmh SE 9.8 mph15.8 kmh 29.66 in1004.4 mb 0.00 in0.0 mm 0.00 in0.0 mm 0.04 in1.0 mm
03:42 PM 90.9°F32.7°C 45.6°F7.6°C 21% 6.9 mph SE11.1 kmh SE 9.8 mph15.8 kmh 29.66 in1004.4 mb 0.00 in0.0 mm 0.00 in0.0 mm 0.04 in1.0 mm
03:41 PM 90.9°F32.7°C 45.6°F7.6°C 21% 6.9 mph SE11.1 kmh SE 9.8 mph15.8 kmh 29.67 in1004.7 mb 0.00 in0.0 mm 0.00 in0.0 mm 0.04 in1.0 mm
03:40 PM 90.9°F32.7°C 45.6°F7.6°C 21% 6.9 mph SE11.1 kmh SE 9.8 mph15.8 kmh 29.66 in1004.4 mb 0.00 in0.0 mm 0.00 in0.0 mm 0.04 in1.0 mm
03:39 PM 90.9°F32.7°C 45.6°F7.6°C 21% 6.9 mph SE11.1 kmh SE 9.8 mph15.8 kmh 29.66 in1004.4 mb 0.00 in0.0 mm 0.00 in0.0 mm 0.04 in1.0 mm
03:38 PM 90.9°F32.7°C 45.6°F7.6°C 21% 6.9 mph SE11.1 kmh SE 9.8 mph15.8 kmh 29.66 in1004.4 mb 0.00 in0.0 mm 0.00 in0.0 mm 0.04 in1.0 mm
03:37 PM 90.9°F32.7°C 45.6°F7.6°C 21% 6.9 mph SE11.1 kmh SE 9.8 mph15.8 kmh 29.66 in1004.4 mb 0.00 in0.0 mm 0.00 in0.0 mm 0.04 in1.0 mm
03:36 PM 90.9°F32.7°C 45.6°F7.6°C 21% 6.9 mph SE11.1 kmh SE 9.8 mph15.8 kmh 29.66 in1004.4 mb 0.00 in0.0 mm 0.00 in0.0 mm 0.04 in1.0 mm
03:35 PM 90.9°F32.7°C 45.6°F7.6°C 21% 6.9 mph SE11.1 kmh SE 9.8 mph15.8 kmh 29.67 in1004.7 mb 0.00 in0.0 mm 0.00 in0.0 mm 0.04 in1.0 mm
03:34 PM 90.9°F32.7°C 45.6°F7.6°C 21% 6.9 mph SE11.1 kmh SE 9.8 mph15.8 kmh 29.66 in1004.4 mb 0.00 in0.0 mm 0.00 in0.0 mm 0.04 in1.0 mm
03:33 PM 90.9°F32.7°C 45.6°F7.6°C 21% 6.9 mph SE11.1 kmh SE 9.8 mph15.8 kmh 29.67 in1004.7 mb 0.00 in0.0 mm 0.00 in0.0 mm 0.04 in1.0 mm
03:32 PM 90.9°F32.7°C 45.6°F7.6°C 21% 6.9 mph SE11.1 kmh SE 9.8 mph15.8 kmh 29.66 in1004.4 mb 0.00 in0.0 mm 0.00 in0.0 mm 0.04 in1.0 mm
03:31 PM 90.9°F32.7°C 45.6°F7.6°C 21% 6.9 mph SE11.1 kmh SE 9.8 mph15.8 kmh 29.67 in1004.7 mb 0.00 in0.0 mm 0.00 in0.0 mm 0.04 in1.0 mm
03:30 PM 90.9°F32.7°C 45.6°F7.6°C 21% 6.9 mph SE11.1 kmh SE 9.8 mph15.8 kmh 29.66 in1004.4 mb 0.00 in0.0 mm 0.00 in0.0 mm 0.04 in1.0 mm
03:29 PM 90.9°F32.7°C 45.6°F7.6°C 21% 6.9 mph SE11.1 kmh SE 9.8 mph15.8 kmh 29.66 in1004.4 mb 0.00 in0.0 mm 0.00 in0.0 mm 0.04 in1.0 mm
03:28 PM 90.9°F32.7°C 45.6°F7.6°C 21% 6.9 mph SE11.1 kmh SE 9.8 mph15.8 kmh 29.66 in1004.4 mb 0.00 in0.0 mm 0.00 in0.0 mm 0.04 in1.0 mm
03:27 PM 90.9°F32.7°C 45.6°F7.6°C 21% 6.9 mph SE11.1 kmh SE 9.8 mph15.8 kmh 29.66 in1004.4 mb 0.00 in0.0 mm 0.00 in0.0 mm 0.04 in1.0 mm
03:26 PM 90.9°F32.7°C 45.6°F7.6°C 21% 6.9 mph SE11.1 kmh SE 9.8 mph15.8 kmh 29.67 in1004.7 mb 0.00 in0.0 mm 0.00 in0.0 mm 0.04 in1.0 mm
03:25 PM 90.9°F32.7°C 45.6°F7.6°C 21% 6.9 mph SE11.1 kmh SE 9.8 mph15.8 kmh 29.66 in1004.4 mb 0.00 in0.0 mm 0.00 in0.0 mm 0.04 in1.0 mm
03:24 PM 90.9°F32.7°C 45.6°F7.6°C 21% 6.9 mph SE11.1 kmh SE 9.8 mph15.8 kmh 29.67 in1004.7 mb 0.00 in0.0 mm 0.00 in0.0 mm 0.04 in1.0 mm
03:23 PM 90.9°F32.7°C 45.6°F7.6°C 21% 6.9 mph SE11.1 kmh SE 9.8 mph15.8 kmh 29.66 in1004.4 mb 0.00 in0.0 mm 0.00 in0.0 mm 0.04 in1.0 mm
03:22 PM 90.9°F32.7°C 45.6°F7.6°C 21% 6.9 mph SE11.1 kmh SE 9.8 mph15.8 kmh 29.67 in1004.7 mb 0.00 in0.0 mm 0.00 in0.0 mm 0.04 in1.0 mm
03:21 PM 90.9°F32.7°C 45.6°F7.6°C 21% 6.9 mph SE11.1 kmh SE 9.8 mph15.8 kmh 29.67 in1004.7 mb 0.00 in0.0 mm 0.00 in0.0 mm 0.04 in1.0 mm
03:20 PM 90.9°F32.7°C 45.6°F7.6°C 21% 6.9 mph SE11.1 kmh SE 9.8 mph15.8 kmh 29.66 in1004.4 mb 0.00 in0.0 mm 0.00 in0.0 mm 0.04 in1.0 mm
03:19 PM 90.9°F32.7°C 45.6°F7.6°C 21% 6.9 mph SE11.1 kmh SE 9.8 mph15.8 kmh 29.67 in1004.7 mb 0.00 in0.0 mm 0.00 in0.0 mm 0.04 in1.0 mm
03:18 PM 90.9°F32.7°C 45.6°F7.6°C 21% 6.9 mph SE11.1 kmh SE 9.8 mph15.8 kmh 29.67 in1004.7 mb 0.04 in1.0 mm 0.00 in0.0 mm 0.04 in1.0 mm
03:17 PM 90.9°F32.7°C 45.6°F7.6°C 21% 6.9 mph SE11.1 kmh SE 9.8 mph15.8 kmh 29.67 in1004.7 mb 0.04 in1.0 mm 0.00 in0.0 mm 0.04 in1.0 mm
03:16 PM 90.9°F32.7°C 45.6°F7.6°C 21% 6.9 mph SE11.1 kmh SE 9.8 mph15.8 kmh 29.67 in1004.7 mb 0.04 in1.0 mm 0.00 in0.0 mm 0.04 in1.0 mm
03:15 PM 90.9°F32.7°C 45.6°F7.6°C 21% 6.9 mph SE11.1 kmh SE 9.8 mph15.8 kmh 29.67 in1004.7 mb 0.04 in1.0 mm 0.00 in0.0 mm 0.04 in1.0 mm
03:14 PM 90.9°F32.7°C 45.6°F7.6°C 21% 6.9 mph SE11.1 kmh SE 9.8 mph15.8 kmh 29.67 in1004.7 mb 0.04 in1.0 mm 0.00 in0.0 mm 0.04 in1.0 mm
03:13 PM 90.9°F32.7°C 45.6°F7.6°C 21% 6.9 mph SE11.1 kmh SE 9.8 mph15.8 kmh 29.67 in1004.7 mb 0.04 in1.0 mm 0.00 in0.0 mm 0.04 in1.0 mm
03:12 PM 90.9°F32.7°C 45.6°F7.6°C 21% 6.9 mph SE11.1 kmh SE 9.8 mph15.8 kmh 29.67 in1004.7 mb 0.04 in1.0 mm 0.00 in0.0 mm 0.04 in1.0 mm
03:11 PM 90.9°F32.7°C 45.6°F7.6°C 21% 6.9 mph SE11.1 kmh SE 9.8 mph15.8 kmh 29.67 in1004.7 mb 0.04 in1.0 mm 0.00 in0.0 mm 0.04 in1.0 mm
03:10 PM 90.9°F32.7°C 45.6°F7.6°C 21% 6.9 mph SE11.1 kmh SE 9.8 mph15.8 kmh 29.67 in1004.7 mb 0.04 in1.0 mm 0.00 in0.0 mm 0.04 in1.0 mm
03:09 PM 90.9°F32.7°C 45.6°F7.6°C 21% 6.9 mph SE11.1 kmh SE 9.8 mph15.8 kmh 29.67 in1004.7 mb 0.04 in1.0 mm 0.00 in0.0 mm 0.04 in1.0 mm
03:08 PM 90.9°F32.7°C 45.6°F7.6°C 21% 6.9 mph SE11.1 kmh SE 9.8 mph15.8 kmh 29.67 in1004.7 mb 0.04 in1.0 mm 0.00 in0.0 mm 0.04 in1.0 mm
03:07 PM 90.9°F32.7°C 45.6°F7.6°C 21% 6.9 mph SE11.1 kmh SE 9.8 mph15.8 kmh 29.67 in1004.7 mb 0.04 in1.0 mm 0.00 in0.0 mm 0.04 in1.0 mm
03:06 PM 90.9°F32.7°C 45.6°F7.6°C 21% 6.9 mph SE11.1 kmh SE 9.8 mph15.8 kmh 29.68 in1005.1 mb 0.04 in1.0 mm 0.00 in0.0 mm 0.04 in1.0 mm
03:05 PM 90.9°F32.7°C 45.6°F7.6°C 21% 6.9 mph SE11.1 kmh SE 9.8 mph15.8 kmh 29.67 in1004.7 mb 0.04 in1.0 mm 0.00 in0.0 mm 0.04 in1.0 mm
03:04 PM 90.9°F32.7°C 45.6°F7.6°C 21% 6.9 mph SE11.1 kmh SE 9.8 mph15.8 kmh 29.67 in1004.7 mb 0.04 in1.0 mm 0.00 in0.0 mm 0.04 in1.0 mm
03:03 PM 90.9°F32.7°C 45.6°F7.6°C 21% 6.9 mph SE11.1 kmh SE 9.8 mph15.8 kmh 29.67 in1004.7 mb 0.04 in1.0 mm 0.00 in0.0 mm 0.04 in1.0 mm
03:02 PM 90.9°F32.7°C 45.6°F7.6°C 21% 6.9 mph SE11.1 kmh SE 9.8 mph15.8 kmh 29.67 in1004.7 mb 0.04 in1.0 mm 0.00 in0.0 mm 0.04 in1.0 mm
03:01 PM 90.9°F32.7°C 45.6°F7.6°C 21% 6.9 mph SE11.1 kmh SE 9.8 mph15.8 kmh 29.67 in1004.7 mb 0.04 in1.0 mm 0.00 in0.0 mm 0.04 in1.0 mm
03:00 PM 90.9°F32.7°C 45.6°F7.6°C 21% 6.9 mph SE11.1 kmh SE 9.8 mph15.8 kmh 29.67 in1004.7 mb 0.04 in1.0 mm 0.00 in0.0 mm 0.04 in1.0 mm
02:59 PM 90.9°F32.7°C 45.6°F7.6°C 21% 6.9 mph SE11.1 kmh SE 9.8 mph15.8 kmh 29.67 in1004.7 mb 0.04 in1.0 mm 0.00 in0.0 mm 0.04 in1.0 mm
02:58 PM 90.9°F32.7°C 45.6°F7.6°C 21% 6.9 mph SE11.1 kmh SE 9.8 mph15.8 kmh 29.68 in1005.1 mb 0.04 in1.0 mm 0.00 in0.0 mm 0.04 in1.0 mm
02:57 PM 90.9°F32.7°C 45.6°F7.6°C 21% 6.9 mph SE11.1 kmh SE 9.8 mph15.8 kmh 29.67 in1004.7 mb 0.04 in1.0 mm 0.00 in0.0 mm 0.04 in1.0 mm
02:56 PM 90.9°F32.7°C 45.6°F7.6°C 21% 6.9 mph SE11.1 kmh SE 9.8 mph15.8 kmh 29.68 in1005.1 mb 0.04 in1.0 mm 0.00 in0.0 mm 0.04 in1.0 mm
02:55 PM 90.9°F32.7°C 45.6°F7.6°C 21% 6.9 mph SE11.1 kmh SE 9.8 mph15.8 kmh 29.68 in1005.1 mb 0.04 in1.0 mm 0.00 in0.0 mm 0.04 in1.0 mm
02:54 PM 90.9°F32.7°C 45.6°F7.6°C 21% 6.9 mph SE11.1 kmh SE 9.8 mph15.8 kmh 29.68 in1005.1 mb 0.04 in1.0 mm 0.00 in0.0 mm 0.04 in1.0 mm
02:53 PM 90.9°F32.7°C 45.6°F7.6°C 21% 6.9 mph SE11.1 kmh SE 9.8 mph15.8 kmh 29.67 in1004.7 mb 0.04 in1.0 mm 0.00 in0.0 mm 0.04 in1.0 mm
02:52 PM 90.9°F32.7°C 45.6°F7.6°C 21% 6.9 mph SE11.1 kmh SE 9.8 mph15.8 kmh 29.67 in1004.7 mb 0.04 in1.0 mm 0.00 in0.0 mm 0.04 in1.0 mm
02:51 PM 90.9°F32.7°C 45.6°F7.6°C 21% 6.9 mph SE11.1 kmh SE 9.8 mph15.8 kmh 29.67 in1004.7 mb 0.04 in1.0 mm 0.00 in0.0 mm 0.04 in1.0 mm
02:50 PM 90.9°F32.7°C 45.6°F7.6°C 21% 6.9 mph SE11.1 kmh SE 9.8 mph15.8 kmh 29.67 in1004.7 mb 0.04 in1.0 mm 0.00 in0.0 mm 0.04 in1.0 mm
02:49 PM 90.9°F32.7°C 45.6°F7.6°C 21% 6.9 mph SE11.1 kmh SE 9.8 mph15.8 kmh 29.67 in1004.7 mb 0.04 in1.0 mm 0.00 in0.0 mm 0.04 in1.0 mm
02:48 PM 90.9°F32.7°C 45.6°F7.6°C 21% 6.9 mph SE11.1 kmh SE 9.8 mph15.8 kmh 29.67 in1004.7 mb 0.04 in1.0 mm 0.00 in0.0 mm 0.04 in1.0 mm
02:47 PM 90.9°F32.7°C 45.6°F7.6°C 21% 6.9 mph ESE11.1 kmh ESE 9.8 mph15.8 kmh 29.67 in1004.7 mb 0.04 in1.0 mm 0.00 in0.0 mm 0.04 in1.0 mm
02:46 PM 90.9°F32.7°C 45.6°F7.6°C 21% 6.9 mph ESE11.1 kmh ESE 9.8 mph15.8 kmh 29.67 in1004.7 mb 0.04 in1.0 mm 0.00 in0.0 mm 0.04 in1.0 mm
02:45 PM 90.9°F32.7°C 45.6°F7.6°C 21% 6.9 mph E11.1 kmh E 9.8 mph15.8 kmh 29.68 in1005.1 mb 0.04 in1.0 mm 0.00 in0.0 mm 0.04 in1.0 mm
02:44 PM 90.9°F32.7°C 45.6°F7.6°C 21% 6.9 mph E11.1 kmh E 9.8 mph15.8 kmh 29.67 in1004.7 mb 0.04 in1.0 mm 0.00 in0.0 mm 0.04 in1.0 mm
02:43 PM 90.9°F32.7°C 45.6°F7.6°C 21% 6.9 mph E11.1 kmh E 9.8 mph15.8 kmh 29.67 in1004.7 mb 0.04 in1.0 mm 0.00 in0.0 mm 0.04 in1.0 mm
02:42 PM 90.7°F32.6°C 44.2°F6.8°C 20% 4.5 mph ENE7.2 kmh ENE 9.8 mph15.8 kmh 29.67 in1004.7 mb 0.04 in1.0 mm 0.00 in0.0 mm 0.04 in1.0 mm
02:41 PM 90.7°F32.6°C 44.2°F6.8°C 20% 4.5 mph NE7.2 kmh NE 9.8 mph15.8 kmh 29.67 in1004.7 mb 0.04 in1.0 mm 0.00 in0.0 mm 0.04 in1.0 mm
02:40 PM 90.7°F32.6°C 44.2°F6.8°C 20% 4.5 mph NE7.2 kmh NE 9.8 mph15.8 kmh 29.67 in1004.7 mb 0.04 in1.0 mm 0.00 in0.0 mm 0.04 in1.0 mm
02:39 PM 90.7°F32.6°C 44.2°F6.8°C 20% 4.5 mph NE7.2 kmh NE 9.8 mph15.8 kmh 29.67 in1004.7 mb 0.04 in1.0 mm 0.00 in0.0 mm 0.04 in1.0 mm
02:38 PM 90.7°F32.6°C 44.2°F6.8°C 20% 4.5 mph NE7.2 kmh NE 10.7 mph17.2 kmh 29.67 in1004.7 mb 0.04 in1.0 mm 0.00 in0.0 mm 0.04 in1.0 mm
02:37 PM 90.7°F32.6°C 41.4°F5.2°C 18% 7.6 mph NE12.2 kmh NE 10.7 mph17.2 kmh 29.68 in1005.1 mb 0.04 in1.0 mm 0.00 in0.0 mm 0.04 in1.0 mm
02:36 PM 90.7°F32.6°C 41.4°F5.2°C 18% 7.6 mph NE12.2 kmh NE 10.7 mph17.2 kmh 29.68 in1005.1 mb 0.04 in1.0 mm 0.00 in0.0 mm 0.04 in1.0 mm
02:35 PM 90.7°F32.6°C 41.4°F5.2°C 18% 7.6 mph ENE12.2 kmh ENE 13.6 mph21.9 kmh 29.68 in1005.1 mb 0.04 in1.0 mm 0.00 in0.0 mm 0.04 in1.0 mm
02:34 PM 90.7°F32.6°C 41.4°F5.2°C 18% 7.6 mph E12.2 kmh E 13.6 mph21.9 kmh 29.68 in1005.1 mb 0.04 in1.0 mm 0.00 in0.0 mm 0.04 in1.0 mm
02:33 PM 90.7°F32.6°C 41.4°F5.2°C 18% 7.6 mph E12.2 kmh E 13.6 mph21.9 kmh 29.68 in1005.1 mb 0.04 in1.0 mm 0.00 in0.0 mm 0.04 in1.0 mm
02:32 PM 90.7°F32.6°C 41.4°F5.2°C 18% 7.6 mph SE12.2 kmh SE 13.6 mph21.9 kmh 29.67 in1004.7 mb 0.04 in1.0 mm 0.00 in0.0 mm 0.04 in1.0 mm
02:31 PM 90.7°F32.6°C 41.4°F5.2°C 18% 7.6 mph S12.2 kmh S 13.6 mph21.9 kmh 29.67 in1004.7 mb 0.04 in1.0 mm 0.00 in0.0 mm 0.04 in1.0 mm
02:30 PM 90.7°F32.6°C 41.4°F5.2°C 18% 7.6 mph S12.2 kmh S 13.6 mph21.9 kmh 29.68 in1005.1 mb 0.04 in1.0 mm 0.00 in0.0 mm 0.04 in1.0 mm
02:29 PM 90.7°F32.6°C 41.4°F5.2°C 18% 6.9 mph S11.1 kmh S 13.6 mph21.9 kmh 29.67 in1004.7 mb 0.04 in1.0 mm 0.00 in0.0 mm 0.04 in1.0 mm
02:28 PM 90.7°F32.6°C 39.9°F4.4°C 17% 5.4 mph S8.7 kmh S 13.6 mph21.9 kmh 29.68 in1005.1 mb 0.04 in1.0 mm 0.00 in0.0 mm 0.04 in1.0 mm
02:27 PM 90.7°F32.6°C 39.9°F4.4°C 17% 5.4 mph S8.7 kmh S 13.6 mph21.9 kmh 29.67 in1004.7 mb 0.04 in1.0 mm 0.00 in0.0 mm 0.04 in1.0 mm
02:26 PM 90.7°F32.6°C 41.4°F5.2°C 18% 6.0 mph SSW9.7 kmh SSW 13.6 mph21.9 kmh 29.68 in1005.1 mb 0.04 in1.0 mm 0.00 in0.0 mm 0.04 in1.0 mm
02:25 PM 90.7°F32.6°C 41.4°F5.2°C 18% 7.6 mph SW12.2 kmh SW 13.6 mph21.9 kmh 29.68 in1005.1 mb 0.04 in1.0 mm 0.00 in0.0 mm 0.04 in1.0 mm
02:24 PM 91.2°F32.9°C 45.9°F7.7°C 21% 6.0 mph SW9.7 kmh SW 9.8 mph15.8 kmh 29.67 in1004.7 mb 0.04 in1.0 mm 0.00 in0.0 mm 0.04 in1.0 mm
02:22 PM 91.2°F32.9°C 45.9°F7.7°C 21% 6.0 mph SW9.7 kmh SW 9.8 mph15.8 kmh 29.68 in1005.1 mb 0.04 in1.0 mm 0.00 in0.0 mm 0.04 in1.0 mm
02:21 PM 91.6°F33.1°C 43.6°F6.4°C 19% 5.4 mph SW8.7 kmh SW 10.7 mph17.2 kmh 29.68 in1005.1 mb 0.04 in1.0 mm 0.00 in0.0 mm 0.04 in1.0 mm
02:20 PM 91.6°F33.1°C 43.6°F6.4°C 19% 5.4 mph SW8.7 kmh SW 10.7 mph17.2 kmh 29.67 in1004.7 mb 0.04 in1.0 mm 2.40 in61.0 mm 0.04 in1.0 mm
02:19 PM 91.6°F33.1°C 42.1°F5.6°C 18% 4.5 mph SW7.2 kmh SW 10.7 mph17.2 kmh 29.68 in1005.1 mb 0.00 in0.0 mm 0.00 in0.0 mm 0.00 in0.0 mm
02:18 PM 91.6°F33.1°C 40.7°F4.8°C 17% 5.4 mph SW8.7 kmh SW 10.7 mph17.2 kmh 29.68 in1005.1 mb 0.00 in0.0 mm 0.00 in0.0 mm 0.00 in0.0 mm
02:17 PM 91.6°F33.1°C 39.1°F3.9°C 16% 6.9 mph SSW11.1 kmh SSW 10.7 mph17.2 kmh 29.68 in1005.1 mb 0.00 in0.0 mm 0.00 in0.0 mm 0.00 in0.0 mm
02:16 PM 91.4°F33.0°C 37.3°F2.9°C 15% 5.4 mph SSW8.7 kmh SSW 10.7 mph17.2 kmh 29.68 in1005.1 mb 0.00 in0.0 mm 0.00 in0.0 mm 0.00 in0.0 mm
02:15 PM 91.4°F33.0°C 37.3°F2.9°C 15% 5.4 mph SSW8.7 kmh SSW 16.8 mph27.0 kmh 29.68 in1005.1 mb 0.00 in0.0 mm 0.00 in0.0 mm 0.00 in0.0 mm
02:14 PM 91.4°F33.0°C 37.3°F2.9°C 15% 3.8 mph SSW6.1 kmh SSW 16.8 mph27.0 kmh 29.68 in1005.1 mb 0.00 in0.0 mm 0.00 in0.0 mm 0.00 in0.0 mm
02:13 PM 91.4°F33.0°C 37.3°F2.9°C 15% 6.9 mph SSW11.1 kmh SSW 16.8 mph27.0 kmh 29.68 in1005.1 mb 0.00 in0.0 mm 0.00 in0.0 mm 0.00 in0.0 mm
02:12 PM 91.4°F33.0°C 37.3°F2.9°C 15% 3.1 mph SSW5.0 kmh SSW 16.8 mph27.0 kmh 29.68 in1005.1 mb 0.00 in0.0 mm 0.00 in0.0 mm 0.00 in0.0 mm
02:11 PM 90.7°F32.6°C 36.7°F2.6°C 15% 6.9 mph SSW11.1 kmh SSW 16.8 mph27.0 kmh 29.68 in1005.1 mb 0.00 in0.0 mm 0.00 in0.0 mm 0.00 in0.0 mm
02:10 PM 90.7°F32.6°C 36.7°F2.6°C 15% 6.9 mph SW11.1 kmh SW 16.8 mph27.0 kmh 29.68 in1005.1 mb 0.00 in0.0 mm 0.00 in0.0 mm 0.00 in0.0 mm
02:09 PM 90.7°F32.6°C 36.7°F2.6°C 15% 6.9 mph SW11.1 kmh SW 16.8 mph27.0 kmh 29.69 in1005.4 mb 0.00 in0.0 mm 0.00 in0.0 mm 0.00 in0.0 mm
02:07 PM 90.7°F32.6°C 36.7°F2.6°C 15% 6.9 mph SW11.1 kmh SW 16.8 mph27.0 kmh 29.69 in1005.4 mb 0.00 in0.0 mm 0.00 in0.0 mm 0.00 in0.0 mm
02:06 PM 91.2°F32.9°C 38.8°F3.8°C 16% 10.7 mph SW17.2 kmh SW 16.8 mph27.0 kmh 29.68 in1005.1 mb 0.00 in0.0 mm 0.00 in0.0 mm 0.00 in0.0 mm
02:05 PM 91.2°F32.9°C 38.8°F3.8°C 16% 10.7 mph SW17.2 kmh SW 16.8 mph27.0 kmh 29.68 in1005.1 mb 0.00 in0.0 mm 0.00 in0.0 mm 0.00 in0.0 mm
02:04 PM 91.2°F32.9°C 38.8°F3.8°C 16% 10.7 mph WSW17.2 kmh WSW 16.8 mph27.0 kmh 29.69 in1005.4 mb 0.00 in0.0 mm 0.00 in0.0 mm 0.00 in0.0 mm
02:03 PM 91.2°F32.9°C 38.8°F3.8°C 16% 10.7 mph WSW17.2 kmh WSW 16.8 mph27.0 kmh 29.68 in1005.1 mb 0.00 in0.0 mm 0.00 in0.0 mm 0.00 in0.0 mm
02:02 PM 90.9°F32.7°C 38.5°F3.6°C 16% 6.0 mph WSW9.7 kmh WSW 9.2 mph14.8 kmh 29.68 in1005.1 mb 0.00 in0.0 mm 0.00 in0.0 mm 0.00 in0.0 mm
02:01 PM 90.9°F32.7°C 38.5°F3.6°C 16% 6.0 mph WSW9.7 kmh WSW 9.2 mph14.8 kmh 29.69 in1005.4 mb 0.00 in0.0 mm 0.00 in0.0 mm 0.00 in0.0 mm
02:00 PM 90.9°F32.7°C 38.5°F3.6°C 16% 6.0 mph W9.7 kmh W 9.2 mph14.8 kmh 29.68 in1005.1 mb 0.00 in0.0 mm 0.00 in0.0 mm 0.00 in0.0 mm
01:59 PM 90.9°F32.7°C 38.5°F3.6°C 16% 6.0 mph W9.7 kmh W 9.2 mph14.8 kmh 29.68 in1005.1 mb 0.00 in0.0 mm 0.00 in0.0 mm 0.00 in0.0 mm
01:58 PM 90.9°F32.7°C 38.5°F3.6°C 16% 5.4 mph W8.7 kmh W 8.3 mph13.4 kmh 29.68 in1005.1 mb 0.00 in0.0 mm 0.00 in0.0 mm 0.00 in0.0 mm
01:57 PM 89.1°F31.7°C 42.8°F6.0°C 20% 10.7 mph N17.2 kmh N 14.5 mph23.3 kmh 29.69 in1005.4 mb 0.00 in0.0 mm 0.00 in0.0 mm 0.00 in0.0 mm
01:56 PM 89.1°F31.7°C 42.8°F6.0°C 20% 10.7 mph N17.2 kmh N 14.5 mph23.3 kmh 29.68 in1005.1 mb 0.00 in0.0 mm 0.00 in0.0 mm 0.00 in0.0 mm
01:55 PM 89.1°F31.7°C 42.8°F6.0°C 20% 10.7 mph N17.2 kmh N 14.5 mph23.3 kmh 29.68 in1005.1 mb 0.00 in0.0 mm 0.00 in0.0 mm 0.00 in0.0 mm
01:54 PM 89.1°F31.7°C 42.8°F6.0°C 20% 10.7 mph N17.2 kmh N 14.5 mph23.3 kmh 29.68 in1005.1 mb 0.00 in0.0 mm 0.00 in0.0 mm 0.00 in0.0 mm
01:53 PM 89.1°F31.7°C 42.8°F6.0°C 20% 10.7 mph N17.2 kmh N 14.5 mph23.3 kmh 29.68 in1005.1 mb 0.00 in0.0 mm 0.00 in0.0 mm 0.00 in0.0 mm
01:52 PM 89.1°F31.7°C 42.8°F6.0°C 20% 10.7 mph N17.2 kmh N 14.5 mph23.3 kmh 29.69 in1005.4 mb 0.00 in0.0 mm 0.00 in0.0 mm 0.00 in0.0 mm
01:51 PM 89.1°F31.7°C 42.8°F6.0°C 20% 10.7 mph N17.2 kmh N 14.5 mph23.3 kmh 29.68 in1005.1 mb 0.00 in0.0 mm 0.00 in0.0 mm 0.00 in0.0 mm
01:50 PM 89.1°F31.7°C 42.8°F6.0°C 20% 10.7 mph N17.2 kmh N 14.5 mph23.3 kmh 29.68 in1005.1 mb 0.00 in0.0 mm 0.00 in0.0 mm 0.00 in0.0 mm
01:49 PM 89.1°F31.7°C 42.8°F6.0°C 20% 10.7 mph N17.2 kmh N 14.5 mph23.3 kmh 29.68 in1005.1 mb 0.00 in0.0 mm 0.00 in0.0 mm 0.00 in0.0 mm
01:48 PM 89.1°F31.7°C 42.8°F6.0°C 20% 10.7 mph N17.2 kmh N 14.5 mph23.3 kmh 29.69 in1005.4 mb 0.00 in0.0 mm 0.00 in0.0 mm 0.00 in0.0 mm
01:47 PM 89.1°F31.7°C 42.8°F6.0°C 20% 10.7 mph N17.2 kmh N 14.5 mph23.3 kmh 29.69 in1005.4 mb 0.00 in0.0 mm 0.00 in0.0 mm 0.00 in0.0 mm
01:46 PM 89.1°F31.7°C 42.8°F6.0°C 20% 10.7 mph N17.2 kmh N 14.5 mph23.3 kmh 29.69 in1005.4 mb 0.00 in0.0 mm 0.00 in0.0 mm 0.00 in0.0 mm
01:45 PM 89.1°F31.7°C 42.8°F6.0°C 20% 10.7 mph N17.2 kmh N 14.5 mph23.3 kmh 29.69 in1005.4 mb 0.00 in0.0 mm 0.00 in0.0 mm 0.00 in0.0 mm
01:44 PM 89.1°F31.7°C 42.8°F6.0°C 20% 10.7 mph N17.2 kmh N 14.5 mph23.3 kmh 29.69 in1005.4 mb 0.00 in0.0 mm 0.00 in0.0 mm 0.00 in0.0 mm
01:43 PM 89.1°F31.7°C 42.8°F6.0°C 20% 10.7 mph NNW17.2 kmh NNW 14.5 mph23.3 kmh 29.69 in1005.4 mb 0.00 in0.0 mm 0.00 in0.0 mm 0.00 in0.0 mm
01:42 PM 89.1°F31.7°C 42.8°F6.0°C 20% 10.7 mph NW17.2 kmh NW 15.2 mph24.5 kmh 29.69 in1005.4 mb 0.00 in0.0 mm 0.00 in0.0 mm 0.00 in0.0 mm
01:41 PM 89.1°F31.7°C 42.8°F6.0°C 20% 10.7 mph NW17.2 kmh NW 15.2 mph24.5 kmh 29.69 in1005.4 mb 0.00 in0.0 mm 0.00 in0.0 mm 0.00 in0.0 mm
01:40 PM 89.1°F31.7°C 42.8°F6.0°C 20% 10.7 mph W17.2 kmh W 15.2 mph24.5 kmh 29.69 in1005.4 mb 0.00 in0.0 mm 0.00 in0.0 mm 0.00 in0.0 mm
01:39 PM 89.1°F31.7°C 42.8°F6.0°C 20% 10.7 mph W17.2 kmh W 15.2 mph24.5 kmh 29.68 in1005.1 mb 0.00 in0.0 mm 0.00 in0.0 mm 0.00 in0.0 mm
01:38 PM 89.1°F31.7°C 42.8°F6.0°C 20% 10.7 mph WSW17.2 kmh WSW 15.2 mph24.5 kmh 29.68 in1005.1 mb 0.00 in0.0 mm 0.00 in0.0 mm 0.00 in0.0 mm
01:37 PM 89.1°F31.7°C 42.8°F6.0°C 20% 10.7 mph WSW17.2 kmh WSW 15.2 mph24.5 kmh 29.68 in1005.1 mb 0.00 in0.0 mm 0.00 in0.0 mm 0.00 in0.0 mm
01:36 PM 89.2°F31.8°C 43.0°F6.1°C 20% 9.8 mph SW15.8 kmh SW 15.2 mph24.5 kmh 29.68 in1005.1 mb 0.00 in0.0 mm 0.00 in0.0 mm 0.00 in0.0 mm
01:35 PM 89.2°F31.8°C 43.0°F6.1°C 20% 9.8 mph SW15.8 kmh SW 15.2 mph24.5 kmh 29.69 in1005.4 mb 0.00 in0.0 mm 0.00 in0.0 mm 0.00 in0.0 mm
01:34 PM 89.2°F31.8°C 43.0°F6.1°C 20% 9.8 mph WSW15.8 kmh WSW 15.2 mph24.5 kmh 29.69 in1005.4 mb 0.00 in0.0 mm 0.00 in0.0 mm 0.00 in0.0 mm
01:33 PM 89.2°F31.8°C 43.0°F6.1°C 20% 9.2 mph WSW14.8 kmh WSW 15.2 mph24.5 kmh 29.68 in1005.1 mb 0.00 in0.0 mm 0.00 in0.0 mm 0.00 in0.0 mm
01:32 PM 89.2°F31.8°C 43.0°F6.1°C 20% 9.2 mph SW14.8 kmh SW 15.2 mph24.5 kmh 29.69 in1005.4 mb 0.00 in0.0 mm 0.00 in0.0 mm 0.00 in0.0 mm
01:31 PM 88.9°F31.6°C 44.0°F6.7°C 21% 8.3 mph SW13.4 kmh SW 12.1 mph19.5 kmh 29.69 in1005.4 mb 0.00 in0.0 mm 0.00 in0.0 mm 0.00 in0.0 mm
01:30 PM 88.9°F31.6°C 44.0°F6.7°C 21% 8.3 mph SW13.4 kmh SW 12.1 mph19.5 kmh 29.68 in1005.1 mb 0.00 in0.0 mm 0.00 in0.0 mm 0.00 in0.0 mm
01:29 PM 88.9°F31.6°C 44.0°F6.7°C 21% 8.3 mph SW13.4 kmh SW 12.1 mph19.5 kmh 29.68 in1005.1 mb 0.00 in0.0 mm 0.00 in0.0 mm 0.00 in0.0 mm
01:28 PM 88.9°F31.6°C 44.0°F6.7°C 21% 6.9 mph SW11.1 kmh SW 12.1 mph19.5 kmh 29.68 in1005.1 mb 0.00 in0.0 mm 0.00 in0.0 mm 0.00 in0.0 mm
01:27 PM 88.0°F31.1°C 44.4°F6.9°C 22% 6.0 mph W9.7 kmh W 9.2 mph14.8 kmh 29.69 in1005.4 mb 0.00 in0.0 mm 0.00 in0.0 mm 0.00 in0.0 mm
01:26 PM 88.0°F31.1°C 44.4°F6.9°C 22% 6.0 mph W9.7 kmh W 9.2 mph14.8 kmh 29.68 in1005.1 mb 0.00 in0.0 mm 0.00 in0.0 mm 0.00 in0.0 mm
01:25 PM 88.0°F31.1°C 44.4°F6.9°C 22% 6.0 mph W9.7 kmh W 9.2 mph14.8 kmh 29.69 in1005.4 mb 0.00 in0.0 mm 0.00 in0.0 mm 0.00 in0.0 mm
01:24 PM 88.0°F31.1°C 44.4°F6.9°C 22% 6.0 mph W9.7 kmh W 9.2 mph14.8 kmh 29.69 in1005.4 mb 0.00 in0.0 mm 0.00 in0.0 mm 0.00 in0.0 mm
01:23 PM 88.0°F31.1°C 44.4°F6.9°C 22% 6.0 mph W9.7 kmh W 9.2 mph14.8 kmh 29.68 in1005.1 mb 0.00 in0.0 mm 0.00 in0.0 mm 0.00 in0.0 mm
01:22 PM 88.0°F31.1°C 44.4°F6.9°C 22% 6.0 mph W9.7 kmh W 9.2 mph14.8 kmh 29.68 in1005.1 mb 0.00 in0.0 mm 0.00 in0.0 mm 0.00 in0.0 mm
01:21 PM 88.0°F31.1°C 44.4°F6.9°C 22% 6.0 mph W9.7 kmh W 9.2 mph14.8 kmh 29.68 in1005.1 mb 0.00 in0.0 mm 0.00 in0.0 mm 0.00 in0.0 mm
01:20 PM 88.0°F31.1°C 44.4°F6.9°C 22% 6.0 mph W9.7 kmh W 9.2 mph14.8 kmh 29.69 in1005.4 mb 0.00 in0.0 mm 0.00 in0.0 mm 0.00 in0.0 mm
01:19 PM 88.0°F31.1°C 44.4°F6.9°C 22% 6.0 mph W9.7 kmh W 9.2 mph14.8 kmh 29.69 in1005.4 mb 0.00 in0.0 mm 0.00 in0.0 mm 0.00 in0.0 mm
01:18 PM 88.0°F31.1°C 44.4°F6.9°C 22% 6.0 mph W9.7 kmh W 9.2 mph14.8 kmh 29.69 in1005.4 mb 0.00 in0.0 mm 0.00 in0.0 mm 0.00 in0.0 mm
01:17 PM 88.0°F31.1°C 44.4°F6.9°C 22% 6.0 mph W9.7 kmh W 9.2 mph14.8 kmh 29.69 in1005.4 mb 0.00 in0.0 mm 0.00 in0.0 mm 0.00 in0.0 mm
01:16 PM 88.0°F31.1°C 44.4°F6.9°C 22% 6.0 mph W9.7 kmh W 9.2 mph14.8 kmh 29.69 in1005.4 mb 0.00 in0.0 mm 0.00 in0.0 mm 0.00 in0.0 mm
01:15 PM 88.0°F31.1°C 44.4°F6.9°C 22% 6.0 mph W9.7 kmh W 9.2 mph14.8 kmh 29.69 in1005.4 mb 0.00 in0.0 mm 0.00 in0.0 mm 0.00 in0.0 mm
01:14 PM 88.0°F31.1°C 44.4°F6.9°C 22% 6.0 mph W9.7 kmh W 9.2 mph14.8 kmh 29.69 in1005.4 mb 0.00 in0.0 mm 0.00 in0.0 mm 0.00 in0.0 mm
01:13 PM 88.0°F31.1°C 44.4°F6.9°C 22% 6.0 mph W9.7 kmh W 9.2 mph14.8 kmh 29.69 in1005.4 mb 0.00 in0.0 mm 0.00 in0.0 mm 0.00 in0.0 mm
01:12 PM 88.0°F31.1°C 44.4°F6.9°C 22% 6.0 mph W9.7 kmh W 9.2 mph14.8 kmh 29.69 in1005.4 mb 0.00 in0.0 mm 0.00 in0.0 mm 0.00 in0.0 mm
01:11 PM 88.0°F31.1°C 44.4°F6.9°C 22% 6.0 mph W9.7 kmh W 9.2 mph14.8 kmh 29.68 in1005.1 mb 0.00 in0.0 mm 0.00 in0.0 mm 0.00 in0.0 mm
01:10 PM 88.0°F31.1°C 44.4°F6.9°C 22% 6.0 mph WSW9.7 kmh WSW 11.4 mph18.3 kmh 29.69 in1005.4 mb 0.00 in0.0 mm 0.00 in0.0 mm 0.00 in0.0 mm
01:09 PM 88.0°F31.1°C 44.4°F6.9°C 22% 6.0 mph WSW9.7 kmh WSW 11.4 mph18.3 kmh 29.69 in1005.4 mb 0.00 in0.0 mm 0.00 in0.0 mm 0.00 in0.0 mm
01:08 PM 88.0°F31.1°C 44.4°F6.9°C 22% 6.0 mph WSW9.7 kmh WSW 15.9 mph25.6 kmh 29.69 in1005.4 mb 0.00 in0.0 mm 0.00 in0.0 mm 0.00 in0.0 mm
01:07 PM 88.0°F31.1°C 44.4°F6.9°C 22% 6.0 mph WSW9.7 kmh WSW 15.9 mph25.6 kmh 29.69 in1005.4 mb 0.00 in0.0 mm 0.00 in0.0 mm 0.00 in0.0 mm
01:06 PM 88.0°F31.1°C 44.4°F6.9°C 22% 6.0 mph SW9.7 kmh SW 15.9 mph25.6 kmh 29.70 in1005.8 mb 0.00 in0.0 mm 0.00 in0.0 mm 0.00 in0.0 mm
01:05 PM 88.0°F31.1°C 44.4°F6.9°C 22% 6.0 mph WSW9.7 kmh WSW 15.9 mph25.6 kmh 29.69 in1005.4 mb 0.00 in0.0 mm 0.00 in0.0 mm 0.00 in0.0 mm
01:04 PM 88.0°F31.1°C 44.4°F6.9°C 22% 6.0 mph WSW9.7 kmh WSW 15.9 mph25.6 kmh 29.69 in1005.4 mb 0.00 in0.0 mm 0.00 in0.0 mm 0.00 in0.0 mm
01:03 PM 88.0°F31.1°C 44.4°F6.9°C 22% 6.0 mph WSW9.7 kmh WSW 15.9 mph25.6 kmh 29.69 in1005.4 mb 0.00 in0.0 mm 0.00 in0.0 mm 0.00 in0.0 mm
01:02 PM 88.0°F31.1°C 44.4°F6.9°C 22% 6.0 mph WSW9.7 kmh WSW 15.9 mph25.6 kmh 29.69 in1005.4 mb 0.00 in0.0 mm 0.00 in0.0 mm 0.00 in0.0 mm
01:01 PM 87.8°F31.0°C 45.4°F7.4°C 23% 8.3 mph W13.4 kmh W 16.8 mph27.0 kmh 29.70 in1005.8 mb 0.00 in0.0 mm 0.00 in0.0 mm 0.00 in0.0 mm
01:00 PM 87.8°F31.0°C 45.4°F7.4°C 23% 8.3 mph W13.4 kmh W 16.8 mph27.0 kmh 29.70 in1005.8 mb 0.00 in0.0 mm 0.00 in0.0 mm 0.00 in0.0 mm
12:59 PM 87.8°F31.0°C 45.4°F7.4°C 23% 8.3 mph W13.4 kmh W 16.8 mph27.0 kmh 29.70 in1005.8 mb 0.00 in0.0 mm 0.00 in0.0 mm 0.00 in0.0 mm
12:58 PM 88.3°F31.3°C 45.9°F7.7°C 23% 12.1 mph WNW19.5 kmh WNW 16.8 mph27.0 kmh 29.70 in1005.8 mb 0.00 in0.0 mm 0.00 in0.0 mm 0.00 in0.0 mm
12:57 PM 88.3°F31.3°C 45.9°F7.7°C 23% 12.1 mph WNW19.5 kmh WNW 16.8 mph27.0 kmh 29.69 in1005.4 mb 0.00 in0.0 mm 0.00 in0.0 mm 0.00 in0.0 mm
12:56 PM 88.3°F31.3°C 45.9°F7.7°C 23% 8.3 mph NW13.4 kmh NW 16.8 mph27.0 kmh 29.70 in1005.8 mb 0.00 in0.0 mm 0.00 in0.0 mm 0.00 in0.0 mm
12:55 PM 88.5°F31.4°C 46.0°F7.8°C 23% 11.4 mph WNW18.3 kmh WNW 16.8 mph27.0 kmh 29.69 in1005.4 mb 0.00 in0.0 mm 0.00 in0.0 mm 0.00 in0.0 mm
12:54 PM 88.7°F31.5°C 46.2°F7.9°C 23% 9.2 mph WNW14.8 kmh WNW 16.8 mph27.0 kmh 29.70 in1005.8 mb 0.00 in0.0 mm 0.00 in0.0 mm 0.00 in0.0 mm
12:53 PM 88.7°F31.5°C 46.2°F7.9°C 23% 9.2 mph WNW14.8 kmh WNW 16.8 mph27.0 kmh 29.70 in1005.8 mb 0.00 in0.0 mm 0.00 in0.0 mm 0.00 in0.0 mm
12:52 PM 88.7°F31.5°C 46.2°F7.9°C 23% 9.2 mph W14.8 kmh W 16.8 mph27.0 kmh 29.70 in1005.8 mb 0.00 in0.0 mm 0.00 in0.0 mm 0.00 in0.0 mm
12:51 PM 88.7°F31.5°C 46.2°F7.9°C 23% 12.1 mph W19.5 kmh W 16.8 mph27.0 kmh 29.70 in1005.8 mb 0.00 in0.0 mm 0.00 in0.0 mm 0.00 in0.0 mm
12:50 PM 88.7°F31.5°C 46.2°F7.9°C 23% 5.4 mph WSW8.7 kmh WSW 14.5 mph23.3 kmh 29.70 in1005.8 mb 0.00 in0.0 mm 0.00 in0.0 mm 0.00 in0.0 mm
12:49 PM 88.5°F31.4°C 46.0°F7.8°C 23% 4.5 mph W7.2 kmh W 11.4 mph18.3 kmh 29.69 in1005.4 mb 0.00 in0.0 mm 0.00 in0.0 mm 0.00 in0.0 mm
12:48 PM 88.3°F31.3°C 47.0°F8.3°C 24% 6.9 mph WSW11.1 kmh WSW 11.4 mph18.3 kmh 29.70 in1005.8 mb 0.00 in0.0 mm 0.00 in0.0 mm 0.00 in0.0 mm
12:47 PM 88.2°F31.2°C 46.9°F8.3°C 24% 5.4 mph WSW8.7 kmh WSW 18.3 mph29.5 kmh 29.70 in1005.8 mb 0.00 in0.0 mm 0.00 in0.0 mm 0.00 in0.0 mm
12:46 PM 88.0°F31.1°C 46.7°F8.2°C 24% 4.5 mph W7.2 kmh W 18.3 mph29.5 kmh 29.70 in1005.8 mb 0.00 in0.0 mm 0.00 in0.0 mm 0.00 in0.0 mm
12:45 PM 87.8°F31.0°C 45.4°F7.4°C 23% 4.5 mph W7.2 kmh W 18.3 mph29.5 kmh 29.70 in1005.8 mb 0.00 in0.0 mm 0.00 in0.0 mm 0.00 in0.0 mm
12:44 PM 87.8°F31.0°C 45.4°F7.4°C 23% 5.4 mph W8.7 kmh W 18.3 mph29.5 kmh 29.70 in1005.8 mb 0.00 in0.0 mm 0.00 in0.0 mm 0.00 in0.0 mm
12:43 PM 87.8°F31.0°C 45.4°F7.4°C 23% 3.8 mph W6.1 kmh W 18.3 mph29.5 kmh 29.70 in1005.8 mb 0.00 in0.0 mm 0.00 in0.0 mm 0.00 in0.0 mm
12:42 PM 88.0°F31.1°C 45.6°F7.6°C 23% 6.9 mph W11.1 kmh W 18.3 mph29.5 kmh 29.70 in1005.8 mb 0.00 in0.0 mm 0.00 in0.0 mm 0.00 in0.0 mm
12:41 PM 87.8°F31.0°C 46.6°F8.1°C 24% 8.3 mph W13.4 kmh W 18.3 mph29.5 kmh 29.70 in1005.8 mb 0.00 in0.0 mm 0.00 in0.0 mm 0.00 in0.0 mm
12:40 PM 87.6°F30.9°C 46.4°F8.0°C 24% 4.5 mph W7.2 kmh W 18.3 mph29.5 kmh 29.70 in1005.8 mb 0.00 in0.0 mm 0.00 in0.0 mm 0.00 in0.0 mm
12:39 PM 87.6°F30.9°C 46.4°F8.0°C 24% 8.3 mph W13.4 kmh W 18.3 mph29.5 kmh 29.70 in1005.8 mb 0.00 in0.0 mm 0.00 in0.0 mm 0.00 in0.0 mm
12:38 PM 87.6°F30.9°C 46.4°F8.0°C 24% 6.0 mph W9.7 kmh W 18.3 mph29.5 kmh 29.70 in1005.8 mb 0.00 in0.0 mm 0.00 in0.0 mm 0.00 in0.0 mm
12:37 PM 87.8°F31.0°C 45.4°F7.4°C 23% 8.3 mph W13.4 kmh W 18.3 mph29.5 kmh 29.70 in1005.8 mb 0.00 in0.0 mm 0.00 in0.0 mm 0.00 in0.0 mm
12:36 PM 87.8°F31.0°C 45.4°F7.4°C 23% 9.2 mph W14.8 kmh W 18.3 mph29.5 kmh 29.70 in1005.8 mb 0.00 in0.0 mm 0.00 in0.0 mm 0.00 in0.0 mm
12:35 PM 87.8°F31.0°C 46.6°F8.1°C 24% 8.3 mph WSW13.4 kmh WSW 16.8 mph27.0 kmh 29.69 in1005.4 mb 0.00 in0.0 mm 0.00 in0.0 mm 0.00 in0.0 mm
12:34 PM 87.8°F31.0°C 46.6°F8.1°C 24% 8.3 mph WSW13.4 kmh WSW 16.8 mph27.0 kmh 29.70 in1005.8 mb 0.00 in0.0 mm 0.00 in0.0 mm 0.00 in0.0 mm
12:33 PM 87.4°F30.8°C 47.3°F8.5°C 25% 5.4 mph W8.7 kmh W 16.8 mph27.0 kmh 29.70 in1005.8 mb 0.00 in0.0 mm 0.00 in0.0 mm 0.00 in0.0 mm
12:32 PM 87.3°F30.7°C 47.2°F8.4°C 25% 3.8 mph W6.1 kmh W 16.8 mph27.0 kmh 29.70 in1005.8 mb 0.00 in0.0 mm 0.00 in0.0 mm 0.00 in0.0 mm
12:31 PM 87.3°F30.7°C 47.2°F8.4°C 25% 3.8 mph W6.1 kmh W 16.8 mph27.0 kmh 29.70 in1005.8 mb 0.00 in0.0 mm 0.00 in0.0 mm 0.00 in0.0 mm
12:30 PM 87.3°F30.7°C 47.2°F8.4°C 25% 3.8 mph W6.1 kmh W 16.8 mph27.0 kmh 29.69 in1005.4 mb 0.00 in0.0 mm 0.00 in0.0 mm 0.00 in0.0 mm
12:29 PM 87.3°F30.7°C 47.2°F8.4°C 25% 6.0 mph W9.7 kmh W 16.8 mph27.0 kmh 29.70 in1005.8 mb 0.00 in0.0 mm 0.00 in0.0 mm 0.00 in0.0 mm
12:28 PM 87.1°F30.6°C 47.0°F8.3°C 25% 10.7 mph W17.2 kmh W 16.8 mph27.0 kmh 29.70 in1005.8 mb 0.00 in0.0 mm 0.00 in0.0 mm 0.00 in0.0 mm
12:27 PM 87.1°F30.6°C 47.0°F8.3°C 25% 6.9 mph W11.1 kmh W 15.2 mph24.5 kmh 29.70 in1005.8 mb 0.00 in0.0 mm 0.00 in0.0 mm 0.00 in0.0 mm
12:26 PM 87.1°F30.6°C 47.0°F8.3°C 25% 7.6 mph W12.2 kmh W 15.2 mph24.5 kmh 29.70 in1005.8 mb 0.00 in0.0 mm 0.00 in0.0 mm 0.00 in0.0 mm
12:25 PM 86.9°F30.5°C 46.9°F8.3°C 25% 4.5 mph W7.2 kmh W 15.2 mph24.5 kmh 29.70 in1005.8 mb 0.00 in0.0 mm 0.00 in0.0 mm 0.00 in0.0 mm
12:24 PM 86.9°F30.5°C 46.9°F8.3°C 25% 5.4 mph W8.7 kmh W 15.2 mph24.5 kmh 29.70 in1005.8 mb 0.00 in0.0 mm 0.00 in0.0 mm 0.00 in0.0 mm
12:23 PM 86.9°F30.5°C 46.9°F8.3°C 25% 6.0 mph W9.7 kmh W 15.2 mph24.5 kmh 29.70 in1005.8 mb 0.00 in0.0 mm 0.00 in0.0 mm 0.00 in0.0 mm
12:22 PM 86.9°F30.5°C 46.9°F8.3°C 25% 5.4 mph W8.7 kmh W 15.9 mph25.6 kmh 29.70 in1005.8 mb 0.00 in0.0 mm 0.00 in0.0 mm 0.00 in0.0 mm
12:21 PM 87.1°F30.6°C 47.0°F8.3°C 25% 8.3 mph W13.4 kmh W 15.9 mph25.6 kmh 29.71 in1006.1 mb 0.00 in0.0 mm 0.00 in0.0 mm 0.00 in0.0 mm
12:20 PM 87.1°F30.6°C 47.0°F8.3°C 25% 8.3 mph WSW13.4 kmh WSW 15.9 mph25.6 kmh 29.70 in1005.8 mb 0.00 in0.0 mm 0.00 in0.0 mm 0.00 in0.0 mm
12:19 PM 87.1°F30.6°C 48.1°F8.9°C 26% 9.2 mph WSW14.8 kmh WSW 15.9 mph25.6 kmh 29.70 in1005.8 mb 0.00 in0.0 mm 0.00 in0.0 mm 0.00 in0.0 mm
12:18 PM 87.1°F30.6°C 48.1°F8.9°C 26% 9.8 mph WSW15.8 kmh WSW 15.9 mph25.6 kmh 29.70 in1005.8 mb 0.00 in0.0 mm 0.00 in0.0 mm 0.00 in0.0 mm
12:17 PM 87.1°F30.6°C 48.1°F8.9°C 26% 8.3 mph W13.4 kmh W 15.9 mph25.6 kmh 29.70 in1005.8 mb 0.00 in0.0 mm 0.00 in0.0 mm 0.00 in0.0 mm
12:16 PM 87.1°F30.6°C 48.1°F8.9°C 26% 11.4 mph W18.3 kmh W 15.9 mph25.6 kmh 29.70 in1005.8 mb 0.00 in0.0 mm 0.00 in0.0 mm 0.00 in0.0 mm
12:15 PM 86.9°F30.5°C 47.9°F8.8°C 26% 8.3 mph W13.4 kmh W 15.9 mph25.6 kmh 29.70 in1005.8 mb 0.00 in0.0 mm 0.00 in0.0 mm 0.00 in0.0 mm
12:14 PM 86.7°F30.4°C 47.8°F8.8°C 26% 8.3 mph W13.4 kmh W 15.9 mph25.6 kmh 29.70 in1005.8 mb 0.00 in0.0 mm 0.00 in0.0 mm 0.00 in0.0 mm
12:13 PM 86.4°F30.2°C 48.5°F9.2°C 27% 9.8 mph W15.8 kmh W 15.9 mph25.6 kmh 29.70 in1005.8 mb 0.00 in0.0 mm 0.00 in0.0 mm 0.00 in0.0 mm
12:12 PM 86.4°F30.2°C 48.5°F9.2°C 27% 9.8 mph WNW15.8 kmh WNW 15.9 mph25.6 kmh 29.70 in1005.8 mb 0.00 in0.0 mm 0.00 in0.0 mm 0.00 in0.0 mm
12:11 PM 86.2°F30.1°C 48.3°F9.1°C 27% 4.5 mph WNW7.2 kmh WNW 15.9 mph25.6 kmh 29.70 in1005.8 mb 0.00 in0.0 mm 0.00 in0.0 mm 0.00 in0.0 mm
12:10 PM 86.2°F30.1°C 48.3°F9.1°C 27% 6.9 mph WNW11.1 kmh WNW 15.9 mph25.6 kmh 29.70 in1005.8 mb 0.00 in0.0 mm 0.00 in0.0 mm 0.00 in0.0 mm
12:09 PM 86.2°F30.1°C 48.3°F9.1°C 27% 4.5 mph WNW7.2 kmh WNW 20.6 mph33.2 kmh 29.70 in1005.8 mb 0.00 in0.0 mm 0.00 in0.0 mm 0.00 in0.0 mm
12:08 PM 86.2°F30.1°C 49.3°F9.6°C 28% 8.3 mph WNW13.4 kmh WNW 20.6 mph33.2 kmh 29.71 in1006.1 mb 0.00 in0.0 mm 0.00 in0.0 mm 0.00 in0.0 mm
12:07 PM 86.2°F30.1°C 49.3°F9.6°C 28% 8.3 mph WNW13.4 kmh WNW 20.6 mph33.2 kmh 29.71 in1006.1 mb 0.00 in0.0 mm 0.00 in0.0 mm 0.00 in0.0 mm
12:06 PM 85.8°F29.9°C 50.9°F10.5°C 30% 2.2 mph W3.5 kmh W 20.6 mph33.2 kmh 29.71 in1006.1 mb 0.00 in0.0 mm 0.00 in0.0 mm 0.00 in0.0 mm
12:05 PM 85.8°F29.9°C 50.9°F10.5°C 30% 6.9 mph W11.1 kmh W 20.6 mph33.2 kmh 29.71 in1006.1 mb 0.00 in0.0 mm 0.00 in0.0 mm 0.00 in0.0 mm
12:04 PM 85.8°F29.9°C 50.9°F10.5°C 30% 9.2 mph W14.8 kmh W 20.6 mph33.2 kmh 29.70 in1005.8 mb 0.00 in0.0 mm 0.00 in0.0 mm 0.00 in0.0 mm
12:03 PM 85.6°F29.8°C 50.7°F10.4°C 30% 3.8 mph W6.1 kmh W 20.6 mph33.2 kmh 29.71 in1006.1 mb 0.00 in0.0 mm 0.00 in0.0 mm 0.00 in0.0 mm
12:02 PM 85.6°F29.8°C 50.7°F10.4°C 30% 6.0 mph W9.7 kmh W 20.6 mph33.2 kmh 29.71 in1006.1 mb 0.00 in0.0 mm 0.00 in0.0 mm 0.00 in0.0 mm
12:01 PM 85.6°F29.8°C 51.6°F10.9°C 31% 8.3 mph W13.4 kmh W 20.6 mph33.2 kmh 29.71 in1006.1 mb 0.00 in0.0 mm 0.00 in0.0 mm 0.00 in0.0 mm
12:00 PM 85.5°F29.7°C 52.3°F11.3°C 32% 9.2 mph W14.8 kmh W 20.6 mph33.2 kmh 29.71 in1006.1 mb 0.00 in0.0 mm 0.00 in0.0 mm 0.00 in0.0 mm
11:59 AM 85.1°F29.5°C 51.1°F10.6°C 31% 4.5 mph W7.2 kmh W 15.9 mph25.6 kmh 29.70 in1005.8 mb 0.00 in0.0 mm 0.00 in0.0 mm 0.00 in0.0 mm
11:58 AM 85.1°F29.5°C 50.2°F10.1°C 30% 4.5 mph W7.2 kmh W 15.9 mph25.6 kmh 29.71 in1006.1 mb 0.00 in0.0 mm 0.00 in0.0 mm 0.00 in0.0 mm
11:57 AM 85.3°F29.6°C 50.4°F10.2°C 30% 10.7 mph W17.2 kmh W 16.8 mph27.0 kmh 29.71 in1006.1 mb 0.00 in0.0 mm 0.00 in0.0 mm 0.00 in0.0 mm
11:56 AM 85.3°F29.6°C 50.4°F10.2°C 30% 6.0 mph WNW9.7 kmh WNW 16.8 mph27.0 kmh 29.71 in1006.1 mb 0.00 in0.0 mm 0.00 in0.0 mm 0.00 in0.0 mm
11:55 AM 85.3°F29.6°C 50.4°F10.2°C 30% 7.6 mph WNW12.2 kmh WNW 16.8 mph27.0 kmh 29.71 in1006.1 mb 0.00 in0.0 mm 0.00 in0.0 mm 0.00 in0.0 mm
11:54 AM 85.3°F29.6°C 50.4°F10.2°C 30% 6.9 mph WNW11.1 kmh WNW 16.8 mph27.0 kmh 29.71 in1006.1 mb 0.00 in0.0 mm 0.00 in0.0 mm 0.00 in0.0 mm
11:53 AM 85.3°F29.6°C 49.5°F9.7°C 29% 6.0 mph W9.7 kmh W 16.8 mph27.0 kmh 29.71 in1006.1 mb 0.00 in0.0 mm 0.00 in0.0 mm 0.00 in0.0 mm
11:52 AM 85.5°F29.7°C 49.6°F9.8°C 29% 8.3 mph W13.4 kmh W 16.8 mph27.0 kmh 29.71 in1006.1 mb 0.00 in0.0 mm 0.00 in0.0 mm 0.00 in0.0 mm
11:51 AM 85.5°F29.7°C 50.5°F10.3°C 30% 9.2 mph W14.8 kmh W 16.8 mph27.0 kmh 29.71 in1006.1 mb 0.00 in0.0 mm 0.00 in0.0 mm 0.00 in0.0 mm
11:50 AM 85.5°F29.7°C 50.5°F10.3°C 30% 7.6 mph WNW12.2 kmh WNW 16.8 mph27.0 kmh 29.71 in1006.1 mb 0.00 in0.0 mm 0.00 in0.0 mm 0.00 in0.0 mm
11:49 AM 85.1°F29.5°C 50.2°F10.1°C 30% 5.4 mph W8.7 kmh W 16.8 mph27.0 kmh 29.71 in1006.1 mb 0.00 in0.0 mm 0.00 in0.0 mm 0.00 in0.0 mm
11:48 AM 84.9°F29.4°C 50.1°F10.1°C 30% 9.8 mph W15.8 kmh W 16.8 mph27.0 kmh 29.71 in1006.1 mb 0.00 in0.0 mm 0.00 in0.0 mm 0.00 in0.0 mm
11:47 AM 84.7°F29.3°C 50.8°F10.4°C 31% 6.0 mph WSW9.7 kmh WSW 16.8 mph27.0 kmh 29.71 in1006.1 mb 0.00 in0.0 mm 0.00 in0.0 mm 0.00 in0.0 mm
11:46 AM 84.4°F29.1°C 50.5°F10.3°C 31% 6.0 mph W9.7 kmh W 16.8 mph27.0 kmh 29.71 in1006.1 mb 0.00 in0.0 mm 0.00 in0.0 mm 0.00 in0.0 mm
11:45 AM 83.8°F28.8°C 50.9°F10.5°C 32% 5.4 mph WSW8.7 kmh WSW 16.8 mph27.0 kmh 29.71 in1006.1 mb 0.00 in0.0 mm 0.00 in0.0 mm 0.00 in0.0 mm
11:44 AM 83.7°F28.7°C 50.7°F10.4°C 32% 6.9 mph WSW11.1 kmh WSW 16.8 mph27.0 kmh 29.71 in1006.1 mb 0.00 in0.0 mm 0.00 in0.0 mm 0.00 in0.0 mm
11:43 AM 83.7°F28.7°C 49.9°F9.9°C 31% 4.5 mph W7.2 kmh W 16.8 mph27.0 kmh 29.71 in1006.1 mb 0.00 in0.0 mm 0.00 in0.0 mm 0.00 in0.0 mm
11:42 AM 83.8°F28.8°C 50.0°F10.0°C 31% 6.9 mph W11.1 kmh W 16.8 mph27.0 kmh 29.71 in1006.1 mb 0.00 in0.0 mm 0.00 in0.0 mm 0.00 in0.0 mm
11:41 AM 83.8°F28.8°C 50.0°F10.0°C 31% 11.4 mph W18.3 kmh W 18.3 mph29.5 kmh 29.71 in1006.1 mb 0.00 in0.0 mm 0.00 in0.0 mm 0.00 in0.0 mm
11:40 AM 83.8°F28.8°C 50.0°F10.0°C 31% 11.4 mph W18.3 kmh W 18.3 mph29.5 kmh 29.71 in1006.1 mb 0.00 in0.0 mm 0.00 in0.0 mm 0.00 in0.0 mm
11:39 AM 83.8°F28.8°C 49.1°F9.5°C 30% 6.9 mph W11.1 kmh W 18.3 mph29.5 kmh 29.71 in1006.1 mb 0.00 in0.0 mm 0.00 in0.0 mm 0.00 in0.0 mm
11:38 AM 83.8°F28.8°C 50.0°F10.0°C 31% 9.8 mph W15.8 kmh W 18.3 mph29.5 kmh 29.72 in1006.4 mb 0.00 in0.0 mm 0.00 in0.0 mm 0.00 in0.0 mm
11:37 AM 83.7°F28.7°C 49.0°F9.4°C 30% 6.0 mph WNW9.7 kmh WNW 19.7 mph31.7 kmh 29.72 in1006.4 mb 0.00 in0.0 mm 0.00 in0.0 mm 0.00 in0.0 mm
11:36 AM 83.5°F28.6°C 48.8°F9.3°C 30% 9.2 mph W14.8 kmh W 19.7 mph31.7 kmh 29.71 in1006.1 mb 0.00 in0.0 mm 0.00 in0.0 mm 0.00 in0.0 mm
11:35 AM 83.7°F28.7°C 49.0°F9.4°C 30% 6.0 mph WNW9.7 kmh WNW 19.7 mph31.7 kmh 29.72 in1006.4 mb 0.00 in0.0 mm 0.00 in0.0 mm 0.00 in0.0 mm
11:34 AM 83.7°F28.7°C 49.0°F9.4°C 30% 11.4 mph W18.3 kmh W 19.7 mph31.7 kmh 29.72 in1006.4 mb 0.00 in0.0 mm 0.00 in0.0 mm 0.00 in0.0 mm
11:33 AM 83.7°F28.7°C 49.0°F9.4°C 30% 6.9 mph W11.1 kmh W 19.7 mph31.7 kmh 29.71 in1006.1 mb 0.00 in0.0 mm 0.00 in0.0 mm 0.00 in0.0 mm
11:32 AM 83.7°F28.7°C 48.1°F8.9°C 29% 6.9 mph WNW11.1 kmh WNW 19.7 mph31.7 kmh 29.72 in1006.4 mb 0.00 in0.0 mm 0.00 in0.0 mm 0.00 in0.0 mm
11:31 AM 83.7°F28.7°C 48.1°F8.9°C 29% 9.2 mph WNW14.8 kmh WNW 19.7 mph31.7 kmh 29.72 in1006.4 mb 0.00 in0.0 mm 0.00 in0.0 mm 0.00 in0.0 mm
11:30 AM 83.8°F28.8°C 48.2°F9.0°C 29% 9.8 mph W15.8 kmh W 19.7 mph31.7 kmh 29.72 in1006.4 mb 0.00 in0.0 mm 0.00 in0.0 mm 0.00 in0.0 mm
11:29 AM 83.8°F28.8°C 49.1°F9.5°C 30% 9.2 mph WNW14.8 kmh WNW 19.7 mph31.7 kmh 29.72 in1006.4 mb 0.00 in0.0 mm 0.00 in0.0 mm 0.00 in0.0 mm
11:28 AM 83.7°F28.7°C 49.0°F9.4°C 30% 8.3 mph WNW13.4 kmh WNW 19.7 mph31.7 kmh 29.72 in1006.4 mb 0.00 in0.0 mm 0.00 in0.0 mm 0.00 in0.0 mm
11:27 AM 83.5°F28.6°C 48.8°F9.3°C 30% 14.5 mph WNW23.3 kmh WNW 19.7 mph31.7 kmh 29.72 in1006.4 mb 0.00 in0.0 mm 0.00 in0.0 mm 0.00 in0.0 mm
11:26 AM 83.3°F28.5°C 48.7°F9.3°C 30% 4.5 mph WNW7.2 kmh WNW 18.3 mph29.5 kmh 29.71 in1006.1 mb 0.00 in0.0 mm 0.00 in0.0 mm 0.00 in0.0 mm
11:25 AM 83.1°F28.4°C 48.5°F9.2°C 30% 9.2 mph WNW14.8 kmh WNW 18.3 mph29.5 kmh 29.72 in1006.4 mb 0.00 in0.0 mm 0.00 in0.0 mm 0.00 in0.0 mm
11:24 AM 83.1°F28.4°C 48.5°F9.2°C 30% 6.0 mph NW9.7 kmh NW 18.3 mph29.5 kmh 29.72 in1006.4 mb 0.00 in0.0 mm 0.00 in0.0 mm 0.00 in0.0 mm
11:23 AM 82.9°F28.3°C 48.4°F9.1°C 30% 6.0 mph WNW9.7 kmh WNW 18.3 mph29.5 kmh 29.72 in1006.4 mb 0.00 in0.0 mm 0.00 in0.0 mm 0.00 in0.0 mm
11:22 AM 82.9°F28.3°C 48.4°F9.1°C 30% 9.2 mph W14.8 kmh W 18.3 mph29.5 kmh 29.72 in1006.4 mb 0.00 in0.0 mm 0.00 in0.0 mm 0.00 in0.0 mm
11:21 AM 82.8°F28.2°C 48.2°F9.0°C 30% 9.2 mph WNW14.8 kmh WNW 18.3 mph29.5 kmh 29.73 in1006.8 mb 0.00 in0.0 mm 0.00 in0.0 mm 0.00 in0.0 mm
11:20 AM 82.8°F28.2°C 48.2°F9.0°C 30% 9.2 mph WNW14.8 kmh WNW 18.3 mph29.5 kmh 29.72 in1006.4 mb 0.00 in0.0 mm 0.00 in0.0 mm 0.00 in0.0 mm
11:19 AM 82.8°F28.2°C 47.3°F8.5°C 29% 7.6 mph WNW12.2 kmh WNW 18.3 mph29.5 kmh 29.72 in1006.4 mb 0.00 in0.0 mm 0.00 in0.0 mm 0.00 in0.0 mm
11:18 AM 82.9°F28.3°C 47.5°F8.6°C 29% 8.3 mph WNW13.4 kmh WNW 18.3 mph29.5 kmh 29.72 in1006.4 mb 0.00 in0.0 mm 0.00 in0.0 mm 0.00 in0.0 mm
11:17 AM 83.3°F28.5°C 48.7°F9.3°C 30% 12.1 mph WNW19.5 kmh WNW 18.3 mph29.5 kmh 29.73 in1006.8 mb 0.00 in0.0 mm 0.00 in0.0 mm 0.00 in0.0 mm
11:16 AM 83.3°F28.5°C 48.7°F9.3°C 30% 12.1 mph WNW19.5 kmh WNW 18.3 mph29.5 kmh 29.72 in1006.4 mb 0.00 in0.0 mm 0.00 in0.0 mm 0.00 in0.0 mm
11:15 AM 83.3°F28.5°C 48.7°F9.3°C 30% 9.2 mph W14.8 kmh W 15.2 mph24.5 kmh 29.73 in1006.8 mb 0.00 in0.0 mm 0.00 in0.0 mm 0.00 in0.0 mm
11:14 AM 83.1°F28.4°C 48.5°F9.2°C 30% 13.0 mph W20.9 kmh W 15.2 mph24.5 kmh 29.72 in1006.4 mb 0.00 in0.0 mm 0.00 in0.0 mm 0.00 in0.0 mm
11:13 AM 82.9°F28.3°C 49.2°F9.6°C 31% 9.2 mph WNW14.8 kmh WNW 15.2 mph24.5 kmh 29.73 in1006.8 mb 0.00 in0.0 mm 0.00 in0.0 mm 0.00 in0.0 mm
11:12 AM 82.9°F28.3°C 49.2°F9.6°C 31% 6.9 mph NW11.1 kmh NW 15.2 mph24.5 kmh 29.72 in1006.4 mb 0.00 in0.0 mm 0.00 in0.0 mm 0.00 in0.0 mm
11:11 AM 82.8°F28.2°C 49.1°F9.5°C 31% 3.8 mph NW6.1 kmh NW 15.2 mph24.5 kmh 29.73 in1006.8 mb 0.00 in0.0 mm 0.00 in0.0 mm 0.00 in0.0 mm
11:10 AM 82.6°F28.1°C 48.9°F9.4°C 31% 5.4 mph WNW8.7 kmh WNW 15.2 mph24.5 kmh 29.72 in1006.4 mb 0.00 in0.0 mm 0.00 in0.0 mm 0.00 in0.0 mm
11:09 AM 82.2°F27.9°C 47.7°F8.7°C 30% 6.9 mph WNW11.1 kmh WNW 15.2 mph24.5 kmh 29.72 in1006.4 mb 0.00 in0.0 mm 0.00 in0.0 mm 0.00 in0.0 mm
11:08 AM 81.9°F27.7°C 46.5°F8.1°C 29% 5.4 mph WNW8.7 kmh WNW 15.2 mph24.5 kmh 29.73 in1006.8 mb 0.00 in0.0 mm 0.00 in0.0 mm 0.00 in0.0 mm
11:07 AM 81.7°F27.6°C 46.4°F8.0°C 29% 4.5 mph WNW7.2 kmh WNW 15.2 mph24.5 kmh 29.73 in1006.8 mb 0.00 in0.0 mm 0.00 in0.0 mm 0.00 in0.0 mm
11:06 AM 81.7°F27.6°C 46.4°F8.0°C 29% 6.0 mph WNW9.7 kmh WNW 15.2 mph24.5 kmh 29.73 in1006.8 mb 0.00 in0.0 mm 0.00 in0.0 mm 0.00 in0.0 mm
11:05 AM 81.5°F27.5°C 45.3°F7.4°C 28% 5.4 mph WNW8.7 kmh WNW 15.2 mph24.5 kmh 29.73 in1006.8 mb 0.00 in0.0 mm 0.00 in0.0 mm 0.00 in0.0 mm
11:04 AM 81.7°F27.6°C 45.4°F7.4°C 28% 8.3 mph WNW13.4 kmh WNW 15.2 mph24.5 kmh 29.73 in1006.8 mb 0.00 in0.0 mm 0.00 in0.0 mm 0.00 in0.0 mm
11:03 AM 81.7°F27.6°C 45.4°F7.4°C 28% 6.0 mph WNW9.7 kmh WNW 15.9 mph25.6 kmh 29.72 in1006.4 mb 0.00 in0.0 mm 0.00 in0.0 mm 0.00 in0.0 mm
11:02 AM 81.9°F27.7°C 45.6°F7.6°C 28% 8.3 mph WNW13.4 kmh WNW 15.9 mph25.6 kmh 29.72 in1006.4 mb 0.00 in0.0 mm 0.00 in0.0 mm 0.00 in0.0 mm
11:01 AM 82.0°F27.8°C 45.8°F7.7°C 28% 8.3 mph WNW13.4 kmh WNW 15.9 mph25.6 kmh 29.72 in1006.4 mb 0.00 in0.0 mm 0.00 in0.0 mm 0.00 in0.0 mm
11:00 AM 82.0°F27.8°C 46.7°F8.2°C 29% 9.2 mph WNW14.8 kmh WNW 15.9 mph25.6 kmh 29.72 in1006.4 mb 0.00 in0.0 mm 0.00 in0.0 mm 0.00 in0.0 mm
10:59 AM 81.9°F27.7°C 47.4°F8.6°C 30% 6.9 mph NW11.1 kmh NW 15.9 mph25.6 kmh 29.72 in1006.4 mb 0.00 in0.0 mm 0.00 in0.0 mm 0.00 in0.0 mm
10:58 AM 81.7°F27.6°C 47.3°F8.5°C 30% 6.0 mph NW9.7 kmh NW 15.9 mph25.6 kmh 29.72 in1006.4 mb 0.00 in0.0 mm 0.00 in0.0 mm 0.00 in0.0 mm
10:57 AM 81.5°F27.5°C 47.1°F8.4°C 30% 4.5 mph NW7.2 kmh NW 15.9 mph25.6 kmh 29.72 in1006.4 mb 0.00 in0.0 mm 0.00 in0.0 mm 0.00 in0.0 mm
10:56 AM 81.3°F27.4°C 47.0°F8.3°C 30% 6.9 mph NW11.1 kmh NW 15.9 mph25.6 kmh 29.72 in1006.4 mb 0.00 in0.0 mm 0.00 in0.0 mm 0.00 in0.0 mm
10:55 AM 81.3°F27.4°C 46.1°F7.8°C 29% 5.4 mph NW8.7 kmh NW 15.9 mph25.6 kmh 29.72 in1006.4 mb 0.00 in0.0 mm 0.00 in0.0 mm 0.00 in0.0 mm
10:54 AM 81.3°F27.4°C 46.1°F7.8°C 29% 6.0 mph NW9.7 kmh NW 15.9 mph25.6 kmh 29.72 in1006.4 mb 0.00 in0.0 mm 0.00 in0.0 mm 0.00 in0.0 mm
10:53 AM 81.1°F27.3°C 45.9°F7.7°C 29% 11.4 mph WNW18.3 kmh WNW 14.5 mph23.3 kmh 29.72 in1006.4 mb 0.00 in0.0 mm 0.00 in0.0 mm 0.00 in0.0 mm
10:52 AM 81.1°F27.3°C 45.9°F7.7°C 29% 3.8 mph WNW6.1 kmh WNW 14.5 mph23.3 kmh 29.71 in1006.1 mb 0.00 in0.0 mm 0.00 in0.0 mm 0.00 in0.0 mm
10:51 AM 81.0°F27.2°C 46.7°F8.2°C 30% 6.9 mph WNW11.1 kmh WNW 14.5 mph23.3 kmh 29.72 in1006.4 mb 0.00 in0.0 mm 0.00 in0.0 mm 0.00 in0.0 mm
10:50 AM 80.8°F27.1°C 46.5°F8.1°C 30% 7.6 mph NW12.2 kmh NW 12.1 mph19.5 kmh 29.72 in1006.4 mb 0.00 in0.0 mm 0.00 in0.0 mm 0.00 in0.0 mm
10:49 AM 80.6°F27.0°C 45.4°F7.4°C 29% 6.0 mph NW9.7 kmh NW 12.1 mph19.5 kmh 29.71 in1006.1 mb 0.00 in0.0 mm 0.00 in0.0 mm 0.00 in0.0 mm
10:48 AM 80.6°F27.0°C 46.3°F7.9°C 30% 6.9 mph NW11.1 kmh NW 15.9 mph25.6 kmh 29.71 in1006.1 mb 0.00 in0.0 mm 0.00 in0.0 mm 0.00 in0.0 mm
10:47 AM 80.6°F27.0°C 46.3°F7.9°C 30% 6.9 mph NW11.1 kmh NW 15.9 mph25.6 kmh 29.70 in1005.8 mb 0.00 in0.0 mm 0.00 in0.0 mm 0.00 in0.0 mm
10:46 AM 80.4°F26.9°C 47.1°F8.4°C 31% 9.2 mph NW14.8 kmh NW 15.9 mph25.6 kmh 29.71 in1006.1 mb 0.00 in0.0 mm 0.00 in0.0 mm 0.00 in0.0 mm
10:45 AM 80.4°F26.9°C 46.2°F7.9°C 30% 6.0 mph NW9.7 kmh NW 15.9 mph25.6 kmh 29.71 in1006.1 mb 0.00 in0.0 mm 0.00 in0.0 mm 0.00 in0.0 mm
10:44 AM 80.4°F26.9°C 47.1°F8.4°C 31% 7.6 mph NW12.2 kmh NW 15.9 mph25.6 kmh 29.71 in1006.1 mb 0.00 in0.0 mm 0.00 in0.0 mm 0.00 in0.0 mm
10:43 AM 80.2°F26.8°C 46.9°F8.3°C 31% 6.0 mph NW9.7 kmh NW 15.9 mph25.6 kmh 29.71 in1006.1 mb 0.00 in0.0 mm 0.00 in0.0 mm 0.00 in0.0 mm
10:42 AM 80.1°F26.7°C 46.7°F8.2°C 31% 7.6 mph NW12.2 kmh NW 17.4 mph28.0 kmh 29.70 in1005.8 mb 0.00 in0.0 mm 0.00 in0.0 mm 0.00 in0.0 mm
10:41 AM 79.9°F26.6°C 45.7°F7.6°C 30% 8.3 mph NW13.4 kmh NW 17.4 mph28.0 kmh 29.71 in1006.1 mb 0.00 in0.0 mm 0.00 in0.0 mm 0.00 in0.0 mm
10:40 AM 79.9°F26.6°C 45.7°F7.6°C 30% 4.5 mph NW7.2 kmh NW 17.4 mph28.0 kmh 29.71 in1006.1 mb 0.00 in0.0 mm 0.00 in0.0 mm 0.00 in0.0 mm
10:39 AM 79.9°F26.6°C 45.7°F7.6°C 30% 7.6 mph NW12.2 kmh NW 17.4 mph28.0 kmh 29.71 in1006.1 mb 0.00 in0.0 mm 0.00 in0.0 mm 0.00 in0.0 mm
10:38 AM 79.9°F26.6°C 45.7°F7.6°C 30% 8.3 mph NW13.4 kmh NW 17.4 mph28.0 kmh 29.71 in1006.1 mb 0.00 in0.0 mm 0.00 in0.0 mm 0.00 in0.0 mm
10:37 AM 79.9°F26.6°C 45.7°F7.6°C 30% 7.6 mph NW12.2 kmh NW 17.4 mph28.0 kmh 29.70 in1005.8 mb 0.00 in0.0 mm 0.00 in0.0 mm 0.00 in0.0 mm
10:36 AM 79.9°F26.6°C 45.7°F7.6°C 30% 8.3 mph NW13.4 kmh NW 17.4 mph28.0 kmh 29.71 in1006.1 mb 0.00 in0.0 mm 0.00 in0.0 mm 0.00 in0.0 mm
10:35 AM 79.9°F26.6°C 45.7°F7.6°C 30% 6.9 mph NW11.1 kmh NW 17.4 mph28.0 kmh 29.71 in1006.1 mb 0.00 in0.0 mm 0.00 in0.0 mm 0.00 in0.0 mm
10:34 AM 79.7°F26.5°C 45.6°F7.6°C 30% 9.2 mph NW14.8 kmh NW 17.4 mph28.0 kmh 29.70 in1005.8 mb 0.00 in0.0 mm 0.00 in0.0 mm 0.00 in0.0 mm
10:33 AM 79.7°F26.5°C 45.6°F7.6°C 30% 8.3 mph NW13.4 kmh NW 17.4 mph28.0 kmh 29.70 in1005.8 mb 0.00 in0.0 mm 0.00 in0.0 mm 0.00 in0.0 mm
10:32 AM 79.5°F26.4°C 45.4°F7.4°C 30% 8.3 mph NW13.4 kmh NW 17.4 mph28.0 kmh 29.70 in1005.8 mb 0.00 in0.0 mm 0.00 in0.0 mm 0.00 in0.0 mm
10:31 AM 79.5°F26.4°C 45.4°F7.4°C 30% 4.5 mph NNW7.2 kmh NNW 17.4 mph28.0 kmh 29.70 in1005.8 mb 0.00 in0.0 mm 0.00 in0.0 mm 0.00 in0.0 mm
10:29 AM 79.5°F26.4°C 44.5°F6.9°C 29% 6.9 mph NNW11.1 kmh NNW 17.4 mph28.0 kmh 29.70 in1005.8 mb 0.00 in0.0 mm 0.00 in0.0 mm 0.00 in0.0 mm
10:28 AM 79.5°F26.4°C 44.5°F6.9°C 29% 7.6 mph NNW12.2 kmh NNW 17.4 mph28.0 kmh 29.70 in1005.8 mb 0.00 in0.0 mm 0.00 in0.0 mm 0.00 in0.0 mm
10:27 AM 79.5°F26.4°C 45.4°F7.4°C 30% 12.1 mph NNW19.5 kmh NNW 17.4 mph28.0 kmh 29.70 in1005.8 mb 0.00 in0.0 mm 0.00 in0.0 mm 0.00 in0.0 mm
10:26 AM 79.5°F26.4°C 45.4°F7.4°C 30% 5.4 mph N8.7 kmh N 15.9 mph25.6 kmh 29.70 in1005.8 mb 0.00 in0.0 mm 0.00 in0.0 mm 0.00 in0.0 mm
10:25 AM 79.2°F26.2°C 45.1°F7.3°C 30% 8.3 mph N13.4 kmh N 15.9 mph25.6 kmh 29.70 in1005.8 mb 0.00 in0.0 mm 0.00 in0.0 mm 0.00 in0.0 mm
10:24 AM 79.2°F26.2°C 45.1°F7.3°C 30% 3.1 mph N5.0 kmh N 15.9 mph25.6 kmh 29.70 in1005.8 mb 0.00 in0.0 mm 0.00 in0.0 mm 0.00 in0.0 mm
10:23 AM 79.2°F26.2°C 44.2°F6.8°C 29% 5.4 mph N8.7 kmh N 15.9 mph25.6 kmh 29.70 in1005.8 mb 0.00 in0.0 mm 0.00 in0.0 mm 0.00 in0.0 mm
10:22 AM 79.2°F26.2°C 45.1°F7.3°C 30% 9.2 mph N14.8 kmh N 15.9 mph25.6 kmh 29.70 in1005.8 mb 0.00 in0.0 mm 0.00 in0.0 mm 0.00 in0.0 mm
10:21 AM 79.2°F26.2°C 44.2°F6.8°C 29% 6.9 mph N11.1 kmh N 13.6 mph21.9 kmh 29.70 in1005.8 mb 0.00 in0.0 mm 0.00 in0.0 mm 0.00 in0.0 mm
10:20 AM 79.0°F26.1°C 44.1°F6.7°C 29% 6.9 mph NNW11.1 kmh NNW 13.6 mph21.9 kmh 29.70 in1005.8 mb 0.00 in0.0 mm 0.00 in0.0 mm 0.00 in0.0 mm
10:19 AM 79.2°F26.2°C 44.2°F6.8°C 29% 7.6 mph NNW12.2 kmh NNW 13.6 mph21.9 kmh 29.70 in1005.8 mb 0.00 in0.0 mm 0.00 in0.0 mm 0.00 in0.0 mm
10:18 AM 79.2°F26.2°C 44.2°F6.8°C 29% 8.3 mph NNW13.4 kmh NNW 13.6 mph21.9 kmh 29.70 in1005.8 mb 0.00 in0.0 mm 0.00 in0.0 mm 0.00 in0.0 mm
10:17 AM 79.2°F26.2°C 43.3°F6.3°C 28% 6.9 mph NNW11.1 kmh NNW 13.6 mph21.9 kmh 29.70 in1005.8 mb 0.00 in0.0 mm 0.00 in0.0 mm 0.00 in0.0 mm
10:16 AM 79.2°F26.2°C 43.3°F6.3°C 28% 11.4 mph NW18.3 kmh NW 13.6 mph21.9 kmh 29.70 in1005.8 mb 0.00 in0.0 mm 0.00 in0.0 mm 0.00 in0.0 mm
10:15 AM 79.2°F26.2°C 43.3°F6.3°C 28% 7.6 mph NW12.2 kmh NW 14.5 mph23.3 kmh 29.70 in1005.8 mb 0.00 in0.0 mm 0.00 in0.0 mm 0.00 in0.0 mm
10:14 AM 79.2°F26.2°C 43.3°F6.3°C 28% 8.3 mph NW13.4 kmh NW 14.5 mph23.3 kmh 29.70 in1005.8 mb 0.00 in0.0 mm 0.00 in0.0 mm 0.00 in0.0 mm
10:13 AM 79.0°F26.1°C 44.1°F6.7°C 29% 7.6 mph NW12.2 kmh NW 14.5 mph23.3 kmh 29.70 in1005.8 mb 0.00 in0.0 mm 0.00 in0.0 mm 0.00 in0.0 mm
10:12 AM 78.8°F26.0°C 43.9°F6.6°C 29% 5.4 mph NW8.7 kmh NW 14.5 mph23.3 kmh 29.70 in1005.8 mb 0.00 in0.0 mm 0.00 in0.0 mm 0.00 in0.0 mm
10:11 AM 78.8°F26.0°C 43.9°F6.6°C 29% 6.0 mph NW9.7 kmh NW 14.5 mph23.3 kmh 29.70 in1005.8 mb 0.00 in0.0 mm 0.00 in0.0 mm 0.00 in0.0 mm
10:10 AM 78.6°F25.9°C 44.6°F7.0°C 30% 6.9 mph NW11.1 kmh NW 14.5 mph23.3 kmh 29.70 in1005.8 mb 0.00 in0.0 mm 0.00 in0.0 mm 0.00 in0.0 mm
10:09 AM 78.6°F25.9°C 43.7°F6.5°C 29% 8.3 mph NW13.4 kmh NW 14.5 mph23.3 kmh 29.69 in1005.4 mb 0.00 in0.0 mm 0.00 in0.0 mm 0.00 in0.0 mm
10:08 AM 78.6°F25.9°C 43.7°F6.5°C 29% 7.6 mph NW12.2 kmh NW 14.5 mph23.3 kmh 29.70 in1005.8 mb 0.00 in0.0 mm 0.00 in0.0 mm 0.00 in0.0 mm
10:07 AM 78.6°F25.9°C 43.7°F6.5°C 29% 6.9 mph NW11.1 kmh NW 14.5 mph23.3 kmh 29.70 in1005.8 mb 0.00 in0.0 mm 0.00 in0.0 mm 0.00 in0.0 mm
10:06 AM 78.4°F25.8°C 43.6°F6.4°C 29% 4.5 mph NW7.2 kmh NW 14.5 mph23.3 kmh 29.70 in1005.8 mb 0.00 in0.0 mm 0.00 in0.0 mm 0.00 in0.0 mm
10:05 AM 78.4°F25.8°C 43.6°F6.4°C 29% 9.8 mph NW15.8 kmh NW 14.5 mph23.3 kmh 29.70 in1005.8 mb 0.00 in0.0 mm 0.00 in0.0 mm 0.00 in0.0 mm
10:04 AM 78.4°F25.8°C 43.6°F6.4°C 29% 8.3 mph NW13.4 kmh NW 13.0 mph20.9 kmh 29.70 in1005.8 mb 0.00 in0.0 mm 0.00 in0.0 mm 0.00 in0.0 mm
10:03 AM 78.4°F25.8°C 43.6°F6.4°C 29% 7.6 mph NW12.2 kmh NW 13.0 mph20.9 kmh 29.70 in1005.8 mb 0.00 in0.0 mm 0.00 in0.0 mm 0.00 in0.0 mm
10:02 AM 78.4°F25.8°C 43.6°F6.4°C 29% 6.9 mph NNW11.1 kmh NNW 13.0 mph20.9 kmh 29.70 in1005.8 mb 0.00 in0.0 mm 0.00 in0.0 mm 0.00 in0.0 mm
10:01 AM 78.4°F25.8°C 43.6°F6.4°C 29% 7.6 mph NNW12.2 kmh NNW 13.0 mph20.9 kmh 29.70 in1005.8 mb 0.00 in0.0 mm 0.00 in0.0 mm 0.00 in0.0 mm
09:59 AM 78.4°F25.8°C 43.6°F6.4°C 29% 8.3 mph NW13.4 kmh NW 13.0 mph20.9 kmh 29.70 in1005.8 mb 0.00 in0.0 mm 0.00 in0.0 mm 0.00 in0.0 mm
09:58 AM 78.4°F25.8°C 43.6°F6.4°C 29% 8.3 mph NW13.4 kmh NW 12.1 mph19.5 kmh 29.70 in1005.8 mb 0.00 in0.0 mm 0.00 in0.0 mm 0.00 in0.0 mm
09:57 AM 78.3°F25.7°C 43.4°F6.3°C 29% 4.5 mph NW7.2 kmh NW 10.7 mph17.2 kmh 29.70 in1005.8 mb 0.00 in0.0 mm 0.00 in0.0 mm 0.00 in0.0 mm
09:56 AM 78.1°F25.6°C 43.3°F6.3°C 29% 6.0 mph NW9.7 kmh NW 15.2 mph24.5 kmh 29.70 in1005.8 mb 0.00 in0.0 mm 0.00 in0.0 mm 0.00 in0.0 mm
09:55 AM 78.1°F25.6°C 44.2°F6.8°C 30% 7.6 mph NW12.2 kmh NW 15.2 mph24.5 kmh 29.70 in1005.8 mb 0.00 in0.0 mm 0.00 in0.0 mm 0.00 in0.0 mm
09:54 AM 77.9°F25.5°C 44.0°F6.7°C 30% 5.4 mph NW8.7 kmh NW 15.2 mph24.5 kmh 29.70 in1005.8 mb 0.00 in0.0 mm 0.00 in0.0 mm 0.00 in0.0 mm
09:53 AM 77.7°F25.4°C 43.0°F6.1°C 29% 6.9 mph NW11.1 kmh NW 15.2 mph24.5 kmh 29.70 in1005.8 mb 0.00 in0.0 mm 0.00 in0.0 mm 0.00 in0.0 mm
09:52 AM 77.7°F25.4°C 43.0°F6.1°C 29% 5.4 mph NW8.7 kmh NW 15.2 mph24.5 kmh 29.70 in1005.8 mb 0.00 in0.0 mm 0.00 in0.0 mm 0.00 in0.0 mm
09:51 AM 77.5°F25.3°C 42.8°F6.0°C 29% 5.4 mph NW8.7 kmh NW 15.2 mph24.5 kmh 29.70 in1005.8 mb 0.00 in0.0 mm 0.00 in0.0 mm 0.00 in0.0 mm
09:50 AM 77.5°F25.3°C 42.8°F6.0°C 29% 6.0 mph NW9.7 kmh NW 15.2 mph24.5 kmh 29.70 in1005.8 mb 0.00 in0.0 mm 0.00 in0.0 mm 0.00 in0.0 mm
09:49 AM 77.2°F25.1°C 42.5°F5.8°C 29% 5.4 mph NW8.7 kmh NW 15.2 mph24.5 kmh 29.70 in1005.8 mb 0.00 in0.0 mm 0.00 in0.0 mm 0.00 in0.0 mm
09:48 AM 77.0°F25.0°C 42.3°F5.7°C 29% 6.0 mph NW9.7 kmh NW 15.2 mph24.5 kmh 29.70 in1005.8 mb 0.00 in0.0 mm 0.00 in0.0 mm 0.00 in0.0 mm
09:47 AM 77.0°F25.0°C 42.3°F5.7°C 29% 5.4 mph NW8.7 kmh NW 15.2 mph24.5 kmh 29.70 in1005.8 mb 0.00 in0.0 mm 0.00 in0.0 mm 0.00 in0.0 mm
09:46 AM 77.0°F25.0°C 42.3°F5.7°C 29% 8.3 mph NW13.4 kmh NW 15.2 mph24.5 kmh 29.70 in1005.8 mb 0.00 in0.0 mm 0.00 in0.0 mm 0.00 in0.0 mm
09:45 AM 76.8°F24.9°C 43.1°F6.2°C 30% 6.9 mph NW11.1 kmh NW 16.8 mph27.0 kmh 29.70 in1005.8 mb 0.00 in0.0 mm 0.00 in0.0 mm 0.00 in0.0 mm
09:44 AM 76.6°F24.8°C 42.9°F6.1°C 30% 3.8 mph NW6.1 kmh NW 16.8 mph27.0 kmh 29.70 in1005.8 mb 0.00 in0.0 mm 0.00 in0.0 mm 0.00 in0.0 mm
09:43 AM 76.6°F24.8°C 42.9°F6.1°C 30% 8.3 mph NW13.4 kmh NW 16.8 mph27.0 kmh 29.70 in1005.8 mb 0.00 in0.0 mm 0.00 in0.0 mm 0.00 in0.0 mm
09:42 AM 76.6°F24.8°C 42.9°F6.1°C 30% 7.6 mph NW12.2 kmh NW 16.8 mph27.0 kmh 29.70 in1005.8 mb 0.00 in0.0 mm 0.00 in0.0 mm 0.00 in0.0 mm
09:41 AM 76.5°F24.7°C 42.8°F6.0°C 30% 5.4 mph NW8.7 kmh NW 16.8 mph27.0 kmh 29.70 in1005.8 mb 0.00 in0.0 mm 0.00 in0.0 mm 0.00 in0.0 mm
09:40 AM 76.3°F24.6°C 42.6°F5.9°C 30% 5.4 mph NW8.7 kmh NW 16.8 mph27.0 kmh 29.70 in1005.8 mb 0.00 in0.0 mm 0.00 in0.0 mm 0.00 in0.0 mm
09:39 AM 76.1°F24.5°C 42.4°F5.8°C 30% 4.5 mph NW7.2 kmh NW 16.8 mph27.0 kmh 29.70 in1005.8 mb 0.00 in0.0 mm 0.00 in0.0 mm 0.00 in0.0 mm
09:38 AM 75.9°F24.4°C 41.4°F5.2°C 29% 6.0 mph NW9.7 kmh NW 16.8 mph27.0 kmh 29.70 in1005.8 mb 0.00 in0.0 mm 0.00 in0.0 mm 0.00 in0.0 mm
09:37 AM 75.7°F24.3°C 41.3°F5.2°C 29% 6.9 mph NW11.1 kmh NW 16.8 mph27.0 kmh 29.70 in1005.8 mb 0.00 in0.0 mm 0.00 in0.0 mm 0.00 in0.0 mm
09:36 AM 75.9°F24.4°C 41.4°F5.2°C 29% 10.7 mph NW17.2 kmh NW 16.8 mph27.0 kmh 29.70 in1005.8 mb 0.00 in0.0 mm 0.00 in0.0 mm 0.00 in0.0 mm
09:35 AM 76.1°F24.5°C 41.6°F5.3°C 29% 10.7 mph NW17.2 kmh NW 16.8 mph27.0 kmh 29.70 in1005.8 mb 0.00 in0.0 mm 0.00 in0.0 mm 0.00 in0.0 mm
09:34 AM 76.1°F24.5°C 40.7°F4.8°C 28% 8.3 mph NW13.4 kmh NW 15.9 mph25.6 kmh 29.70 in1005.8 mb 0.00 in0.0 mm 0.00 in0.0 mm 0.00 in0.0 mm
09:33 AM 76.1°F24.5°C 41.6°F5.3°C 29% 11.4 mph NW18.3 kmh NW 15.9 mph25.6 kmh 29.70 in1005.8 mb 0.00 in0.0 mm 0.00 in0.0 mm 0.00 in0.0 mm
09:32 AM 75.9°F24.4°C 41.4°F5.2°C 29% 6.0 mph NW9.7 kmh NW 15.9 mph25.6 kmh 29.70 in1005.8 mb 0.00 in0.0 mm 0.00 in0.0 mm 0.00 in0.0 mm
09:31 AM 75.9°F24.4°C 40.5°F4.7°C 28% 6.9 mph NW11.1 kmh NW 15.9 mph25.6 kmh 29.70 in1005.8 mb 0.00 in0.0 mm 0.00 in0.0 mm 0.00 in0.0 mm
09:30 AM 75.7°F24.3°C 41.3°F5.2°C 29% 6.9 mph WNW11.1 kmh WNW 15.9 mph25.6 kmh 29.70 in1005.8 mb 0.00 in0.0 mm 0.00 in0.0 mm 0.00 in0.0 mm
09:29 AM 75.4°F24.1°C 40.0°F4.4°C 28% 4.5 mph WNW7.2 kmh WNW 15.9 mph25.6 kmh 29.70 in1005.8 mb 0.00 in0.0 mm 0.00 in0.0 mm 0.00 in0.0 mm
09:28 AM 75.4°F24.1°C 40.0°F4.4°C 28% 6.9 mph WNW11.1 kmh WNW 15.9 mph25.6 kmh 29.70 in1005.8 mb 0.00 in0.0 mm 0.00 in0.0 mm 0.00 in0.0 mm
09:27 AM 75.4°F24.1°C 40.0°F4.4°C 28% 9.2 mph WNW14.8 kmh WNW 15.9 mph25.6 kmh 29.70 in1005.8 mb 0.00 in0.0 mm 0.00 in0.0 mm 0.00 in0.0 mm
09:26 AM 75.4°F24.1°C 40.0°F4.4°C 28% 7.6 mph WNW12.2 kmh WNW 15.9 mph25.6 kmh 29.70 in1005.8 mb 0.00 in0.0 mm 0.00 in0.0 mm 0.00 in0.0 mm
09:25 AM 75.0°F23.9°C 41.5°F5.3°C 30% 8.3 mph NW13.4 kmh NW 16.8 mph27.0 kmh 29.71 in1006.1 mb 0.00 in0.0 mm 0.00 in0.0 mm 0.00 in0.0 mm
09:24 AM 75.0°F23.9°C 41.5°F5.3°C 30% 6.9 mph NW11.1 kmh NW 16.8 mph27.0 kmh 29.70 in1005.8 mb 0.00 in0.0 mm 0.00 in0.0 mm 0.00 in0.0 mm
09:23 AM 75.0°F23.9°C 41.5°F5.3°C 30% 5.4 mph NW8.7 kmh NW 16.8 mph27.0 kmh 29.70 in1005.8 mb 0.00 in0.0 mm 0.00 in0.0 mm 0.00 in0.0 mm
09:22 AM 75.0°F23.9°C 41.5°F5.3°C 30% 11.4 mph NW18.3 kmh NW 16.8 mph27.0 kmh 29.70 in1005.8 mb 0.00 in0.0 mm 0.00 in0.0 mm 0.00 in0.0 mm
09:21 AM 74.8°F23.8°C 42.2°F5.7°C 31% 6.9 mph NW11.1 kmh NW 16.8 mph27.0 kmh 29.70 in1005.8 mb 0.00 in0.0 mm 0.00 in0.0 mm 0.00 in0.0 mm
09:20 AM 74.5°F23.6°C 41.9°F5.5°C 31% 6.9 mph NW11.1 kmh NW 16.8 mph27.0 kmh 29.70 in1005.8 mb 0.00 in0.0 mm 0.00 in0.0 mm 0.00 in0.0 mm
09:19 AM 74.3°F23.5°C 41.7°F5.4°C 31% 3.8 mph NW6.1 kmh NW 16.8 mph27.0 kmh 29.70 in1005.8 mb 0.00 in0.0 mm 0.00 in0.0 mm 0.00 in0.0 mm
09:18 AM 74.3°F23.5°C 41.7°F5.4°C 31% 6.0 mph NW9.7 kmh NW 16.8 mph27.0 kmh 29.70 in1005.8 mb 0.00 in0.0 mm 0.00 in0.0 mm 0.00 in0.0 mm
09:17 AM 74.1°F23.4°C 41.6°F5.3°C 31% 7.6 mph NNW12.2 kmh NNW 16.8 mph27.0 kmh 29.70 in1005.8 mb 0.00 in0.0 mm 0.00 in0.0 mm 0.00 in0.0 mm
09:16 AM 74.1°F23.4°C 41.6°F5.3°C 31% 9.2 mph NNW14.8 kmh NNW 16.8 mph27.0 kmh 29.71 in1006.1 mb 0.00 in0.0 mm 0.00 in0.0 mm 0.00 in0.0 mm
09:15 AM 73.9°F23.3°C 42.2°F5.7°C 32% 10.7 mph NNW17.2 kmh NNW 16.8 mph27.0 kmh 29.70 in1005.8 mb 0.00 in0.0 mm 0.00 in0.0 mm 0.00 in0.0 mm
09:14 AM 73.9°F23.3°C 41.4°F5.2°C 31% 8.3 mph NNW13.4 kmh NNW 16.8 mph27.0 kmh 29.71 in1006.1 mb 0.00 in0.0 mm 0.00 in0.0 mm 0.00 in0.0 mm
09:13 AM 73.9°F23.3°C 42.2°F5.7°C 32% 9.2 mph NNW14.8 kmh NNW 15.9 mph25.6 kmh 29.71 in1006.1 mb 0.00 in0.0 mm 0.00 in0.0 mm 0.00 in0.0 mm
09:12 AM 73.8°F23.2°C 42.1°F5.6°C 32% 7.6 mph NNW12.2 kmh NNW 15.9 mph25.6 kmh 29.70 in1005.8 mb 0.00 in0.0 mm 0.00 in0.0 mm 0.00 in0.0 mm
09:11 AM 73.9°F23.3°C 42.2°F5.7°C 32% 10.7 mph NNW17.2 kmh NNW 15.9 mph25.6 kmh 29.70 in1005.8 mb 0.00 in0.0 mm 0.00 in0.0 mm 0.00 in0.0 mm
09:10 AM 73.9°F23.3°C 43.1°F6.2°C 33% 9.8 mph NNW15.8 kmh NNW 15.9 mph25.6 kmh 29.71 in1006.1 mb 0.00 in0.0 mm 0.00 in0.0 mm 0.00 in0.0 mm
09:09 AM 73.8°F23.2°C 42.9°F6.1°C 33% 6.9 mph NW11.1 kmh NW 15.9 mph25.6 kmh 29.71 in1006.1 mb 0.00 in0.0 mm 0.00 in0.0 mm 0.00 in0.0 mm
09:08 AM 73.9°F23.3°C 43.1°F6.2°C 33% 9.2 mph NNW14.8 kmh NNW 15.9 mph25.6 kmh 29.70 in1005.8 mb 0.00 in0.0 mm 0.00 in0.0 mm 0.00 in0.0 mm
09:07 AM 73.9°F23.3°C 43.8°F6.6°C 34% 13.0 mph NW20.9 kmh NW 15.9 mph25.6 kmh 29.71 in1006.1 mb 0.00 in0.0 mm 0.00 in0.0 mm 0.00 in0.0 mm
09:06 AM 73.9°F23.3°C 44.6°F7.0°C 35% 7.6 mph NW12.2 kmh NW 13.6 mph21.9 kmh 29.71 in1006.1 mb 0.00 in0.0 mm 0.00 in0.0 mm 0.00 in0.0 mm
09:05 AM 73.8°F23.2°C 43.7°F6.5°C 34% 4.5 mph NW7.2 kmh NW 13.6 mph21.9 kmh 29.70 in1005.8 mb 0.00 in0.0 mm 0.00 in0.0 mm 0.00 in0.0 mm
09:04 AM 73.8°F23.2°C 43.7°F6.5°C 34% 6.9 mph NW11.1 kmh NW 13.6 mph21.9 kmh 29.70 in1005.8 mb 0.00 in0.0 mm 0.00 in0.0 mm 0.00 in0.0 mm
09:03 AM 73.8°F23.2°C 43.7°F6.5°C 34% 9.2 mph WNW14.8 kmh WNW 13.6 mph21.9 kmh 29.71 in1006.1 mb 0.00 in0.0 mm 0.00 in0.0 mm 0.00 in0.0 mm
09:02 AM 73.8°F23.2°C 43.7°F6.5°C 34% 4.5 mph WNW7.2 kmh WNW 13.6 mph21.9 kmh 29.71 in1006.1 mb 0.00 in0.0 mm 0.00 in0.0 mm 0.00 in0.0 mm
09:01 AM 73.9°F23.3°C 44.6°F7.0°C 35% 8.3 mph WNW13.4 kmh WNW 13.6 mph21.9 kmh 29.71 in1006.1 mb 0.00 in0.0 mm 0.00 in0.0 mm 0.00 in0.0 mm
09:00 AM 73.9°F23.3°C 44.6°F7.0°C 35% 9.2 mph NW14.8 kmh NW 13.0 mph20.9 kmh 29.70 in1005.8 mb 0.00 in0.0 mm 0.00 in0.0 mm 0.00 in0.0 mm
08:59 AM 73.8°F23.2°C 44.4°F6.9°C 35% 5.4 mph NW8.7 kmh NW 12.1 mph19.5 kmh 29.71 in1006.1 mb 0.00 in0.0 mm 0.00 in0.0 mm 0.00 in0.0 mm
08:58 AM 73.6°F23.1°C 44.3°F6.8°C 35% 4.5 mph NW7.2 kmh NW 12.1 mph19.5 kmh 29.71 in1006.1 mb 0.00 in0.0 mm 0.00 in0.0 mm 0.00 in0.0 mm
08:57 AM 73.4°F23.0°C 44.9°F7.2°C 36% 3.8 mph NW6.1 kmh NW 14.5 mph23.3 kmh 29.71 in1006.1 mb 0.00 in0.0 mm 0.00 in0.0 mm 0.00 in0.0 mm
08:56 AM 73.2°F22.9°C 44.0°F6.7°C 35% 5.4 mph NW8.7 kmh NW 14.5 mph23.3 kmh 29.71 in1006.1 mb 0.00 in0.0 mm 0.00 in0.0 mm 0.00 in0.0 mm
08:55 AM 72.9°F22.7°C 43.6°F6.4°C 35% 3.1 mph NW5.0 kmh NW 14.5 mph23.3 kmh 29.71 in1006.1 mb 0.00 in0.0 mm 0.00 in0.0 mm 0.00 in0.0 mm
08:54 AM 72.5°F22.5°C 43.3°F6.3°C 35% 4.5 mph NW7.2 kmh NW 14.5 mph23.3 kmh 29.72 in1006.4 mb 0.00 in0.0 mm 0.00 in0.0 mm 0.00 in0.0 mm
08:53 AM 72.1°F22.3°C 43.0°F6.1°C 35% 3.1 mph NW5.0 kmh NW 14.5 mph23.3 kmh 29.71 in1006.1 mb 0.00 in0.0 mm 0.00 in0.0 mm 0.00 in0.0 mm
08:52 AM 72.0°F22.2°C 42.8°F6.0°C 35% 7.6 mph NW12.2 kmh NW 14.5 mph23.3 kmh 29.71 in1006.1 mb 0.00 in0.0 mm 0.00 in0.0 mm 0.00 in0.0 mm
08:51 AM 71.8°F22.1°C 42.7°F5.9°C 35% 3.8 mph NW6.1 kmh NW 14.5 mph23.3 kmh 29.71 in1006.1 mb 0.00 in0.0 mm 0.00 in0.0 mm 0.00 in0.0 mm
08:50 AM 71.6°F22.0°C 42.5°F5.8°C 35% 6.9 mph NW11.1 kmh NW 14.5 mph23.3 kmh 29.72 in1006.4 mb 0.00 in0.0 mm 0.00 in0.0 mm 0.00 in0.0 mm
08:49 AM 71.6°F22.0°C 42.5°F5.8°C 35% 9.2 mph NW14.8 kmh NW 14.5 mph23.3 kmh 29.71 in1006.1 mb 0.00 in0.0 mm 0.00 in0.0 mm 0.00 in0.0 mm
08:48 AM 71.6°F22.0°C 42.5°F5.8°C 35% 9.8 mph NW15.8 kmh NW 14.5 mph23.3 kmh 29.71 in1006.1 mb 0.00 in0.0 mm 0.00 in0.0 mm 0.00 in0.0 mm
08:47 AM 71.6°F22.0°C 42.5°F5.8°C 35% 8.3 mph NW13.4 kmh NW 14.5 mph23.3 kmh 29.71 in1006.1 mb 0.00 in0.0 mm 0.00 in0.0 mm 0.00 in0.0 mm
08:46 AM 71.4°F21.9°C 43.1°F6.2°C 36% 8.3 mph NW13.4 kmh NW 14.5 mph23.3 kmh 29.71 in1006.1 mb 0.00 in0.0 mm 0.00 in0.0 mm 0.00 in0.0 mm
08:45 AM 71.4°F21.9°C 43.1°F6.2°C 36% 8.3 mph NW13.4 kmh NW 14.5 mph23.3 kmh 29.71 in1006.1 mb 0.00 in0.0 mm 0.00 in0.0 mm 0.00 in0.0 mm
08:44 AM 71.4°F21.9°C 43.1°F6.2°C 36% 6.9 mph NW11.1 kmh NW 14.5 mph23.3 kmh 29.71 in1006.1 mb 0.00 in0.0 mm 0.00 in0.0 mm 0.00 in0.0 mm
08:43 AM 71.2°F21.8°C 42.9°F6.1°C 36% 8.3 mph NW13.4 kmh NW 14.5 mph23.3 kmh 29.71 in1006.1 mb 0.00 in0.0 mm 0.00 in0.0 mm 0.00 in0.0 mm
08:42 AM 71.2°F21.8°C 42.9°F6.1°C 36% 4.5 mph NW7.2 kmh NW 14.5 mph23.3 kmh 29.72 in1006.4 mb 0.00 in0.0 mm 0.00 in0.0 mm 0.00 in0.0 mm
08:41 AM 71.1°F21.7°C 42.8°F6.0°C 36% 9.2 mph NW14.8 kmh NW 14.5 mph23.3 kmh 29.71 in1006.1 mb 0.00 in0.0 mm 0.00 in0.0 mm 0.00 in0.0 mm
08:40 AM 70.9°F21.6°C 42.6°F5.9°C 36% 5.4 mph NW8.7 kmh NW 14.5 mph23.3 kmh 29.71 in1006.1 mb 0.00 in0.0 mm 0.00 in0.0 mm 0.00 in0.0 mm
08:39 AM 70.9°F21.6°C 43.3°F6.3°C 37% 9.2 mph NW14.8 kmh NW 14.5 mph23.3 kmh 29.71 in1006.1 mb 0.00 in0.0 mm 0.00 in0.0 mm 0.00 in0.0 mm
08:38 AM 70.9°F21.6°C 44.0°F6.7°C 38% 8.3 mph NNW13.4 kmh NNW 13.6 mph21.9 kmh 29.72 in1006.4 mb 0.00 in0.0 mm 0.00 in0.0 mm 0.00 in0.0 mm
08:37 AM 70.7°F21.5°C 43.2°F6.2°C 37% 5.4 mph NNW8.7 kmh NNW 13.6 mph21.9 kmh 29.71 in1006.1 mb 0.00 in0.0 mm 0.00 in0.0 mm 0.00 in0.0 mm
08:36 AM 70.7°F21.5°C 43.2°F6.2°C 37% 5.4 mph NNW8.7 kmh NNW 13.6 mph21.9 kmh 29.71 in1006.1 mb 0.00 in0.0 mm 0.00 in0.0 mm 0.00 in0.0 mm
08:35 AM 70.7°F21.5°C 43.2°F6.2°C 37% 6.9 mph NNW11.1 kmh NNW 13.6 mph21.9 kmh 29.72 in1006.4 mb 0.00 in0.0 mm 0.00 in0.0 mm 0.00 in0.0 mm
08:34 AM 70.5°F21.4°C 43.0°F6.1°C 37% 5.4 mph NNW8.7 kmh NNW 13.6 mph21.9 kmh 29.72 in1006.4 mb 0.00 in0.0 mm 0.00 in0.0 mm 0.00 in0.0 mm
08:33 AM 70.7°F21.5°C 43.2°F6.2°C 37% 7.6 mph N12.2 kmh N 13.6 mph21.9 kmh 29.71 in1006.1 mb 0.00 in0.0 mm 0.00 in0.0 mm 0.00 in0.0 mm
08:32 AM 70.7°F21.5°C 43.2°F6.2°C 37% 6.0 mph N9.7 kmh N 13.6 mph21.9 kmh 29.71 in1006.1 mb 0.00 in0.0 mm 0.00 in0.0 mm 0.00 in0.0 mm
08:31 AM 70.7°F21.5°C 43.9°F6.6°C 38% 9.8 mph N15.8 kmh N 13.6 mph21.9 kmh 29.71 in1006.1 mb 0.00 in0.0 mm 0.00 in0.0 mm 0.00 in0.0 mm
08:30 AM 70.7°F21.5°C 43.9°F6.6°C 38% 6.0 mph NNW9.7 kmh NNW 10.7 mph17.2 kmh 29.71 in1006.1 mb 0.00 in0.0 mm 0.00 in0.0 mm 0.00 in0.0 mm
08:29 AM 70.5°F21.4°C 45.1°F7.3°C 40% 8.3 mph NNW13.4 kmh NNW 10.7 mph17.2 kmh 29.72 in1006.4 mb 0.00 in0.0 mm 0.00 in0.0 mm 0.00 in0.0 mm
08:28 AM 70.3°F21.3°C 44.9°F7.2°C 40% 3.8 mph NW6.1 kmh NW 12.1 mph19.5 kmh 29.72 in1006.4 mb 0.00 in0.0 mm 0.00 in0.0 mm 0.00 in0.0 mm
08:27 AM 70.2°F21.2°C 45.4°F7.4°C 41% 4.5 mph NW7.2 kmh NW 12.1 mph19.5 kmh 29.71 in1006.1 mb 0.00 in0.0 mm 0.00 in0.0 mm 0.00 in0.0 mm
08:26 AM 70.0°F21.1°C 45.2°F7.3°C 41% 3.8 mph NW6.1 kmh NW 15.9 mph25.6 kmh 29.71 in1006.1 mb 0.00 in0.0 mm 0.00 in0.0 mm 0.00 in0.0 mm
08:25 AM 69.4°F20.8°C 45.4°F7.4°C 42% 4.5 mph NW7.2 kmh NW 15.9 mph25.6 kmh 29.72 in1006.4 mb 0.00 in0.0 mm 0.00 in0.0 mm 0.00 in0.0 mm
08:24 AM 69.3°F20.7°C 45.2°F7.3°C 42% 2.2 mph NW3.5 kmh NW 15.9 mph25.6 kmh 29.71 in1006.1 mb 0.00 in0.0 mm 0.00 in0.0 mm 0.00 in0.0 mm
08:23 AM 69.3°F20.7°C 45.2°F7.3°C 42% 6.0 mph NW9.7 kmh NW 15.9 mph25.6 kmh 29.71 in1006.1 mb 0.00 in0.0 mm 0.00 in0.0 mm 0.00 in0.0 mm
08:22 AM 69.1°F20.6°C 45.0°F7.2°C 42% 4.5 mph NW7.2 kmh NW 15.9 mph25.6 kmh 29.72 in1006.4 mb 0.00 in0.0 mm 0.00 in0.0 mm 0.00 in0.0 mm
08:21 AM 68.7°F20.4°C 44.1°F6.7°C 41% 6.0 mph NW9.7 kmh NW 15.9 mph25.6 kmh 29.71 in1006.1 mb 0.00 in0.0 mm 0.00 in0.0 mm 0.00 in0.0 mm
08:20 AM 68.7°F20.4°C 44.1°F6.7°C 41% 3.8 mph NW6.1 kmh NW 15.9 mph25.6 kmh 29.72 in1006.4 mb 0.00 in0.0 mm 0.00 in0.0 mm 0.00 in0.0 mm
08:19 AM 68.7°F20.4°C 43.4°F6.3°C 40% 5.4 mph NW8.7 kmh NW 15.9 mph25.6 kmh 29.72 in1006.4 mb 0.00 in0.0 mm 0.00 in0.0 mm 0.00 in0.0 mm
08:18 AM 68.9°F20.5°C 44.3°F6.8°C 41% 8.3 mph NW13.4 kmh NW 15.9 mph25.6 kmh 29.72 in1006.4 mb 0.00 in0.0 mm 0.00 in0.0 mm 0.00 in0.0 mm
08:17 AM 68.9°F20.5°C 44.3°F6.8°C 41% 11.4 mph NW18.3 kmh NW 15.9 mph25.6 kmh 29.72 in1006.4 mb 0.00 in0.0 mm 0.00 in0.0 mm 0.00 in0.0 mm
08:16 AM 68.9°F20.5°C 44.3°F6.8°C 41% 6.0 mph NNW9.7 kmh NNW 13.6 mph21.9 kmh 29.71 in1006.1 mb 0.00 in0.0 mm 0.00 in0.0 mm 0.00 in0.0 mm
08:15 AM 68.9°F20.5°C 44.3°F6.8°C 41% 7.6 mph NNW12.2 kmh NNW 13.6 mph21.9 kmh 29.72 in1006.4 mb 0.00 in0.0 mm 0.00 in0.0 mm 0.00 in0.0 mm
08:14 AM 68.9°F20.5°C 44.3°F6.8°C 41% 4.5 mph NNW7.2 kmh NNW 13.6 mph21.9 kmh 29.72 in1006.4 mb 0.00 in0.0 mm 0.00 in0.0 mm 0.00 in0.0 mm
08:13 AM 68.9°F20.5°C 44.9°F7.2°C 42% 8.3 mph NNW13.4 kmh NNW 13.6 mph21.9 kmh 29.72 in1006.4 mb 0.00 in0.0 mm 0.00 in0.0 mm 0.00 in0.0 mm
08:12 AM 68.7°F20.4°C 44.7°F7.1°C 42% 7.6 mph NNW12.2 kmh NNW 13.0 mph20.9 kmh 29.71 in1006.1 mb 0.00 in0.0 mm 0.00 in0.0 mm 0.00 in0.0 mm
08:11 AM 68.5°F20.3°C 44.6°F7.0°C 42% 3.1 mph NNW5.0 kmh NNW 13.0 mph20.9 kmh 29.71 in1006.1 mb 0.00 in0.0 mm 0.00 in0.0 mm 0.00 in0.0 mm
08:10 AM 68.4°F20.2°C 44.4°F6.9°C 42% 3.8 mph NW6.1 kmh NW 13.0 mph20.9 kmh 29.71 in1006.1 mb 0.00 in0.0 mm 0.00 in0.0 mm 0.00 in0.0 mm
08:09 AM 68.4°F20.2°C 44.4°F6.9°C 42% 6.9 mph NW11.1 kmh NW 13.0 mph20.9 kmh 29.71 in1006.1 mb 0.00 in0.0 mm 0.00 in0.0 mm 0.00 in0.0 mm
08:08 AM 68.4°F20.2°C 45.0°F7.2°C 43% 9.2 mph NW14.8 kmh NW 13.0 mph20.9 kmh 29.71 in1006.1 mb 0.00 in0.0 mm 0.00 in0.0 mm 0.00 in0.0 mm
08:07 AM 68.4°F20.2°C 45.0°F7.2°C 43% 6.9 mph NW11.1 kmh NW 13.0 mph20.9 kmh 29.71 in1006.1 mb 0.00 in0.0 mm 0.00 in0.0 mm 0.00 in0.0 mm
08:06 AM 68.2°F20.1°C 44.9°F7.2°C 43% 3.8 mph NW6.1 kmh NW 13.0 mph20.9 kmh 29.71 in1006.1 mb 0.00 in0.0 mm 0.00 in0.0 mm 0.00 in0.0 mm
08:05 AM 68.0°F20.0°C 44.7°F7.1°C 43% 5.4 mph NW8.7 kmh NW 13.0 mph20.9 kmh 29.71 in1006.1 mb 0.00 in0.0 mm 0.00 in0.0 mm 0.00 in0.0 mm
08:04 AM 67.8°F19.9°C 45.1°F7.3°C 44% 5.4 mph NW8.7 kmh NW 13.0 mph20.9 kmh 29.71 in1006.1 mb 0.00 in0.0 mm 0.00 in0.0 mm 0.00 in0.0 mm
08:03 AM 67.8°F19.9°C 45.1°F7.3°C 44% 5.4 mph NW8.7 kmh NW 13.0 mph20.9 kmh 29.72 in1006.4 mb 0.00 in0.0 mm 0.00 in0.0 mm 0.00 in0.0 mm
08:02 AM 67.8°F19.9°C 45.1°F7.3°C 44% 5.4 mph NW8.7 kmh NW 13.0 mph20.9 kmh 29.72 in1006.4 mb 0.00 in0.0 mm 0.00 in0.0 mm 0.00 in0.0 mm
08:01 AM 67.8°F19.9°C 45.1°F7.3°C 44% 8.3 mph NW13.4 kmh NW 13.0 mph20.9 kmh 29.72 in1006.4 mb 0.00 in0.0 mm 0.00 in0.0 mm 0.00 in0.0 mm
08:00 AM 67.8°F19.9°C 45.1°F7.3°C 44% 5.4 mph NW8.7 kmh NW 9.8 mph15.8 kmh 29.71 in1006.1 mb 0.00 in0.0 mm 0.00 in0.0 mm 0.00 in0.0 mm
07:59 AM 67.8°F19.9°C 45.1°F7.3°C 44% 4.5 mph NW7.2 kmh NW 9.8 mph15.8 kmh 29.71 in1006.1 mb 0.00 in0.0 mm 0.00 in0.0 mm 0.00 in0.0 mm
07:58 AM 67.6°F19.8°C 45.0°F7.2°C 44% 6.0 mph NW9.7 kmh NW 9.8 mph15.8 kmh 29.71 in1006.1 mb 0.00 in0.0 mm 0.00 in0.0 mm 0.00 in0.0 mm
07:57 AM 67.1°F19.5°C 44.5°F6.9°C 44% 3.1 mph NW5.0 kmh NW 9.8 mph15.8 kmh 29.71 in1006.1 mb 0.00 in0.0 mm 0.00 in0.0 mm 0.00 in0.0 mm
07:56 AM 66.9°F19.4°C 44.3°F6.8°C 44% 2.2 mph NW3.5 kmh NW 9.8 mph15.8 kmh 29.71 in1006.1 mb 0.00 in0.0 mm 0.00 in0.0 mm 0.00 in0.0 mm
07:55 AM 66.9°F19.4°C 44.3°F6.8°C 44% 6.0 mph NW9.7 kmh NW 13.0 mph20.9 kmh 29.71 in1006.1 mb 0.00 in0.0 mm 0.00 in0.0 mm 0.00 in0.0 mm
07:54 AM 66.9°F19.4°C 44.3°F6.8°C 44% 6.0 mph NNW9.7 kmh NNW 13.0 mph20.9 kmh 29.72 in1006.4 mb 0.00 in0.0 mm 0.00 in0.0 mm 0.00 in0.0 mm
07:53 AM 66.9°F19.4°C 44.3°F6.8°C 44% 4.5 mph NNW7.2 kmh NNW 13.0 mph20.9 kmh 29.71 in1006.1 mb 0.00 in0.0 mm 0.00 in0.0 mm 0.00 in0.0 mm
07:52 AM 66.7°F19.3°C 44.2°F6.8°C 44% 3.8 mph NNW6.1 kmh NNW 13.0 mph20.9 kmh 29.72 in1006.4 mb 0.00 in0.0 mm 0.00 in0.0 mm 0.00 in0.0 mm
07:51 AM 66.7°F19.3°C 44.2°F6.8°C 44% 6.0 mph NNW9.7 kmh NNW 13.0 mph20.9 kmh 29.71 in1006.1 mb 0.00 in0.0 mm 0.00 in0.0 mm 0.00 in0.0 mm
07:50 AM 66.7°F19.3°C 44.7°F7.1°C 45% 5.4 mph NW8.7 kmh NW 13.0 mph20.9 kmh 29.71 in1006.1 mb 0.00 in0.0 mm 0.00 in0.0 mm 0.00 in0.0 mm
07:49 AM 66.4°F19.1°C 44.4°F6.9°C 45% 5.4 mph NNW8.7 kmh NNW 13.6 mph21.9 kmh 29.71 in1006.1 mb 0.00 in0.0 mm 0.00 in0.0 mm 0.00 in0.0 mm
07:48 AM 66.2°F19.0°C 44.3°F6.8°C 45% 5.4 mph NNW8.7 kmh NNW 13.6 mph21.9 kmh 29.70 in1005.8 mb 0.00 in0.0 mm 0.00 in0.0 mm 0.00 in0.0 mm
07:47 AM 66.0°F18.9°C 44.7°F7.1°C 46% 4.5 mph NNW7.2 kmh NNW 13.6 mph21.9 kmh 29.71 in1006.1 mb 0.00 in0.0 mm 0.00 in0.0 mm 0.00 in0.0 mm
07:46 AM 65.8°F18.8°C 44.5°F6.9°C 46% 3.1 mph NNW5.0 kmh NNW 13.6 mph21.9 kmh 29.71 in1006.1 mb 0.00 in0.0 mm 0.00 in0.0 mm 0.00 in0.0 mm
07:45 AM 65.7°F18.7°C 44.3°F6.8°C 46% 6.0 mph NNW9.7 kmh NNW 13.6 mph21.9 kmh 29.71 in1006.1 mb 0.00 in0.0 mm 0.00 in0.0 mm 0.00 in0.0 mm
07:44 AM 65.7°F18.7°C 44.3°F6.8°C 46% 7.6 mph NW12.2 kmh NW 13.6 mph21.9 kmh 29.71 in1006.1 mb 0.00 in0.0 mm 0.00 in0.0 mm 0.00 in0.0 mm
07:43 AM 65.5°F18.6°C 44.2°F6.8°C 46% 6.0 mph NW9.7 kmh NW 13.6 mph21.9 kmh 29.71 in1006.1 mb 0.00 in0.0 mm 0.00 in0.0 mm 0.00 in0.0 mm
07:42 AM 65.3°F18.5°C 44.0°F6.7°C 46% 3.8 mph NW6.1 kmh NW 13.6 mph21.9 kmh 29.71 in1006.1 mb 0.00 in0.0 mm 0.00 in0.0 mm 0.00 in0.0 mm
07:41 AM 65.3°F18.5°C 44.0°F6.7°C 46% 6.0 mph NW9.7 kmh NW 13.6 mph21.9 kmh 29.71 in1006.1 mb 0.00 in0.0 mm 0.00 in0.0 mm 0.00 in0.0 mm
07:40 AM 65.3°F18.5°C 44.0°F6.7°C 46% 8.3 mph NW13.4 kmh NW 13.6 mph21.9 kmh 29.71 in1006.1 mb 0.00 in0.0 mm 0.00 in0.0 mm 0.00 in0.0 mm
07:39 AM 65.5°F18.6°C 44.7°F7.1°C 47% 8.3 mph NW13.4 kmh NW 11.4 mph18.3 kmh 29.71 in1006.1 mb 0.00 in0.0 mm 0.00 in0.0 mm 0.00 in0.0 mm
07:38 AM 65.3°F18.5°C 44.6°F7.0°C 47% 6.0 mph NW9.7 kmh NW 10.7 mph17.2 kmh 29.71 in1006.1 mb 0.00 in0.0 mm 0.00 in0.0 mm 0.00 in0.0 mm
07:37 AM 65.1°F18.4°C 45.0°F7.2°C 48% 4.5 mph NW7.2 kmh NW 9.8 mph15.8 kmh 29.71 in1006.1 mb 0.00 in0.0 mm 0.00 in0.0 mm 0.00 in0.0 mm
07:36 AM 65.1°F18.4°C 45.0°F7.2°C 48% 3.8 mph NW6.1 kmh NW 9.8 mph15.8 kmh 29.71 in1006.1 mb 0.00 in0.0 mm 0.00 in0.0 mm 0.00 in0.0 mm
07:35 AM 65.1°F18.4°C 44.4°F6.9°C 47% 3.8 mph NW6.1 kmh NW 9.8 mph15.8 kmh 29.71 in1006.1 mb 0.00 in0.0 mm 0.00 in0.0 mm 0.00 in0.0 mm
07:34 AM 65.1°F18.4°C 45.0°F7.2°C 48% 6.0 mph NNW9.7 kmh NNW 9.8 mph15.8 kmh 29.71 in1006.1 mb 0.00 in0.0 mm 0.00 in0.0 mm 0.00 in0.0 mm
07:33 AM 64.9°F18.3°C 44.2°F6.8°C 47% 4.5 mph NNW7.2 kmh NNW 9.8 mph15.8 kmh 29.71 in1006.1 mb 0.00 in0.0 mm 0.00 in0.0 mm 0.00 in0.0 mm
07:32 AM 64.9°F18.3°C 44.2°F6.8°C 47% 6.9 mph NNW11.1 kmh NNW 9.8 mph15.8 kmh 29.71 in1006.1 mb 0.00 in0.0 mm 0.00 in0.0 mm 0.00 in0.0 mm
07:31 AM 64.8°F18.2°C 44.1°F6.7°C 47% 4.5 mph NNW7.2 kmh NNW 9.8 mph15.8 kmh 29.71 in1006.1 mb 0.00 in0.0 mm 0.00 in0.0 mm 0.00 in0.0 mm
07:30 AM 64.8°F18.2°C 44.1°F6.7°C 47% 7.6 mph NNW12.2 kmh NNW 9.8 mph15.8 kmh 29.71 in1006.1 mb 0.00 in0.0 mm 0.00 in0.0 mm 0.00 in0.0 mm
07:29 AM 64.4°F18.0°C 43.7°F6.5°C 47% 3.8 mph NNW6.1 kmh NNW 9.8 mph15.8 kmh 29.71 in1006.1 mb 0.00 in0.0 mm 0.00 in0.0 mm 0.00 in0.0 mm
07:28 AM 64.4°F18.0°C 43.7°F6.5°C 47% 3.8 mph NNW6.1 kmh NNW 9.8 mph15.8 kmh 29.70 in1005.8 mb 0.00 in0.0 mm 0.00 in0.0 mm 0.00 in0.0 mm
07:27 AM 64.4°F18.0°C 43.7°F6.5°C 47% 5.4 mph NW8.7 kmh NW 10.7 mph17.2 kmh 29.71 in1006.1 mb 0.00 in0.0 mm 0.00 in0.0 mm 0.00 in0.0 mm
07:26 AM 64.4°F18.0°C 44.3°F6.8°C 48% 6.9 mph NW11.1 kmh NW 10.7 mph17.2 kmh 29.71 in1006.1 mb 0.00 in0.0 mm 0.00 in0.0 mm 0.00 in0.0 mm
07:25 AM 64.2°F17.9°C 44.7°F7.1°C 49% 5.4 mph NW8.7 kmh NW 10.7 mph17.2 kmh 29.71 in1006.1 mb 0.00 in0.0 mm 0.00 in0.0 mm 0.00 in0.0 mm
07:24 AM 63.9°F17.7°C 44.9°F7.2°C 50% 3.8 mph NW6.1 kmh NW 10.7 mph17.2 kmh 29.71 in1006.1 mb 0.00 in0.0 mm 0.00 in0.0 mm 0.00 in0.0 mm
07:23 AM 63.7°F17.6°C 44.7°F7.1°C 50% 6.0 mph NW9.7 kmh NW 11.4 mph18.3 kmh 29.70 in1005.8 mb 0.00 in0.0 mm 0.00 in0.0 mm 0.00 in0.0 mm
07:22 AM 63.5°F17.5°C 45.1°F7.3°C 51% 2.2 mph NW3.5 kmh NW 11.4 mph18.3 kmh 29.71 in1006.1 mb 0.00 in0.0 mm 0.00 in0.0 mm 0.00 in0.0 mm
07:21 AM 63.1°F17.3°C 44.7°F7.1°C 51% 2.2 mph NW3.5 kmh NW 11.4 mph18.3 kmh 29.70 in1005.8 mb 0.00 in0.0 mm 0.00 in0.0 mm 0.00 in0.0 mm
07:20 AM 63.1°F17.3°C 44.7°F7.1°C 51% 5.4 mph NW8.7 kmh NW 11.4 mph18.3 kmh 29.71 in1006.1 mb 0.00 in0.0 mm 0.00 in0.0 mm 0.00 in0.0 mm
07:19 AM 63.1°F17.3°C 44.2°F6.8°C 50% 6.0 mph NW9.7 kmh NW 11.4 mph18.3 kmh 29.71 in1006.1 mb 0.00 in0.0 mm 0.00 in0.0 mm 0.00 in0.0 mm
07:18 AM 63.1°F17.3°C 44.2°F6.8°C 50% 5.4 mph NW8.7 kmh NW 11.4 mph18.3 kmh 29.71 in1006.1 mb 0.00 in0.0 mm 0.00 in0.0 mm 0.00 in0.0 mm
07:17 AM 63.1°F17.3°C 44.7°F7.1°C 51% 6.9 mph NW11.1 kmh NW 11.4 mph18.3 kmh 29.70 in1005.8 mb 0.00 in0.0 mm 0.00 in0.0 mm 0.00 in0.0 mm
07:16 AM 63.1°F17.3°C 44.7°F7.1°C 51% 6.9 mph NW11.1 kmh NW 11.4 mph18.3 kmh 29.71 in1006.1 mb 0.00 in0.0 mm 0.00 in0.0 mm 0.00 in0.0 mm
07:15 AM 63.3°F17.4°C 44.9°F7.2°C 51% 6.0 mph NW9.7 kmh NW 11.4 mph18.3 kmh 29.71 in1006.1 mb 0.00 in0.0 mm 0.00 in0.0 mm 0.00 in0.0 mm
07:14 AM 63.3°F17.4°C 44.9°F7.2°C 51% 3.8 mph NW6.1 kmh NW 11.4 mph18.3 kmh 29.70 in1005.8 mb 0.00 in0.0 mm 0.00 in0.0 mm 0.00 in0.0 mm
07:13 AM 63.3°F17.4°C 44.9°F7.2°C 51% 8.3 mph NW13.4 kmh NW 10.7 mph17.2 kmh 29.70 in1005.8 mb 0.00 in0.0 mm 0.00 in0.0 mm 0.00 in0.0 mm
07:12 AM 63.1°F17.3°C 45.2°F7.3°C 52% 3.1 mph NNW5.0 kmh NNW 9.8 mph15.8 kmh 29.71 in1006.1 mb 0.00 in0.0 mm 0.00 in0.0 mm 0.00 in0.0 mm
07:11 AM 63.0°F17.2°C 45.1°F7.3°C 52% 3.8 mph NNW6.1 kmh NNW 9.8 mph15.8 kmh 29.71 in1006.1 mb 0.00 in0.0 mm 0.00 in0.0 mm 0.00 in0.0 mm
07:10 AM 62.8°F17.1°C 44.9°F7.2°C 52% 1.6 mph NNW2.6 kmh NNW 9.8 mph15.8 kmh 29.71 in1006.1 mb 0.00 in0.0 mm 0.00 in0.0 mm 0.00 in0.0 mm
07:09 AM 62.4°F16.9°C 45.1°F7.3°C 53% 4.5 mph NNW7.2 kmh NNW 9.8 mph15.8 kmh 29.71 in1006.1 mb 0.00 in0.0 mm 0.00 in0.0 mm 0.00 in0.0 mm
07:08 AM 62.2°F16.8°C 44.9°F7.2°C 53% 3.8 mph NNW6.1 kmh NNW 9.8 mph15.8 kmh 29.70 in1005.8 mb 0.00 in0.0 mm 0.00 in0.0 mm 0.00 in0.0 mm
07:07 AM 62.2°F16.8°C 44.9°F7.2°C 53% 4.5 mph NNW7.2 kmh NNW 9.8 mph15.8 kmh 29.71 in1006.1 mb 0.00 in0.0 mm 0.00 in0.0 mm 0.00 in0.0 mm
07:06 AM 62.1°F16.7°C 44.7°F7.1°C 53% 3.8 mph NNW6.1 kmh NNW 9.8 mph15.8 kmh 29.71 in1006.1 mb 0.00 in0.0 mm 0.00 in0.0 mm 0.00 in0.0 mm
07:05 AM 62.1°F16.7°C 44.7°F7.1°C 53% 6.0 mph NNW9.7 kmh NNW 9.8 mph15.8 kmh 29.71 in1006.1 mb 0.00 in0.0 mm 0.00 in0.0 mm 0.00 in0.0 mm
07:04 AM 62.1°F16.7°C 44.7°F7.1°C 53% 6.0 mph NNW9.7 kmh NNW 9.8 mph15.8 kmh 29.70 in1005.8 mb 0.00 in0.0 mm 0.00 in0.0 mm 0.00 in0.0 mm
07:03 AM 62.1°F16.7°C 44.7°F7.1°C 53% 5.4 mph NNW8.7 kmh NNW 9.8 mph15.8 kmh 29.71 in1006.1 mb 0.00 in0.0 mm 0.00 in0.0 mm 0.00 in0.0 mm
07:02 AM 62.1°F16.7°C 44.7°F7.1°C 53% 7.6 mph NNW12.2 kmh NNW 9.8 mph15.8 kmh 29.71 in1006.1 mb 0.00 in0.0 mm 0.00 in0.0 mm 0.00 in0.0 mm
07:01 AM 61.9°F16.6°C 44.6°F7.0°C 53% 5.4 mph NNW8.7 kmh NNW 8.3 mph13.4 kmh 29.70 in1005.8 mb 0.00 in0.0 mm 0.00 in0.0 mm 0.00 in0.0 mm
07:00 AM 61.9°F16.6°C 44.6°F7.0°C 53% 3.8 mph NNW6.1 kmh NNW 8.3 mph13.4 kmh 29.70 in1005.8 mb 0.00 in0.0 mm 0.00 in0.0 mm 0.00 in0.0 mm
06:59 AM 61.9°F16.6°C 44.6°F7.0°C 53% 3.8 mph N6.1 kmh N 8.3 mph13.4 kmh 29.71 in1006.1 mb 0.00 in0.0 mm 0.00 in0.0 mm 0.00 in0.0 mm
06:58 AM 61.9°F16.6°C 44.6°F7.0°C 53% 6.9 mph NNW11.1 kmh NNW 8.3 mph13.4 kmh 29.71 in1006.1 mb 0.00 in0.0 mm 0.00 in0.0 mm 0.00 in0.0 mm
06:57 AM 61.7°F16.5°C 44.9°F7.2°C 54% 4.5 mph NNW7.2 kmh NNW 7.6 mph12.2 kmh 29.70 in1005.8 mb 0.00 in0.0 mm 0.00 in0.0 mm 0.00 in0.0 mm
06:56 AM 61.5°F16.4°C 44.7°F7.1°C 54% 3.8 mph NNW6.1 kmh NNW 7.6 mph12.2 kmh 29.71 in1006.1 mb 0.00 in0.0 mm 0.00 in0.0 mm 0.00 in0.0 mm
06:55 AM 61.5°F16.4°C 44.7°F7.1°C 54% 2.2 mph NNW3.5 kmh NNW 11.4 mph18.3 kmh 29.70 in1005.8 mb 0.00 in0.0 mm 0.00 in0.0 mm 0.00 in0.0 mm
06:54 AM 61.3°F16.3°C 44.6°F7.0°C 54% 3.1 mph NNW5.0 kmh NNW 11.4 mph18.3 kmh 29.70 in1005.8 mb 0.00 in0.0 mm 0.00 in0.0 mm 0.00 in0.0 mm
06:53 AM 61.2°F16.2°C 44.4°F6.9°C 54% 3.8 mph NNW6.1 kmh NNW 11.4 mph18.3 kmh 29.70 in1005.8 mb 0.00 in0.0 mm 0.00 in0.0 mm 0.00 in0.0 mm
06:52 AM 61.0°F16.1°C 44.2°F6.8°C 54% 3.1 mph NNW5.0 kmh NNW 11.4 mph18.3 kmh 29.70 in1005.8 mb 0.00 in0.0 mm 0.00 in0.0 mm 0.00 in0.0 mm
06:51 AM 60.8°F16.0°C 44.1°F6.7°C 54% 1.6 mph NW2.6 kmh NW 11.4 mph18.3 kmh 29.71 in1006.1 mb 0.00 in0.0 mm 0.00 in0.0 mm 0.00 in0.0 mm
06:50 AM 60.8°F16.0°C 44.5°F6.9°C 55% 4.5 mph NNW7.2 kmh NNW 11.4 mph18.3 kmh 29.70 in1005.8 mb 0.00 in0.0 mm 0.00 in0.0 mm 0.00 in0.0 mm
06:49 AM 60.4°F15.8°C 44.7°F7.1°C 56% 1.6 mph NNW2.6 kmh NNW 11.4 mph18.3 kmh 29.70 in1005.8 mb 0.00 in0.0 mm 0.00 in0.0 mm 0.00 in0.0 mm
06:48 AM 60.4°F15.8°C 44.7°F7.1°C 56% 3.8 mph NNW6.1 kmh NNW 11.4 mph18.3 kmh 29.71 in1006.1 mb 0.00 in0.0 mm 0.00 in0.0 mm 0.00 in0.0 mm
06:47 AM 60.3°F15.7°C 44.5°F6.9°C 56% 4.5 mph NNW7.2 kmh NNW 11.4 mph18.3 kmh 29.71 in1006.1 mb 0.00 in0.0 mm 0.00 in0.0 mm 0.00 in0.0 mm
06:46 AM 60.3°F15.7°C 44.5°F6.9°C 56% 3.8 mph NNW6.1 kmh NNW 11.4 mph18.3 kmh 29.70 in1005.8 mb 0.00 in0.0 mm 0.00 in0.0 mm 0.00 in0.0 mm
06:45 AM 60.1°F15.6°C 44.3°F6.8°C 56% 4.5 mph NNW7.2 kmh NNW 10.7 mph17.2 kmh 29.71 in1006.1 mb 0.00 in0.0 mm 0.00 in0.0 mm 0.00 in0.0 mm
06:44 AM 59.9°F15.5°C 44.2°F6.8°C 56% 3.8 mph NNW6.1 kmh NNW 10.7 mph17.2 kmh 29.70 in1005.8 mb 0.00 in0.0 mm 0.00 in0.0 mm 0.00 in0.0 mm
06:43 AM 59.9°F15.5°C 44.2°F6.8°C 56% 6.0 mph N9.7 kmh N 10.7 mph17.2 kmh 29.70 in1005.8 mb 0.00 in0.0 mm 0.00 in0.0 mm 0.00 in0.0 mm
06:42 AM 59.9°F15.5°C 44.2°F6.8°C 56% 5.4 mph N8.7 kmh N 10.7 mph17.2 kmh 29.70 in1005.8 mb 0.00 in0.0 mm 0.00 in0.0 mm 0.00 in0.0 mm
06:41 AM 59.7°F15.4°C 44.5°F6.9°C 57% 6.9 mph N11.1 kmh N 10.7 mph17.2 kmh 29.70 in1005.8 mb 0.00 in0.0 mm 0.00 in0.0 mm 0.00 in0.0 mm
06:40 AM 59.7°F15.4°C 44.5°F6.9°C 57% 4.5 mph N7.2 kmh N 10.7 mph17.2 kmh 29.70 in1005.8 mb 0.00 in0.0 mm 0.00 in0.0 mm 0.00 in0.0 mm
06:39 AM 59.7°F15.4°C 44.5°F6.9°C 57% 6.0 mph N9.7 kmh N 10.7 mph17.2 kmh 29.70 in1005.8 mb 0.00 in0.0 mm 0.00 in0.0 mm 0.00 in0.0 mm
06:38 AM 59.5°F15.3°C 44.3°F6.8°C 57% 4.5 mph N7.2 kmh N 10.7 mph17.2 kmh 29.70 in1005.8 mb 0.00 in0.0 mm 0.00 in0.0 mm 0.00 in0.0 mm
06:37 AM 59.4°F15.2°C 44.1°F6.7°C 57% 4.5 mph NNW7.2 kmh NNW 10.7 mph17.2 kmh 29.70 in1005.8 mb 0.00 in0.0 mm 0.00 in0.0 mm 0.00 in0.0 mm
06:36 AM 59.4°F15.2°C 44.6°F7.0°C 58% 4.5 mph NNW7.2 kmh NNW 10.7 mph17.2 kmh 29.70 in1005.8 mb 0.00 in0.0 mm 0.00 in0.0 mm 0.00 in0.0 mm
06:35 AM 59.2°F15.1°C 44.4°F6.9°C 58% 3.1 mph NNW5.0 kmh NNW 10.7 mph17.2 kmh 29.70 in1005.8 mb 0.00 in0.0 mm 0.00 in0.0 mm 0.00 in0.0 mm
06:34 AM 59.2°F15.1°C 44.4°F6.9°C 58% 6.9 mph NNW11.1 kmh NNW 10.7 mph17.2 kmh 29.70 in1005.8 mb 0.00 in0.0 mm 0.00 in0.0 mm 0.00 in0.0 mm
06:33 AM 59.0°F15.0°C 44.3°F6.8°C 58% 6.0 mph NNW9.7 kmh NNW 8.3 mph13.4 kmh 29.70 in1005.8 mb 0.00 in0.0 mm 0.00 in0.0 mm 0.00 in0.0 mm
06:32 AM 59.0°F15.0°C 44.7°F7.1°C 59% 5.4 mph NNW8.7 kmh NNW 9.2 mph14.8 kmh 29.70 in1005.8 mb 0.00 in0.0 mm 0.00 in0.0 mm 0.00 in0.0 mm
06:31 AM 58.8°F14.9°C 45.0°F7.2°C 60% 6.0 mph NNW9.7 kmh NNW 9.2 mph14.8 kmh 29.70 in1005.8 mb 0.00 in0.0 mm 0.00 in0.0 mm 0.00 in0.0 mm
06:30 AM 58.6°F14.8°C 44.8°F7.1°C 60% 4.5 mph NNW7.2 kmh NNW 9.2 mph14.8 kmh 29.70 in1005.8 mb 0.00 in0.0 mm 0.00 in0.0 mm 0.00 in0.0 mm
06:29 AM 58.3°F14.6°C 44.5°F6.9°C 60% 3.8 mph NNW6.1 kmh NNW 9.2 mph14.8 kmh 29.71 in1006.1 mb 0.00 in0.0 mm 0.00 in0.0 mm 0.00 in0.0 mm
06:28 AM 58.1°F14.5°C 44.3°F6.8°C 60% 3.8 mph N6.1 kmh N 9.2 mph14.8 kmh 29.70 in1005.8 mb 0.00 in0.0 mm 0.00 in0.0 mm 0.00 in0.0 mm
06:27 AM 57.9°F14.4°C 44.1°F6.7°C 60% 3.1 mph N5.0 kmh N 9.2 mph14.8 kmh 29.70 in1005.8 mb 0.00 in0.0 mm 0.00 in0.0 mm 0.00 in0.0 mm
06:26 AM 57.9°F14.4°C 44.1°F6.7°C 60% 4.5 mph N7.2 kmh N 9.2 mph14.8 kmh 29.71 in1006.1 mb 0.00 in0.0 mm 0.00 in0.0 mm 0.00 in0.0 mm
06:25 AM 57.9°F14.4°C 44.6°F7.0°C 61% 3.1 mph N5.0 kmh N 9.2 mph14.8 kmh 29.70 in1005.8 mb 0.00 in0.0 mm 0.00 in0.0 mm 0.00 in0.0 mm
06:24 AM 57.9°F14.4°C 44.6°F7.0°C 61% 6.0 mph NNW9.7 kmh NNW 9.2 mph14.8 kmh 29.70 in1005.8 mb 0.00 in0.0 mm 0.00 in0.0 mm 0.00 in0.0 mm
06:23 AM 57.9°F14.4°C 44.6°F7.0°C 61% 4.5 mph NNW7.2 kmh NNW 9.2 mph14.8 kmh 29.70 in1005.8 mb 0.00 in0.0 mm 0.00 in0.0 mm 0.00 in0.0 mm
06:22 AM 57.9°F14.4°C 44.6°F7.0°C 61% 6.0 mph NNW9.7 kmh NNW 9.2 mph14.8 kmh 29.70 in1005.8 mb 0.00 in0.0 mm 0.00 in0.0 mm 0.00 in0.0 mm
06:21 AM 57.7°F14.3°C 44.0°F6.7°C 60% 2.2 mph NNW3.5 kmh NNW 9.8 mph15.8 kmh 29.70 in1005.8 mb 0.00 in0.0 mm 0.00 in0.0 mm 0.00 in0.0 mm
06:20 AM 57.7°F14.3°C 44.0°F6.7°C 60% 4.5 mph NNW7.2 kmh NNW 9.8 mph15.8 kmh 29.70 in1005.8 mb 0.00 in0.0 mm 0.00 in0.0 mm 0.00 in0.0 mm
06:19 AM 57.7°F14.3°C 44.0°F6.7°C 60% 6.0 mph NNW9.7 kmh NNW 9.8 mph15.8 kmh 29.70 in1005.8 mb 0.00 in0.0 mm 0.00 in0.0 mm 0.00 in0.0 mm
06:18 AM 57.7°F14.3°C 44.4°F6.9°C 61% 6.9 mph NNW11.1 kmh NNW 9.8 mph15.8 kmh 29.70 in1005.8 mb 0.00 in0.0 mm 0.00 in0.0 mm 0.00 in0.0 mm
06:17 AM 57.7°F14.3°C 44.4°F6.9°C 61% 4.5 mph NNW7.2 kmh NNW 9.8 mph15.8 kmh 29.70 in1005.8 mb 0.00 in0.0 mm 0.00 in0.0 mm 0.00 in0.0 mm
06:16 AM 57.7°F14.3°C 44.4°F6.9°C 61% 3.8 mph NNW6.1 kmh NNW 9.8 mph15.8 kmh 29.70 in1005.8 mb 0.00 in0.0 mm 0.00 in0.0 mm 0.00 in0.0 mm
06:15 AM 57.7°F14.3°C 44.4°F6.9°C 61% 6.9 mph NNW11.1 kmh NNW 9.8 mph15.8 kmh 29.70 in1005.8 mb 0.00 in0.0 mm 0.00 in0.0 mm 0.00 in0.0 mm
06:14 AM 57.7°F14.3°C 44.4°F6.9°C 61% 3.1 mph N5.0 kmh N 9.8 mph15.8 kmh 29.70 in1005.8 mb 0.00 in0.0 mm 0.00 in0.0 mm 0.00 in0.0 mm
06:13 AM 57.7°F14.3°C 44.4°F6.9°C 61% 3.1 mph N5.0 kmh N 9.8 mph15.8 kmh 29.70 in1005.8 mb 0.00 in0.0 mm 0.00 in0.0 mm 0.00 in0.0 mm
06:12 AM 57.7°F14.3°C 44.4°F6.9°C 61% 3.8 mph N6.1 kmh N 9.8 mph15.8 kmh 29.70 in1005.8 mb 0.00 in0.0 mm 0.00 in0.0 mm 0.00 in0.0 mm
06:11 AM 57.7°F14.3°C 44.4°F6.9°C 61% 6.0 mph N9.7 kmh N 9.8 mph15.8 kmh 29.70 in1005.8 mb 0.00 in0.0 mm 0.00 in0.0 mm 0.00 in0.0 mm
06:10 AM 57.7°F14.3°C 44.4°F6.9°C 61% 3.8 mph N6.1 kmh N 8.3 mph13.4 kmh 29.70 in1005.8 mb 0.00 in0.0 mm 0.00 in0.0 mm 0.00 in0.0 mm
06:09 AM 57.6°F14.2°C 44.2°F6.8°C 61% 3.1 mph N5.0 kmh N 8.3 mph13.4 kmh 29.70 in1005.8 mb 0.00 in0.0 mm 0.00 in0.0 mm 0.00 in0.0 mm
06:08 AM 57.6°F14.2°C 44.2°F6.8°C 61% 3.8 mph N6.1 kmh N 8.3 mph13.4 kmh 29.70 in1005.8 mb 0.00 in0.0 mm 0.00 in0.0 mm 0.00 in0.0 mm
06:07 AM 57.6°F14.2°C 44.2°F6.8°C 61% 4.5 mph N7.2 kmh N 8.3 mph13.4 kmh 29.70 in1005.8 mb 0.00 in0.0 mm 0.00 in0.0 mm 0.00 in0.0 mm
06:06 AM 57.6°F14.2°C 44.2°F6.8°C 61% 3.8 mph N6.1 kmh N 8.3 mph13.4 kmh 29.70 in1005.8 mb 0.00 in0.0 mm 0.00 in0.0 mm 0.00 in0.0 mm
06:05 AM 57.6°F14.2°C 44.2°F6.8°C 61% 6.9 mph N11.1 kmh N 8.3 mph13.4 kmh 29.70 in1005.8 mb 0.00 in0.0 mm 0.00 in0.0 mm 0.00 in0.0 mm
06:04 AM 57.6°F14.2°C 44.2°F6.8°C 61% 4.5 mph N7.2 kmh N 7.6 mph12.2 kmh 29.70 in1005.8 mb 0.00 in0.0 mm 0.00 in0.0 mm 0.00 in0.0 mm
06:03 AM 57.6°F14.2°C 44.2°F6.8°C 61% 5.4 mph N8.7 kmh N 7.6 mph12.2 kmh 29.70 in1005.8 mb 0.00 in0.0 mm 0.00 in0.0 mm 0.00 in0.0 mm
06:02 AM 57.6°F14.2°C 44.2°F6.8°C 61% 4.5 mph NNW7.2 kmh NNW 7.6 mph12.2 kmh 29.70 in1005.8 mb 0.00 in0.0 mm 0.00 in0.0 mm 0.00 in0.0 mm
06:01 AM 57.6°F14.2°C 44.2°F6.8°C 61% 3.1 mph NNW5.0 kmh NNW 7.6 mph12.2 kmh 29.70 in1005.8 mb 0.00 in0.0 mm 0.00 in0.0 mm 0.00 in0.0 mm
06:00 AM 57.6°F14.2°C 44.2°F6.8°C 61% 3.1 mph NNW5.0 kmh NNW 7.6 mph12.2 kmh 29.70 in1005.8 mb 0.00 in0.0 mm 0.00 in0.0 mm 0.00 in0.0 mm
05:59 AM 57.6°F14.2°C 44.2°F6.8°C 61% 4.5 mph N7.2 kmh N 7.6 mph12.2 kmh 29.70 in1005.8 mb 0.00 in0.0 mm 0.00 in0.0 mm 0.00 in0.0 mm
05:58 AM 57.4°F14.1°C 44.1°F6.7°C 61% 3.8 mph N6.1 kmh N 7.6 mph12.2 kmh 29.69 in1005.4 mb 0.00 in0.0 mm 0.00 in0.0 mm 0.00 in0.0 mm
05:57 AM 57.4°F14.1°C 44.1°F6.7°C 61% 5.4 mph NNW8.7 kmh NNW 7.6 mph12.2 kmh 29.70 in1005.8 mb 0.00 in0.0 mm 0.00 in0.0 mm 0.00 in0.0 mm
05:56 AM 57.4°F14.1°C 44.1°F6.7°C 61% 5.4 mph NNW8.7 kmh NNW 8.3 mph13.4 kmh 29.70 in1005.8 mb 0.00 in0.0 mm 0.00 in0.0 mm 0.00 in0.0 mm
05:55 AM 57.4°F14.1°C 44.5°F6.9°C 62% 3.1 mph NNW5.0 kmh NNW 8.3 mph13.4 kmh 29.70 in1005.8 mb 0.00 in0.0 mm 0.00 in0.0 mm 0.00 in0.0 mm
05:54 AM 57.4°F14.1°C 44.5°F6.9°C 62% 5.4 mph NNW8.7 kmh NNW 8.3 mph13.4 kmh 29.69 in1005.4 mb 0.00 in0.0 mm 0.00 in0.0 mm 0.00 in0.0 mm
05:53 AM 57.4°F14.1°C 44.5°F6.9°C 62% 5.4 mph NNW8.7 kmh NNW 8.3 mph13.4 kmh 29.69 in1005.4 mb 0.00 in0.0 mm 0.00 in0.0 mm 0.00 in0.0 mm
05:52 AM 57.4°F14.1°C 44.5°F6.9°C 62% 3.8 mph N6.1 kmh N 8.3 mph13.4 kmh 29.69 in1005.4 mb 0.00 in0.0 mm 0.00 in0.0 mm 0.00 in0.0 mm
05:51 AM 57.4°F14.1°C 44.5°F6.9°C 62% 4.5 mph N7.2 kmh N 8.3 mph13.4 kmh 29.69 in1005.4 mb 0.00 in0.0 mm 0.00 in0.0 mm 0.00 in0.0 mm
05:50 AM 57.4°F14.1°C 44.5°F6.9°C 62% 3.8 mph N6.1 kmh N 8.3 mph13.4 kmh 29.69 in1005.4 mb 0.00 in0.0 mm 0.00 in0.0 mm 0.00 in0.0 mm
05:49 AM 57.4°F14.1°C 44.5°F6.9°C 62% 3.1 mph N5.0 kmh N 8.3 mph13.4 kmh 29.69 in1005.4 mb 0.00 in0.0 mm 0.00 in0.0 mm 0.00 in0.0 mm
05:48 AM 57.4°F14.1°C 44.5°F6.9°C 62% 3.8 mph N6.1 kmh N 8.3 mph13.4 kmh 29.69 in1005.4 mb 0.00 in0.0 mm 0.00 in0.0 mm 0.00 in0.0 mm
05:47 AM 57.4°F14.1°C 44.5°F6.9°C 62% 3.8 mph NNW6.1 kmh NNW 8.3 mph13.4 kmh 29.70 in1005.8 mb 0.00 in0.0 mm 0.00 in0.0 mm 0.00 in0.0 mm
05:46 AM 57.4°F14.1°C 44.5°F6.9°C 62% 6.0 mph NNW9.7 kmh NNW 8.3 mph13.4 kmh 29.70 in1005.8 mb 0.00 in0.0 mm 0.00 in0.0 mm 0.00 in0.0 mm
05:45 AM 57.4°F14.1°C 44.5°F6.9°C 62% 4.5 mph NNW7.2 kmh NNW 6.9 mph11.1 kmh 29.69 in1005.4 mb 0.00 in0.0 mm 0.00 in0.0 mm 0.00 in0.0 mm
05:44 AM 57.4°F14.1°C 44.1°F6.7°C 61% 3.8 mph NNW6.1 kmh NNW 6.9 mph11.1 kmh 29.69 in1005.4 mb 0.00 in0.0 mm 0.00 in0.0 mm 0.00 in0.0 mm
05:43 AM 57.4°F14.1°C 44.1°F6.7°C 61% 3.1 mph NNW5.0 kmh NNW 6.9 mph11.1 kmh 29.69 in1005.4 mb 0.00 in0.0 mm 0.00 in0.0 mm 0.00 in0.0 mm
05:42 AM 57.4°F14.1°C 44.1°F6.7°C 61% 4.5 mph NNW7.2 kmh NNW 7.6 mph12.2 kmh 29.69 in1005.4 mb 0.00 in0.0 mm 0.00 in0.0 mm 0.00 in0.0 mm
05:41 AM 57.4°F14.1°C 44.1°F6.7°C 61% 4.5 mph NNW7.2 kmh NNW 9.8 mph15.8 kmh 29.69 in1005.4 mb 0.00 in0.0 mm 0.00 in0.0 mm 0.00 in0.0 mm
05:40 AM 57.4°F14.1°C 44.1°F6.7°C 61% 3.8 mph NW6.1 kmh NW 9.8 mph15.8 kmh 29.69 in1005.4 mb 0.00 in0.0 mm 0.00 in0.0 mm 0.00 in0.0 mm
05:39 AM 57.4°F14.1°C 44.1°F6.7°C 61% 4.5 mph NW7.2 kmh NW 9.8 mph15.8 kmh 29.69 in1005.4 mb 0.00 in0.0 mm 0.00 in0.0 mm 0.00 in0.0 mm
05:38 AM 57.4°F14.1°C 44.1°F6.7°C 61% 2.2 mph NW3.5 kmh NW 9.8 mph15.8 kmh 29.69 in1005.4 mb 0.00 in0.0 mm 0.00 in0.0 mm 0.00 in0.0 mm
05:37 AM 57.4°F14.1°C 44.1°F6.7°C 61% 3.1 mph NW5.0 kmh NW 9.8 mph15.8 kmh 29.69 in1005.4 mb 0.00 in0.0 mm 0.00 in0.0 mm 0.00 in0.0 mm
05:36 AM 57.4°F14.1°C 44.1°F6.7°C 61% 1.6 mph NNW2.6 kmh NNW 9.8 mph15.8 kmh 29.69 in1005.4 mb 0.00 in0.0 mm 0.00 in0.0 mm 0.00 in0.0 mm
05:35 AM 57.4°F14.1°C 44.1°F6.7°C 61% 3.1 mph NW5.0 kmh NW 9.8 mph15.8 kmh 29.69 in1005.4 mb 0.00 in0.0 mm 0.00 in0.0 mm 0.00 in0.0 mm
05:34 AM 57.4°F14.1°C 44.1°F6.7°C 61% 4.5 mph NNW7.2 kmh NNW 9.8 mph15.8 kmh 29.69 in1005.4 mb 0.00 in0.0 mm 0.00 in0.0 mm 0.00 in0.0 mm
05:33 AM 57.4°F14.1°C 44.1°F6.7°C 61% 4.5 mph NNW7.2 kmh NNW 9.8 mph15.8 kmh 29.69 in1005.4 mb 0.00 in0.0 mm 0.00 in0.0 mm 0.00 in0.0 mm
05:32 AM 57.4°F14.1°C 44.1°F6.7°C 61% 4.5 mph NW7.2 kmh NW 9.8 mph15.8 kmh 29.69 in1005.4 mb 0.00 in0.0 mm 0.00 in0.0 mm 0.00 in0.0 mm
05:31 AM 57.4°F14.1°C 44.1°F6.7°C 61% 6.9 mph NNW11.1 kmh NNW 10.7 mph17.2 kmh 29.68 in1005.1 mb 0.00 in0.0 mm 0.00 in0.0 mm 0.00 in0.0 mm
05:30 AM 57.4°F14.1°C 44.1°F6.7°C 61% 6.0 mph NNW9.7 kmh NNW 10.7 mph17.2 kmh 29.69 in1005.4 mb 0.00 in0.0 mm 0.00 in0.0 mm 0.00 in0.0 mm
05:29 AM 57.4°F14.1°C 44.1°F6.7°C 61% 4.5 mph NNW7.2 kmh NNW 12.1 mph19.5 kmh 29.68 in1005.1 mb 0.00 in0.0 mm 0.00 in0.0 mm 0.00 in0.0 mm
05:28 AM 57.4°F14.1°C 44.1°F6.7°C 61% 4.5 mph NNW7.2 kmh NNW 12.1 mph19.5 kmh 29.69 in1005.4 mb 0.00 in0.0 mm 0.00 in0.0 mm 0.00 in0.0 mm
05:27 AM 57.4°F14.1°C 44.1°F6.7°C 61% 3.1 mph N5.0 kmh N 12.1 mph19.5 kmh 29.68 in1005.1 mb 0.00 in0.0 mm 0.00 in0.0 mm 0.00 in0.0 mm
05:26 AM 57.4°F14.1°C 44.1°F6.7°C 61% 3.8 mph NNW6.1 kmh NNW 12.1 mph19.5 kmh 29.69 in1005.4 mb 0.00 in0.0 mm 0.00 in0.0 mm 0.00 in0.0 mm
05:25 AM 57.6°F14.2°C 44.2°F6.8°C 61% 6.0 mph N9.7 kmh N 12.1 mph19.5 kmh 29.69 in1005.4 mb 0.00 in0.0 mm 0.00 in0.0 mm 0.00 in0.0 mm
05:24 AM 57.6°F14.2°C 44.2°F6.8°C 61% 5.4 mph N8.7 kmh N 12.1 mph19.5 kmh 29.69 in1005.4 mb 0.00 in0.0 mm 0.00 in0.0 mm 0.00 in0.0 mm
05:23 AM 57.6°F14.2°C 44.2°F6.8°C 61% 3.1 mph N5.0 kmh N 12.1 mph19.5 kmh 29.68 in1005.1 mb 0.00 in0.0 mm 0.00 in0.0 mm 0.00 in0.0 mm
05:22 AM 57.6°F14.2°C 44.2°F6.8°C 61% 6.9 mph N11.1 kmh N 12.1 mph19.5 kmh 29.68 in1005.1 mb 0.00 in0.0 mm 0.00 in0.0 mm 0.00 in0.0 mm
05:21 AM 57.6°F14.2°C 44.2°F6.8°C 61% 8.3 mph NNW13.4 kmh NNW 12.1 mph19.5 kmh 29.68 in1005.1 mb 0.00 in0.0 mm 0.00 in0.0 mm 0.00 in0.0 mm
05:20 AM 57.6°F14.2°C 44.2°F6.8°C 61% 6.0 mph NNW9.7 kmh NNW 12.1 mph19.5 kmh 29.68 in1005.1 mb 0.00 in0.0 mm 0.00 in0.0 mm 0.00 in0.0 mm
05:19 AM 57.6°F14.2°C 44.2°F6.8°C 61% 6.0 mph NNW9.7 kmh NNW 10.7 mph17.2 kmh 29.68 in1005.1 mb 0.00 in0.0 mm 0.00 in0.0 mm 0.00 in0.0 mm
05:18 AM 57.7°F14.3°C 44.4°F6.9°C 61% 5.4 mph NNW8.7 kmh NNW 10.7 mph17.2 kmh 29.68 in1005.1 mb 0.00 in0.0 mm 0.00 in0.0 mm 0.00 in0.0 mm
05:17 AM 57.7°F14.3°C 44.4°F6.9°C 61% 5.4 mph NNW8.7 kmh NNW 10.7 mph17.2 kmh 29.68 in1005.1 mb 0.00 in0.0 mm 0.00 in0.0 mm 0.00 in0.0 mm
05:16 AM 57.7°F14.3°C 44.4°F6.9°C 61% 3.8 mph NNW6.1 kmh NNW 10.7 mph17.2 kmh 29.68 in1005.1 mb 0.00 in0.0 mm 0.00 in0.0 mm 0.00 in0.0 mm
05:15 AM 57.7°F14.3°C 44.4°F6.9°C 61% 6.9 mph NNW11.1 kmh NNW 10.7 mph17.2 kmh 29.68 in1005.1 mb 0.00 in0.0 mm 0.00 in0.0 mm 0.00 in0.0 mm
05:14 AM 57.7°F14.3°C 44.4°F6.9°C 61% 6.0 mph NNW9.7 kmh NNW 10.7 mph17.2 kmh 29.68 in1005.1 mb 0.00 in0.0 mm 0.00 in0.0 mm 0.00 in0.0 mm
05:13 AM 57.9°F14.4°C 44.1°F6.7°C 60% 3.8 mph NNW6.1 kmh NNW 10.7 mph17.2 kmh 29.68 in1005.1 mb 0.00 in0.0 mm 0.00 in0.0 mm 0.00 in0.0 mm
05:12 AM 57.9°F14.4°C 44.1°F6.7°C 60% 5.4 mph NNW8.7 kmh NNW 10.7 mph17.2 kmh 29.68 in1005.1 mb 0.00 in0.0 mm 0.00 in0.0 mm 0.00 in0.0 mm
05:11 AM 57.9°F14.4°C 44.1°F6.7°C 60% 7.6 mph NNW12.2 kmh NNW 10.7 mph17.2 kmh 29.69 in1005.4 mb 0.00 in0.0 mm 0.00 in0.0 mm 0.00 in0.0 mm
05:10 AM 57.9°F14.4°C 44.1°F6.7°C 60% 5.4 mph N8.7 kmh N 10.7 mph17.2 kmh 29.69 in1005.4 mb 0.00 in0.0 mm 0.00 in0.0 mm 0.00 in0.0 mm
05:09 AM 57.9°F14.4°C 44.1°F6.7°C 60% 7.6 mph N12.2 kmh N 10.7 mph17.2 kmh 29.69 in1005.4 mb 0.00 in0.0 mm 0.00 in0.0 mm 0.00 in0.0 mm
05:08 AM 57.9°F14.4°C 44.1°F6.7°C 60% 5.4 mph N8.7 kmh N 10.7 mph17.2 kmh 29.68 in1005.1 mb 0.00 in0.0 mm 0.00 in0.0 mm 0.00 in0.0 mm
05:07 AM 58.1°F14.5°C 44.3°F6.8°C 60% 6.0 mph N9.7 kmh N 10.7 mph17.2 kmh 29.68 in1005.1 mb 0.00 in0.0 mm 0.00 in0.0 mm 0.00 in0.0 mm
05:06 AM 58.1°F14.5°C 44.3°F6.8°C 60% 4.5 mph N7.2 kmh N 10.7 mph17.2 kmh 29.68 in1005.1 mb 0.00 in0.0 mm 0.00 in0.0 mm 0.00 in0.0 mm
05:05 AM 58.1°F14.5°C 44.3°F6.8°C 60% 6.0 mph N9.7 kmh N 10.7 mph17.2 kmh 29.68 in1005.1 mb 0.00 in0.0 mm 0.00 in0.0 mm 0.00 in0.0 mm
05:04 AM 58.1°F14.5°C 44.3°F6.8°C 60% 7.6 mph N12.2 kmh N 10.7 mph17.2 kmh 29.68 in1005.1 mb 0.00 in0.0 mm 0.00 in0.0 mm 0.00 in0.0 mm
05:03 AM 58.3°F14.6°C 44.5°F6.9°C 60% 6.0 mph N9.7 kmh N 9.2 mph14.8 kmh 29.68 in1005.1 mb 0.00 in0.0 mm 0.00 in0.0 mm 0.00 in0.0 mm
05:02 AM 58.3°F14.6°C 44.5°F6.9°C 60% 6.0 mph N9.7 kmh N 9.2 mph14.8 kmh 29.69 in1005.4 mb 0.00 in0.0 mm 0.00 in0.0 mm 0.00 in0.0 mm
05:01 AM 58.3°F14.6°C 44.0°F6.7°C 59% 4.5 mph N7.2 kmh N 10.7 mph17.2 kmh 29.69 in1005.4 mb 0.00 in0.0 mm 0.00 in0.0 mm 0.00 in0.0 mm
05:00 AM 58.3°F14.6°C 44.0°F6.7°C 59% 6.9 mph NNW11.1 kmh NNW 10.7 mph17.2 kmh 29.69 in1005.4 mb 0.00 in0.0 mm 0.00 in0.0 mm 0.00 in0.0 mm
04:59 AM 58.5°F14.7°C 44.2°F6.8°C 59% 3.8 mph NNW6.1 kmh NNW 10.7 mph17.2 kmh 29.69 in1005.4 mb 0.00 in0.0 mm 0.00 in0.0 mm 0.00 in0.0 mm
04:58 AM 58.5°F14.7°C 44.2°F6.8°C 59% 5.4 mph NNW8.7 kmh NNW 10.7 mph17.2 kmh 29.68 in1005.1 mb 0.00 in0.0 mm 0.00 in0.0 mm 0.00 in0.0 mm
04:57 AM 58.5°F14.7°C 44.2°F6.8°C 59% 6.0 mph NNW9.7 kmh NNW 11.4 mph18.3 kmh 29.69 in1005.4 mb 0.00 in0.0 mm 0.00 in0.0 mm 0.00 in0.0 mm
04:56 AM 58.5°F14.7°C 44.2°F6.8°C 59% 7.6 mph NNW12.2 kmh NNW 11.4 mph18.3 kmh 29.69 in1005.4 mb 0.00 in0.0 mm 0.00 in0.0 mm 0.00 in0.0 mm
04:55 AM 58.5°F14.7°C 44.2°F6.8°C 59% 5.4 mph NNW8.7 kmh NNW 11.4 mph18.3 kmh 29.69 in1005.4 mb 0.00 in0.0 mm 0.00 in0.0 mm 0.00 in0.0 mm
04:54 AM 58.6°F14.8°C 44.4°F6.9°C 59% 6.0 mph NNW9.7 kmh NNW 11.4 mph18.3 kmh 29.69 in1005.4 mb 0.00 in0.0 mm 0.00 in0.0 mm 0.00 in0.0 mm
04:53 AM 58.6°F14.8°C 44.4°F6.9°C 59% 6.0 mph NNW9.7 kmh NNW 11.4 mph18.3 kmh 29.69 in1005.4 mb 0.00 in0.0 mm 0.00 in0.0 mm 0.00 in0.0 mm
04:52 AM 58.6°F14.8°C 44.4°F6.9°C 59% 8.3 mph NNW13.4 kmh NNW 11.4 mph18.3 kmh 29.69 in1005.4 mb 0.00 in0.0 mm 0.00 in0.0 mm 0.00 in0.0 mm
04:51 AM 58.6°F14.8°C 43.9°F6.6°C 58% 4.5 mph NNW7.2 kmh NNW 13.0 mph20.9 kmh 29.68 in1005.1 mb 0.00 in0.0 mm 0.00 in0.0 mm 0.00 in0.0 mm
04:50 AM 58.6°F14.8°C 43.9°F6.6°C 58% 5.4 mph NNW8.7 kmh NNW 13.0 mph20.9 kmh 29.69 in1005.4 mb 0.00 in0.0 mm 0.00 in0.0 mm 0.00 in0.0 mm
04:49 AM 58.8°F14.9°C 44.1°F6.7°C 58% 8.3 mph NNW13.4 kmh NNW 13.0 mph20.9 kmh 29.69 in1005.4 mb 0.00 in0.0 mm 0.00 in0.0 mm 0.00 in0.0 mm
04:48 AM 58.8°F14.9°C 44.1°F6.7°C 58% 7.6 mph NNW12.2 kmh NNW 13.0 mph20.9 kmh 29.68 in1005.1 mb 0.00 in0.0 mm 0.00 in0.0 mm 0.00 in0.0 mm
04:47 AM 58.8°F14.9°C 44.1°F6.7°C 58% 4.5 mph NNW7.2 kmh NNW 13.0 mph20.9 kmh 29.68 in1005.1 mb 0.00 in0.0 mm 0.00 in0.0 mm 0.00 in0.0 mm
04:46 AM 58.8°F14.9°C 44.1°F6.7°C 58% 4.5 mph NNW7.2 kmh NNW 13.0 mph20.9 kmh 29.69 in1005.4 mb 0.00 in0.0 mm 0.00 in0.0 mm 0.00 in0.0 mm
04:45 AM 58.8°F14.9°C 44.1°F6.7°C 58% 3.8 mph NNW6.1 kmh NNW 13.0 mph20.9 kmh 29.69 in1005.4 mb 0.00 in0.0 mm 0.00 in0.0 mm 0.00 in0.0 mm
04:44 AM 58.8°F14.9°C 44.1°F6.7°C 58% 4.5 mph N7.2 kmh N 13.0 mph20.9 kmh 29.69 in1005.4 mb 0.00 in0.0 mm 0.00 in0.0 mm 0.00 in0.0 mm
04:43 AM 58.8°F14.9°C 44.1°F6.7°C 58% 4.5 mph NNW7.2 kmh NNW 13.0 mph20.9 kmh 29.69 in1005.4 mb 0.00 in0.0 mm 0.00 in0.0 mm 0.00 in0.0 mm
04:42 AM 58.8°F14.9°C 44.1°F6.7°C 58% 3.8 mph NNW6.1 kmh NNW 13.0 mph20.9 kmh 29.69 in1005.4 mb 0.00 in0.0 mm 0.00 in0.0 mm 0.00 in0.0 mm
04:41 AM 59.0°F15.0°C 43.8°F6.6°C 57% 6.9 mph N11.1 kmh N 11.4 mph18.3 kmh 29.69 in1005.4 mb 0.00 in0.0 mm 0.00 in0.0 mm 0.00 in0.0 mm
04:40 AM 59.0°F15.0°C 43.8°F6.6°C 57% 5.4 mph N8.7 kmh N 11.4 mph18.3 kmh 29.69 in1005.4 mb 0.00 in0.0 mm 0.00 in0.0 mm 0.00 in0.0 mm
04:39 AM 59.0°F15.0°C 43.8°F6.6°C 57% 6.0 mph N9.7 kmh N 11.4 mph18.3 kmh 29.69 in1005.4 mb 0.00 in0.0 mm 0.00 in0.0 mm 0.00 in0.0 mm
04:38 AM 59.0°F15.0°C 43.3°F6.3°C 56% 3.8 mph N6.1 kmh N 11.4 mph18.3 kmh 29.69 in1005.4 mb 0.00 in0.0 mm 0.00 in0.0 mm 0.00 in0.0 mm
04:37 AM 59.0°F15.0°C 43.3°F6.3°C 56% 6.0 mph NNW9.7 kmh NNW 13.6 mph21.9 kmh 29.69 in1005.4 mb 0.00 in0.0 mm 0.00 in0.0 mm 0.00 in0.0 mm
04:36 AM 59.2°F15.1°C 43.5°F6.4°C 56% 6.9 mph NNW11.1 kmh NNW 13.6 mph21.9 kmh 29.69 in1005.4 mb 0.00 in0.0 mm 0.00 in0.0 mm 0.00 in0.0 mm
04:35 AM 59.2°F15.1°C 43.5°F6.4°C 56% 6.0 mph NNW9.7 kmh NNW 13.6 mph21.9 kmh 29.69 in1005.4 mb 0.00 in0.0 mm 0.00 in0.0 mm 0.00 in0.0 mm
04:34 AM 59.2°F15.1°C 43.5°F6.4°C 56% 4.5 mph NNW7.2 kmh NNW 13.6 mph21.9 kmh 29.69 in1005.4 mb 0.00 in0.0 mm 0.00 in0.0 mm 0.00 in0.0 mm
04:33 AM 59.2°F15.1°C 43.5°F6.4°C 56% 6.9 mph NNW11.1 kmh NNW 13.6 mph21.9 kmh 29.69 in1005.4 mb 0.00 in0.0 mm 0.00 in0.0 mm 0.00 in0.0 mm
04:32 AM 59.2°F15.1°C 43.5°F6.4°C 56% 7.6 mph NNW12.2 kmh NNW 13.6 mph21.9 kmh 29.69 in1005.4 mb 0.00 in0.0 mm 0.00 in0.0 mm 0.00 in0.0 mm
04:31 AM 59.4°F15.2°C 43.7°F6.5°C 56% 4.5 mph NNW7.2 kmh NNW 13.6 mph21.9 kmh 29.69 in1005.4 mb 0.00 in0.0 mm 0.00 in0.0 mm 0.00 in0.0 mm
04:30 AM 59.4°F15.2°C 43.2°F6.2°C 55% 9.8 mph NNW15.8 kmh NNW 13.6 mph21.9 kmh 29.69 in1005.4 mb 0.00 in0.0 mm 0.00 in0.0 mm 0.00 in0.0 mm
04:29 AM 59.4°F15.2°C 43.2°F6.2°C 55% 8.3 mph NNW13.4 kmh NNW 13.6 mph21.9 kmh 29.69 in1005.4 mb 0.00 in0.0 mm 0.00 in0.0 mm 0.00 in0.0 mm
04:28 AM 59.4°F15.2°C 43.2°F6.2°C 55% 9.8 mph NNW15.8 kmh NNW 13.6 mph21.9 kmh 29.69 in1005.4 mb 0.00 in0.0 mm 0.00 in0.0 mm 0.00 in0.0 mm
04:27 AM 59.4°F15.2°C 43.2°F6.2°C 55% 5.4 mph N8.7 kmh N 13.0 mph20.9 kmh 29.69 in1005.4 mb 0.00 in0.0 mm 0.00 in0.0 mm 0.00 in0.0 mm
04:26 AM 59.4°F15.2°C 43.2°F6.2°C 55% 6.0 mph N9.7 kmh N 13.0 mph20.9 kmh 29.69 in1005.4 mb 0.00 in0.0 mm 0.00 in0.0 mm 0.00 in0.0 mm
04:25 AM 59.5°F15.3°C 43.4°F6.3°C 55% 6.0 mph NNW9.7 kmh NNW 13.0 mph20.9 kmh 29.69 in1005.4 mb 0.00 in0.0 mm 0.00 in0.0 mm 0.00 in0.0 mm
04:24 AM 59.5°F15.3°C 43.4°F6.3°C 55% 6.9 mph N11.1 kmh N 14.5 mph23.3 kmh 29.69 in1005.4 mb 0.00 in0.0 mm 0.00 in0.0 mm 0.00 in0.0 mm
04:23 AM 59.5°F15.3°C 43.4°F6.3°C 55% 5.4 mph N8.7 kmh N 14.5 mph23.3 kmh 29.69 in1005.4 mb 0.00 in0.0 mm 0.00 in0.0 mm 0.00 in0.0 mm
04:22 AM 59.5°F15.3°C 43.4°F6.3°C 55% 5.4 mph N8.7 kmh N 14.5 mph23.3 kmh 29.69 in1005.4 mb 0.00 in0.0 mm 0.00 in0.0 mm 0.00 in0.0 mm
04:21 AM 59.5°F15.3°C 43.4°F6.3°C 55% 6.9 mph NNW11.1 kmh NNW 14.5 mph23.3 kmh 29.70 in1005.8 mb 0.00 in0.0 mm 0.00 in0.0 mm 0.00 in0.0 mm
04:20 AM 59.5°F15.3°C 43.4°F6.3°C 55% 6.0 mph NNW9.7 kmh NNW 14.5 mph23.3 kmh 29.69 in1005.4 mb 0.00 in0.0 mm 0.00 in0.0 mm 0.00 in0.0 mm
04:19 AM 59.5°F15.3°C 43.4°F6.3°C 55% 7.6 mph NNW12.2 kmh NNW 14.5 mph23.3 kmh 29.70 in1005.8 mb 0.00 in0.0 mm 0.00 in0.0 mm 0.00 in0.0 mm
04:18 AM 59.5°F15.3°C 43.4°F6.3°C 55% 7.6 mph NNW12.2 kmh NNW 14.5 mph23.3 kmh 29.69 in1005.4 mb 0.00 in0.0 mm 0.00 in0.0 mm 0.00 in0.0 mm
04:17 AM 59.7°F15.4°C 43.5°F6.4°C 55% 9.2 mph NNW14.8 kmh NNW 14.5 mph23.3 kmh 29.69 in1005.4 mb 0.00 in0.0 mm 0.00 in0.0 mm 0.00 in0.0 mm
04:16 AM 59.7°F15.4°C 43.1°F6.2°C 54% 5.4 mph N8.7 kmh N 14.5 mph23.3 kmh 29.70 in1005.8 mb 0.00 in0.0 mm 0.00 in0.0 mm 0.00 in0.0 mm
04:15 AM 59.7°F15.4°C 43.1°F6.2°C 54% 6.9 mph N11.1 kmh N 14.5 mph23.3 kmh 29.69 in1005.4 mb 0.00 in0.0 mm 0.00 in0.0 mm 0.00 in0.0 mm
04:14 AM 59.7°F15.4°C 43.1°F6.2°C 54% 7.6 mph N12.2 kmh N 14.5 mph23.3 kmh 29.70 in1005.8 mb 0.00 in0.0 mm 0.00 in0.0 mm 0.00 in0.0 mm
04:13 AM 59.7°F15.4°C 43.1°F6.2°C 54% 7.6 mph N12.2 kmh N 15.2 mph24.5 kmh 29.69 in1005.4 mb 0.00 in0.0 mm 0.00 in0.0 mm 0.00 in0.0 mm
04:12 AM 59.7°F15.4°C 43.1°F6.2°C 54% 7.6 mph N12.2 kmh N 15.2 mph24.5 kmh 29.69 in1005.4 mb 0.00 in0.0 mm 0.00 in0.0 mm 0.00 in0.0 mm
04:11 AM 59.7°F15.4°C 43.1°F6.2°C 54% 10.7 mph N17.2 kmh N 15.2 mph24.5 kmh 29.69 in1005.4 mb 0.00 in0.0 mm 0.00 in0.0 mm 0.00 in0.0 mm
04:10 AM 59.7°F15.4°C 43.1°F6.2°C 54% 7.6 mph N12.2 kmh N 15.2 mph24.5 kmh 29.69 in1005.4 mb 0.00 in0.0 mm 0.00 in0.0 mm 0.00 in0.0 mm
04:09 AM 59.9°F15.5°C 43.2°F6.2°C 54% 9.2 mph N14.8 kmh N 15.2 mph24.5 kmh 29.69 in1005.4 mb 0.00 in0.0 mm 0.00 in0.0 mm 0.00 in0.0 mm
04:08 AM 59.9°F15.5°C 43.2°F6.2°C 54% 9.2 mph NNW14.8 kmh NNW 15.2 mph24.5 kmh 29.69 in1005.4 mb 0.00 in0.0 mm 0.00 in0.0 mm 0.00 in0.0 mm
04:07 AM 59.9°F15.5°C 43.2°F6.2°C 54% 6.9 mph NNW11.1 kmh NNW 15.2 mph24.5 kmh 29.69 in1005.4 mb 0.00 in0.0 mm 0.00 in0.0 mm 0.00 in0.0 mm
04:06 AM 59.9°F15.5°C 43.2°F6.2°C 54% 9.2 mph NNW14.8 kmh NNW 15.2 mph24.5 kmh 29.69 in1005.4 mb 0.00 in0.0 mm 0.00 in0.0 mm 0.00 in0.0 mm
04:05 AM 59.9°F15.5°C 43.2°F6.2°C 54% 6.9 mph N11.1 kmh N 15.2 mph24.5 kmh 29.69 in1005.4 mb 0.00 in0.0 mm 0.00 in0.0 mm 0.00 in0.0 mm
04:04 AM 60.1°F15.6°C 43.4°F6.3°C 54% 9.8 mph N15.8 kmh N 15.2 mph24.5 kmh 29.69 in1005.4 mb 0.00 in0.0 mm 0.00 in0.0 mm 0.00 in0.0 mm
04:03 AM 60.1°F15.6°C 43.4°F6.3°C 54% 8.3 mph N13.4 kmh N 12.1 mph19.5 kmh 29.70 in1005.8 mb 0.00 in0.0 mm 0.00 in0.0 mm 0.00 in0.0 mm
04:02 AM 60.1°F15.6°C 42.9°F6.1°C 53% 4.5 mph N7.2 kmh N 11.4 mph18.3 kmh 29.69 in1005.4 mb 0.00 in0.0 mm 0.00 in0.0 mm 0.00 in0.0 mm
04:01 AM 60.3°F15.7°C 43.1°F6.2°C 53% 6.0 mph N9.7 kmh N 11.4 mph18.3 kmh 29.69 in1005.4 mb 0.00 in0.0 mm 0.00 in0.0 mm 0.00 in0.0 mm
04:00 AM 60.3°F15.7°C 43.1°F6.2°C 53% 6.9 mph N11.1 kmh N 11.4 mph18.3 kmh 29.69 in1005.4 mb 0.00 in0.0 mm 0.00 in0.0 mm 0.00 in0.0 mm
03:59 AM 60.3°F15.7°C 43.1°F6.2°C 53% 5.4 mph N8.7 kmh N 11.4 mph18.3 kmh 29.69 in1005.4 mb 0.00 in0.0 mm 0.00 in0.0 mm 0.00 in0.0 mm
03:58 AM 60.3°F15.7°C 43.1°F6.2°C 53% 5.4 mph N8.7 kmh N 11.4 mph18.3 kmh 29.69 in1005.4 mb 0.00 in0.0 mm 0.00 in0.0 mm 0.00 in0.0 mm
03:57 AM 60.4°F15.8°C 43.2°F6.2°C 53% 5.4 mph N8.7 kmh N 11.4 mph18.3 kmh 29.70 in1005.8 mb 0.00 in0.0 mm 0.00 in0.0 mm 0.00 in0.0 mm
03:56 AM 60.4°F15.8°C 43.2°F6.2°C 53% 6.9 mph N11.1 kmh N 11.4 mph18.3 kmh 29.69 in1005.4 mb 0.00 in0.0 mm 0.00 in0.0 mm 0.00 in0.0 mm
03:55 AM 60.4°F15.8°C 43.2°F6.2°C 53% 3.8 mph N6.1 kmh N 11.4 mph18.3 kmh 29.69 in1005.4 mb 0.00 in0.0 mm 0.00 in0.0 mm 0.00 in0.0 mm
03:54 AM 60.4°F15.8°C 43.2°F6.2°C 53% 6.9 mph N11.1 kmh N 11.4 mph18.3 kmh 29.70 in1005.8 mb 0.00 in0.0 mm 0.00 in0.0 mm 0.00 in0.0 mm
03:53 AM 60.4°F15.8°C 43.2°F6.2°C 53% 6.0 mph NNW9.7 kmh NNW 11.4 mph18.3 kmh 29.69 in1005.4 mb 0.00 in0.0 mm 0.00 in0.0 mm 0.00 in0.0 mm
03:52 AM 60.4°F15.8°C 43.2°F6.2°C 53% 8.3 mph NNW13.4 kmh NNW 11.4 mph18.3 kmh 29.70 in1005.8 mb 0.00 in0.0 mm 0.00 in0.0 mm 0.00 in0.0 mm
03:51 AM 60.6°F15.9°C 43.4°F6.3°C 53% 6.0 mph NNW9.7 kmh NNW 10.7 mph17.2 kmh 29.70 in1005.8 mb 0.00 in0.0 mm 0.00 in0.0 mm 0.00 in0.0 mm
03:50 AM 60.6°F15.9°C 43.4°F6.3°C 53% 4.5 mph NNW7.2 kmh NNW 11.4 mph18.3 kmh 29.70 in1005.8 mb 0.00 in0.0 mm 0.00 in0.0 mm 0.00 in0.0 mm
03:49 AM 60.6°F15.9°C 43.4°F6.3°C 53% 5.4 mph NNW8.7 kmh NNW 11.4 mph18.3 kmh 29.70 in1005.8 mb 0.00 in0.0 mm 0.00 in0.0 mm 0.00 in0.0 mm
03:48 AM 60.6°F15.9°C 43.4°F6.3°C 53% 6.0 mph NNW9.7 kmh NNW 11.4 mph18.3 kmh 29.70 in1005.8 mb 0.00 in0.0 mm 0.00 in0.0 mm 0.00 in0.0 mm
03:47 AM 60.6°F15.9°C 43.4°F6.3°C 53% 5.4 mph NNW8.7 kmh NNW 11.4 mph18.3 kmh 29.70 in1005.8 mb 0.00 in0.0 mm 0.00 in0.0 mm 0.00 in0.0 mm
03:46 AM 60.6°F15.9°C 43.4°F6.3°C 53% 6.0 mph NNW9.7 kmh NNW 11.4 mph18.3 kmh 29.70 in1005.8 mb 0.00 in0.0 mm 0.00 in0.0 mm 0.00 in0.0 mm
03:45 AM 60.6°F15.9°C 43.4°F6.3°C 53% 6.9 mph NNW11.1 kmh NNW 11.4 mph18.3 kmh 29.70 in1005.8 mb 0.00 in0.0 mm 0.00 in0.0 mm 0.00 in0.0 mm
03:44 AM 60.6°F15.9°C 43.4°F6.3°C 53% 4.5 mph NNW7.2 kmh NNW 11.4 mph18.3 kmh 29.70 in1005.8 mb 0.00 in0.0 mm 0.00 in0.0 mm 0.00 in0.0 mm
03:43 AM 60.6°F15.9°C 43.4°F6.3°C 53% 4.5 mph N7.2 kmh N 11.4 mph18.3 kmh 29.70 in1005.8 mb 0.00 in0.0 mm 0.00 in0.0 mm 0.00 in0.0 mm
03:42 AM 60.6°F15.9°C 43.4°F6.3°C 53% 6.0 mph N9.7 kmh N 11.4 mph18.3 kmh 29.70 in1005.8 mb 0.00 in0.0 mm 0.00 in0.0 mm 0.00 in0.0 mm
03:41 AM 60.8°F16.0°C 43.1°F6.2°C 52% 8.3 mph N13.4 kmh N 11.4 mph18.3 kmh 29.70 in1005.8 mb 0.00 in0.0 mm 0.00 in0.0 mm 0.00 in0.0 mm
03:40 AM 60.8°F16.0°C 43.1°F6.2°C 52% 4.5 mph N7.2 kmh N 9.8 mph15.8 kmh 29.70 in1005.8 mb 0.00 in0.0 mm 0.00 in0.0 mm 0.00 in0.0 mm
03:39 AM 60.8°F16.0°C 43.1°F6.2°C 52% 6.0 mph N9.7 kmh N 9.8 mph15.8 kmh 29.70 in1005.8 mb 0.00 in0.0 mm 0.00 in0.0 mm 0.00 in0.0 mm
03:38 AM 60.8°F16.0°C 43.1°F6.2°C 52% 6.0 mph N9.7 kmh N 9.8 mph15.8 kmh 29.70 in1005.8 mb 0.00 in0.0 mm 0.00 in0.0 mm 0.00 in0.0 mm
03:37 AM 60.8°F16.0°C 43.1°F6.2°C 52% 3.8 mph N6.1 kmh N 9.8 mph15.8 kmh 29.70 in1005.8 mb 0.00 in0.0 mm 0.00 in0.0 mm 0.00 in0.0 mm
03:36 AM 60.8°F16.0°C 43.1°F6.2°C 52% 4.5 mph N7.2 kmh N 9.8 mph15.8 kmh 29.70 in1005.8 mb 0.00 in0.0 mm 0.00 in0.0 mm 0.00 in0.0 mm
03:35 AM 60.8°F16.0°C 43.1°F6.2°C 52% 7.6 mph N12.2 kmh N 9.8 mph15.8 kmh 29.70 in1005.8 mb 0.00 in0.0 mm 0.00 in0.0 mm 0.00 in0.0 mm
03:34 AM 60.8°F16.0°C 43.1°F6.2°C 52% 6.9 mph N11.1 kmh N 9.8 mph15.8 kmh 29.70 in1005.8 mb 0.00 in0.0 mm 0.00 in0.0 mm 0.00 in0.0 mm
03:33 AM 60.8°F16.0°C 43.1°F6.2°C 52% 5.4 mph N8.7 kmh N 9.8 mph15.8 kmh 29.71 in1006.1 mb 0.00 in0.0 mm 0.00 in0.0 mm 0.00 in0.0 mm
03:32 AM 60.8°F16.0°C 43.1°F6.2°C 52% 5.4 mph N8.7 kmh N 9.8 mph15.8 kmh 29.70 in1005.8 mb 0.00 in0.0 mm 0.00 in0.0 mm 0.00 in0.0 mm
03:31 AM 60.8°F16.0°C 43.1°F6.2°C 52% 3.8 mph N6.1 kmh N 9.8 mph15.8 kmh 29.70 in1005.8 mb 0.00 in0.0 mm 0.00 in0.0 mm 0.00 in0.0 mm
03:30 AM 60.8°F16.0°C 43.1°F6.2°C 52% 3.8 mph N6.1 kmh N 9.8 mph15.8 kmh 29.71 in1006.1 mb 0.00 in0.0 mm 0.00 in0.0 mm 0.00 in0.0 mm
03:29 AM 60.8°F16.0°C 43.1°F6.2°C 52% 6.0 mph NNW9.7 kmh NNW 9.8 mph15.8 kmh 29.71 in1006.1 mb 0.00 in0.0 mm 0.00 in0.0 mm 0.00 in0.0 mm
03:28 AM 60.8°F16.0°C 43.1°F6.2°C 52% 7.6 mph NNW12.2 kmh NNW 9.8 mph15.8 kmh 29.71 in1006.1 mb 0.00 in0.0 mm 0.00 in0.0 mm 0.00 in0.0 mm
03:27 AM 60.8°F16.0°C 43.1°F6.2°C 52% 3.8 mph NNW6.1 kmh NNW 10.7 mph17.2 kmh 29.71 in1006.1 mb 0.00 in0.0 mm 0.00 in0.0 mm 0.00 in0.0 mm
03:26 AM 60.6°F15.9°C 43.4°F6.3°C 53% 5.4 mph NNW8.7 kmh NNW 10.7 mph17.2 kmh 29.70 in1005.8 mb 0.00 in0.0 mm 0.00 in0.0 mm 0.00 in0.0 mm
03:25 AM 60.6°F15.9°C 43.4°F6.3°C 53% 5.4 mph NNW8.7 kmh NNW 10.7 mph17.2 kmh 29.71 in1006.1 mb 0.00 in0.0 mm 0.00 in0.0 mm 0.00 in0.0 mm
03:24 AM 60.6°F15.9°C 43.4°F6.3°C 53% 5.4 mph NNW8.7 kmh NNW 10.7 mph17.2 kmh 29.70 in1005.8 mb 0.00 in0.0 mm 0.00 in0.0 mm 0.00 in0.0 mm
03:23 AM 60.6°F15.9°C 43.4°F6.3°C 53% 6.0 mph NNW9.7 kmh NNW 10.7 mph17.2 kmh 29.71 in1006.1 mb 0.00 in0.0 mm 0.00 in0.0 mm 0.00 in0.0 mm
03:22 AM 60.6°F15.9°C 43.4°F6.3°C 53% 5.4 mph NW8.7 kmh NW 10.7 mph17.2 kmh 29.71 in1006.1 mb 0.00 in0.0 mm 0.00 in0.0 mm 0.00 in0.0 mm
03:21 AM 60.6°F15.9°C 43.9°F6.6°C 54% 6.9 mph NW11.1 kmh NW 10.7 mph17.2 kmh 29.71 in1006.1 mb 0.00 in0.0 mm 0.00 in0.0 mm 0.00 in0.0 mm
03:20 AM 60.6°F15.9°C 43.9°F6.6°C 54% 6.0 mph NW9.7 kmh NW 10.7 mph17.2 kmh 29.70 in1005.8 mb 0.00 in0.0 mm 0.00 in0.0 mm 0.00 in0.0 mm
03:19 AM 60.6°F15.9°C 43.9°F6.6°C 54% 6.9 mph NNW11.1 kmh NNW 10.7 mph17.2 kmh 29.70 in1005.8 mb 0.00 in0.0 mm 0.00 in0.0 mm 0.00 in0.0 mm
03:18 AM 60.6°F15.9°C 43.9°F6.6°C 54% 5.4 mph NNW8.7 kmh NNW 10.7 mph17.2 kmh 29.71 in1006.1 mb 0.00 in0.0 mm 0.00 in0.0 mm 0.00 in0.0 mm
03:17 AM 60.6°F15.9°C 43.9°F6.6°C 54% 4.5 mph NW7.2 kmh NW 10.7 mph17.2 kmh 29.71 in1006.1 mb 0.00 in0.0 mm 0.00 in0.0 mm 0.00 in0.0 mm
03:16 AM 60.6°F15.9°C 43.9°F6.6°C 54% 6.9 mph NW11.1 kmh NW 10.7 mph17.2 kmh 29.71 in1006.1 mb 0.00 in0.0 mm 0.00 in0.0 mm 0.00 in0.0 mm
03:15 AM 60.6°F15.9°C 43.9°F6.6°C 54% 7.6 mph NW12.2 kmh NW 10.7 mph17.2 kmh 29.71 in1006.1 mb 0.00 in0.0 mm 0.00 in0.0 mm 0.00 in0.0 mm
03:14 AM 60.6°F15.9°C 43.9°F6.6°C 54% 4.5 mph NW7.2 kmh NW 10.7 mph17.2 kmh 29.71 in1006.1 mb 0.00 in0.0 mm 0.00 in0.0 mm 0.00 in0.0 mm
03:13 AM 60.6°F15.9°C 43.9°F6.6°C 54% 4.5 mph NW7.2 kmh NW 10.7 mph17.2 kmh 29.72 in1006.4 mb 0.00 in0.0 mm 0.00 in0.0 mm 0.00 in0.0 mm
03:12 AM 60.6°F15.9°C 43.9°F6.6°C 54% 2.2 mph NW3.5 kmh NW 10.7 mph17.2 kmh 29.72 in1006.4 mb 0.00 in0.0 mm 0.00 in0.0 mm 0.00 in0.0 mm
03:11 AM 60.6°F15.9°C 43.9°F6.6°C 54% 4.5 mph NW7.2 kmh NW 10.7 mph17.2 kmh 29.72 in1006.4 mb 0.00 in0.0 mm 0.00 in0.0 mm 0.00 in0.0 mm
03:10 AM 60.6°F15.9°C 43.9°F6.6°C 54% 2.2 mph NW3.5 kmh NW 10.7 mph17.2 kmh 29.71 in1006.1 mb 0.00 in0.0 mm 0.00 in0.0 mm 0.00 in0.0 mm
03:09 AM 60.6°F15.9°C 43.9°F6.6°C 54% 6.0 mph NW9.7 kmh NW 8.3 mph13.4 kmh 29.72 in1006.4 mb 0.00 in0.0 mm 0.00 in0.0 mm 0.00 in0.0 mm
03:08 AM 60.6°F15.9°C 43.9°F6.6°C 54% 3.8 mph NW6.1 kmh NW 8.3 mph13.4 kmh 29.72 in1006.4 mb 0.00 in0.0 mm 0.00 in0.0 mm 0.00 in0.0 mm
03:07 AM 60.6°F15.9°C 43.9°F6.6°C 54% 3.8 mph NNW6.1 kmh NNW 8.3 mph13.4 kmh 29.71 in1006.1 mb 0.00 in0.0 mm 0.00 in0.0 mm 0.00 in0.0 mm
03:06 AM 60.6°F15.9°C 43.9°F6.6°C 54% 3.8 mph NNW6.1 kmh NNW 8.3 mph13.4 kmh 29.72 in1006.4 mb 0.00 in0.0 mm 0.00 in0.0 mm 0.00 in0.0 mm
03:05 AM 60.6°F15.9°C 43.9°F6.6°C 54% 5.4 mph NNW8.7 kmh NNW 9.8 mph15.8 kmh 29.72 in1006.4 mb 0.00 in0.0 mm 0.00 in0.0 mm 0.00 in0.0 mm
03:04 AM 60.6°F15.9°C 43.9°F6.6°C 54% 4.5 mph NNW7.2 kmh NNW 9.8 mph15.8 kmh 29.72 in1006.4 mb 0.00 in0.0 mm 0.00 in0.0 mm 0.00 in0.0 mm
03:03 AM 60.6°F15.9°C 43.9°F6.6°C 54% 2.2 mph NNW3.5 kmh NNW 9.8 mph15.8 kmh 29.72 in1006.4 mb 0.00 in0.0 mm 0.00 in0.0 mm 0.00 in0.0 mm
03:02 AM 60.6°F15.9°C 43.9°F6.6°C 54% 3.1 mph NNW5.0 kmh NNW 9.8 mph15.8 kmh 29.72 in1006.4 mb 0.00 in0.0 mm 0.00 in0.0 mm 0.00 in0.0 mm
03:01 AM 60.6°F15.9°C 43.9°F6.6°C 54% 6.0 mph NW9.7 kmh NW 10.7 mph17.2 kmh 29.72 in1006.4 mb 0.00 in0.0 mm 0.00 in0.0 mm 0.00 in0.0 mm
03:00 AM 60.6°F15.9°C 43.9°F6.6°C 54% 3.1 mph NW5.0 kmh NW 10.7 mph17.2 kmh 29.72 in1006.4 mb 0.00 in0.0 mm 0.00 in0.0 mm 0.00 in0.0 mm
02:59 AM 60.6°F15.9°C 43.9°F6.6°C 54% 4.5 mph NW7.2 kmh NW 10.7 mph17.2 kmh 29.72 in1006.4 mb 0.00 in0.0 mm 0.00 in0.0 mm 0.00 in0.0 mm
02:58 AM 60.8°F16.0°C 43.6°F6.4°C 53% 3.1 mph NW5.0 kmh NW 10.7 mph17.2 kmh 29.72 in1006.4 mb 0.00 in0.0 mm 0.00 in0.0 mm 0.00 in0.0 mm
02:57 AM 60.8°F16.0°C 43.1°F6.2°C 52% 4.5 mph NW7.2 kmh NW 10.7 mph17.2 kmh 29.72 in1006.4 mb 0.00 in0.0 mm 0.00 in0.0 mm 0.00 in0.0 mm
02:56 AM 60.8°F16.0°C 43.1°F6.2°C 52% 5.4 mph NW8.7 kmh NW 10.7 mph17.2 kmh 29.72 in1006.4 mb 0.00 in0.0 mm 0.00 in0.0 mm 0.00 in0.0 mm
02:55 AM 60.8°F16.0°C 43.1°F6.2°C 52% 3.1 mph NW5.0 kmh NW 10.7 mph17.2 kmh 29.73 in1006.8 mb 0.00 in0.0 mm 0.00 in0.0 mm 0.00 in0.0 mm
02:54 AM 60.8°F16.0°C 43.1°F6.2°C 52% 6.0 mph NW9.7 kmh NW 10.7 mph17.2 kmh 29.72 in1006.4 mb 0.00 in0.0 mm 0.00 in0.0 mm 0.00 in0.0 mm
02:53 AM 60.8°F16.0°C 43.1°F6.2°C 52% 3.1 mph NW5.0 kmh NW 10.7 mph17.2 kmh 29.72 in1006.4 mb 0.00 in0.0 mm 0.00 in0.0 mm 0.00 in0.0 mm
02:52 AM 60.8°F16.0°C 43.1°F6.2°C 52% 5.4 mph NW8.7 kmh NW 10.7 mph17.2 kmh 29.72 in1006.4 mb 0.00 in0.0 mm 0.00 in0.0 mm 0.00 in0.0 mm
02:51 AM 60.8°F16.0°C 43.1°F6.2°C 52% 3.8 mph NW6.1 kmh NW 10.7 mph17.2 kmh 29.72 in1006.4 mb 0.00 in0.0 mm 0.00 in0.0 mm 0.00 in0.0 mm
02:50 AM 60.8°F16.0°C 43.1°F6.2°C 52% 3.8 mph NW6.1 kmh NW 10.7 mph17.2 kmh 29.72 in1006.4 mb 0.00 in0.0 mm 0.00 in0.0 mm 0.00 in0.0 mm
02:49 AM 61.0°F16.1°C 43.2°F6.2°C 52% 3.8 mph NW6.1 kmh NW 9.8 mph15.8 kmh 29.73 in1006.8 mb 0.00 in0.0 mm 0.00 in0.0 mm 0.00 in0.0 mm
02:48 AM 61.0°F16.1°C 43.2°F6.2°C 52% 6.0 mph NW9.7 kmh NW 12.1 mph19.5 kmh 29.72 in1006.4 mb 0.00 in0.0 mm 0.00 in0.0 mm 0.00 in0.0 mm
02:47 AM 61.0°F16.1°C 43.2°F6.2°C 52% 6.0 mph NW9.7 kmh NW 12.1 mph19.5 kmh 29.72 in1006.4 mb 0.00 in0.0 mm 0.00 in0.0 mm 0.00 in0.0 mm
02:46 AM 61.0°F16.1°C 43.2°F6.2°C 52% 5.4 mph NNW8.7 kmh NNW 12.1 mph19.5 kmh 29.72 in1006.4 mb 0.00 in0.0 mm 0.00 in0.0 mm 0.00 in0.0 mm
02:45 AM 61.0°F16.1°C 43.2°F6.2°C 52% 5.4 mph NW8.7 kmh NW 13.6 mph21.9 kmh 29.72 in1006.4 mb 0.00 in0.0 mm 0.00 in0.0 mm 0.00 in0.0 mm
02:44 AM 61.0°F16.1°C 43.2°F6.2°C 52% 3.8 mph NW6.1 kmh NW 13.6 mph21.9 kmh 29.72 in1006.4 mb 0.00 in0.0 mm 0.00 in0.0 mm 0.00 in0.0 mm
02:43 AM 61.0°F16.1°C 43.2°F6.2°C 52% 3.8 mph NW6.1 kmh NW 13.6 mph21.9 kmh 29.73 in1006.8 mb 0.00 in0.0 mm 0.00 in0.0 mm 0.00 in0.0 mm
02:42 AM 61.2°F16.2°C 43.4°F6.3°C 52% 4.5 mph NW7.2 kmh NW 13.6 mph21.9 kmh 29.72 in1006.4 mb 0.00 in0.0 mm 0.00 in0.0 mm 0.00 in0.0 mm
02:41 AM 61.2°F16.2°C 43.4°F6.3°C 52% 4.5 mph NW7.2 kmh NW 13.6 mph21.9 kmh 29.72 in1006.4 mb 0.00 in0.0 mm 0.00 in0.0 mm 0.00 in0.0 mm
02:40 AM 61.2°F16.2°C 43.4°F6.3°C 52% 4.5 mph NNW7.2 kmh NNW 13.6 mph21.9 kmh 29.73 in1006.8 mb 0.00 in0.0 mm 0.00 in0.0 mm 0.00 in0.0 mm
02:39 AM 61.2°F16.2°C 43.4°F6.3°C 52% 6.9 mph NNW11.1 kmh NNW 13.6 mph21.9 kmh 29.72 in1006.4 mb 0.00 in0.0 mm 0.00 in0.0 mm 0.00 in0.0 mm
02:38 AM 61.2°F16.2°C 42.9°F6.1°C 51% 7.6 mph NW12.2 kmh NW 13.6 mph21.9 kmh 29.73 in1006.8 mb 0.00 in0.0 mm 0.00 in0.0 mm 0.00 in0.0 mm
02:37 AM 61.2°F16.2°C 42.9°F6.1°C 51% 6.9 mph NW11.1 kmh NW 13.6 mph21.9 kmh 29.73 in1006.8 mb 0.00 in0.0 mm 0.00 in0.0 mm 0.00 in0.0 mm
02:36 AM 61.0°F16.1°C 43.2°F6.2°C 52% 6.9 mph NW11.1 kmh NW 13.6 mph21.9 kmh 29.73 in1006.8 mb 0.00 in0.0 mm 0.00 in0.0 mm 0.00 in0.0 mm
02:35 AM 61.0°F16.1°C 43.2°F6.2°C 52% 9.8 mph NW15.8 kmh NW 13.0 mph20.9 kmh 29.73 in1006.8 mb 0.00 in0.0 mm 0.00 in0.0 mm 0.00 in0.0 mm
02:34 AM 61.0°F16.1°C 43.2°F6.2°C 52% 5.4 mph NNW8.7 kmh NNW 11.4 mph18.3 kmh 29.73 in1006.8 mb 0.00 in0.0 mm 0.00 in0.0 mm 0.00 in0.0 mm
02:33 AM 61.0°F16.1°C 43.2°F6.2°C 52% 5.4 mph NNW8.7 kmh NNW 11.4 mph18.3 kmh 29.73 in1006.8 mb 0.00 in0.0 mm 0.00 in0.0 mm 0.00 in0.0 mm
02:32 AM 61.0°F16.1°C 43.2°F6.2°C 52% 3.8 mph NNW6.1 kmh NNW 11.4 mph18.3 kmh 29.73 in1006.8 mb 0.00 in0.0 mm 0.00 in0.0 mm 0.00 in0.0 mm
02:31 AM 61.0°F16.1°C 43.2°F6.2°C 52% 5.4 mph N8.7 kmh N 11.4 mph18.3 kmh 29.73 in1006.8 mb 0.00 in0.0 mm 0.00 in0.0 mm 0.00 in0.0 mm
02:30 AM 61.0°F16.1°C 43.2°F6.2°C 52% 5.4 mph NNW8.7 kmh NNW 11.4 mph18.3 kmh 29.73 in1006.8 mb 0.00 in0.0 mm 0.00 in0.0 mm 0.00 in0.0 mm
02:29 AM 61.0°F16.1°C 43.2°F6.2°C 52% 4.5 mph NNW7.2 kmh NNW 11.4 mph18.3 kmh 29.73 in1006.8 mb 0.00 in0.0 mm 0.00 in0.0 mm 0.00 in0.0 mm
02:28 AM 61.0°F16.1°C 43.2°F6.2°C 52% 4.5 mph NNW7.2 kmh NNW 11.4 mph18.3 kmh 29.72 in1006.4 mb 0.00 in0.0 mm 0.00 in0.0 mm 0.00 in0.0 mm
02:27 AM 61.0°F16.1°C 43.2°F6.2°C 52% 4.5 mph NNW7.2 kmh NNW 11.4 mph18.3 kmh 29.73 in1006.8 mb 0.00 in0.0 mm 0.00 in0.0 mm 0.00 in0.0 mm
02:26 AM 61.0°F16.1°C 43.2°F6.2°C 52% 3.8 mph NNW6.1 kmh NNW 11.4 mph18.3 kmh 29.73 in1006.8 mb 0.00 in0.0 mm 0.00 in0.0 mm 0.00 in0.0 mm
02:25 AM 61.0°F16.1°C 43.2°F6.2°C 52% 6.0 mph NNW9.7 kmh NNW 11.4 mph18.3 kmh 29.73 in1006.8 mb 0.00 in0.0 mm 0.00 in0.0 mm 0.00 in0.0 mm
02:24 AM 61.0°F16.1°C 43.2°F6.2°C 52% 6.9 mph NNW11.1 kmh NNW 11.4 mph18.3 kmh 29.73 in1006.8 mb 0.00 in0.0 mm 0.00 in0.0 mm 0.00 in0.0 mm
02:23 AM 61.0°F16.1°C 43.2°F6.2°C 52% 5.4 mph N8.7 kmh N 11.4 mph18.3 kmh 29.73 in1006.8 mb 0.00 in0.0 mm 0.00 in0.0 mm 0.00 in0.0 mm
02:22 AM 61.0°F16.1°C 43.2°F6.2°C 52% 4.5 mph N7.2 kmh N 11.4 mph18.3 kmh 29.73 in1006.8 mb 0.00 in0.0 mm 0.00 in0.0 mm 0.00 in0.0 mm
02:21 AM 61.2°F16.2°C 43.4°F6.3°C 52% 3.8 mph NNW6.1 kmh NNW 8.3 mph13.4 kmh 29.73 in1006.8 mb 0.00 in0.0 mm 0.00 in0.0 mm 0.00 in0.0 mm
02:20 AM 61.2°F16.2°C 43.4°F6.3°C 52% 6.0 mph NNW9.7 kmh NNW 8.3 mph13.4 kmh 29.73 in1006.8 mb 0.00 in0.0 mm 0.00 in0.0 mm 0.00 in0.0 mm
02:19 AM 61.2°F16.2°C 43.4°F6.3°C 52% 2.2 mph NNW3.5 kmh NNW 8.3 mph13.4 kmh 29.72 in1006.4 mb 0.00 in0.0 mm 0.00 in0.0 mm 0.00 in0.0 mm
02:18 AM 61.2°F16.2°C 43.4°F6.3°C 52% 4.5 mph N7.2 kmh N 8.3 mph13.4 kmh 29.73 in1006.8 mb 0.00 in0.0 mm 0.00 in0.0 mm 0.00 in0.0 mm
02:17 AM 61.2°F16.2°C 43.4°F6.3°C 52% 5.4 mph N8.7 kmh N 9.2 mph14.8 kmh 29.73 in1006.8 mb 0.00 in0.0 mm 0.00 in0.0 mm 0.00 in0.0 mm
02:16 AM 61.2°F16.2°C 42.9°F6.1°C 51% 4.5 mph N7.2 kmh N 9.2 mph14.8 kmh 29.73 in1006.8 mb 0.00 in0.0 mm 0.00 in0.0 mm 0.00 in0.0 mm
02:15 AM 61.2°F16.2°C 42.9°F6.1°C 51% 4.5 mph NNW7.2 kmh NNW 9.2 mph14.8 kmh 29.73 in1006.8 mb 0.00 in0.0 mm 0.00 in0.0 mm 0.00 in0.0 mm
02:14 AM 61.2°F16.2°C 42.9°F6.1°C 51% 4.5 mph NNW7.2 kmh NNW 9.2 mph14.8 kmh 29.72 in1006.4 mb 0.00 in0.0 mm 0.00 in0.0 mm 0.00 in0.0 mm
02:13 AM 61.2°F16.2°C 42.9°F6.1°C 51% 4.5 mph NNW7.2 kmh NNW 10.7 mph17.2 kmh 29.73 in1006.8 mb 0.00 in0.0 mm 0.00 in0.0 mm 0.00 in0.0 mm
02:12 AM 61.3°F16.3°C 43.1°F6.2°C 51% 5.4 mph NNW8.7 kmh NNW 10.7 mph17.2 kmh 29.73 in1006.8 mb 0.00 in0.0 mm 0.00 in0.0 mm 0.00 in0.0 mm
02:11 AM 61.3°F16.3°C 43.1°F6.2°C 51% 5.4 mph NNW8.7 kmh NNW 10.7 mph17.2 kmh 29.73 in1006.8 mb 0.00 in0.0 mm 0.00 in0.0 mm 0.00 in0.0 mm
02:10 AM 61.3°F16.3°C 43.1°F6.2°C 51% 3.8 mph NNW6.1 kmh NNW 10.7 mph17.2 kmh 29.73 in1006.8 mb 0.00 in0.0 mm 0.00 in0.0 mm 0.00 in0.0 mm
02:09 AM 61.3°F16.3°C 42.6°F5.9°C 50% 5.4 mph NNW8.7 kmh NNW 10.7 mph17.2 kmh 29.72 in1006.4 mb 0.00 in0.0 mm 0.00 in0.0 mm 0.00 in0.0 mm
02:08 AM 61.3°F16.3°C 42.6°F5.9°C 50% 4.5 mph NNW7.2 kmh NNW 10.7 mph17.2 kmh 29.73 in1006.8 mb 0.00 in0.0 mm 0.00 in0.0 mm 0.00 in0.0 mm
02:07 AM 61.3°F16.3°C 42.6°F5.9°C 50% 6.9 mph NNW11.1 kmh NNW 10.7 mph17.2 kmh 29.73 in1006.8 mb 0.00 in0.0 mm 0.00 in0.0 mm 0.00 in0.0 mm
02:06 AM 61.5°F16.4°C 42.7°F5.9°C 50% 5.4 mph NNW8.7 kmh NNW 10.7 mph17.2 kmh 29.73 in1006.8 mb 0.00 in0.0 mm 0.00 in0.0 mm 0.00 in0.0 mm
02:05 AM 61.5°F16.4°C 42.7°F5.9°C 50% 5.4 mph NNW8.7 kmh NNW 10.7 mph17.2 kmh 29.73 in1006.8 mb 0.00 in0.0 mm 0.00 in0.0 mm 0.00 in0.0 mm
02:04 AM 61.5°F16.4°C 42.7°F5.9°C 50% 6.0 mph NNW9.7 kmh NNW 10.7 mph17.2 kmh 29.72 in1006.4 mb 0.00 in0.0 mm 0.00 in0.0 mm 0.00 in0.0 mm
02:03 AM 61.5°F16.4°C 42.7°F5.9°C 50% 6.0 mph N9.7 kmh N 10.7 mph17.2 kmh 29.73 in1006.8 mb 0.00 in0.0 mm 0.00 in0.0 mm 0.00 in0.0 mm
02:02 AM 61.5°F16.4°C 42.2°F5.7°C 49% 5.4 mph N8.7 kmh N 9.2 mph14.8 kmh 29.73 in1006.8 mb 0.00 in0.0 mm 0.00 in0.0 mm 0.00 in0.0 mm
02:01 AM 61.5°F16.4°C 42.2°F5.7°C 49% 3.8 mph NNW6.1 kmh NNW 9.2 mph14.8 kmh 29.73 in1006.8 mb 0.00 in0.0 mm 0.00 in0.0 mm 0.00 in0.0 mm
02:00 AM 61.5°F16.4°C 42.2°F5.7°C 49% 6.0 mph NNW9.7 kmh NNW 9.2 mph14.8 kmh 29.73 in1006.8 mb 0.00 in0.0 mm 0.00 in0.0 mm 0.00 in0.0 mm
01:59 AM 61.5°F16.4°C 42.2°F5.7°C 49% 4.5 mph NNW7.2 kmh NNW 8.3 mph13.4 kmh 29.73 in1006.8 mb 0.00 in0.0 mm 0.00 in0.0 mm 0.00 in0.0 mm
01:58 AM 61.5°F16.4°C 42.2°F5.7°C 49% 3.8 mph NNW6.1 kmh NNW 8.3 mph13.4 kmh 29.73 in1006.8 mb 0.00 in0.0 mm 0.00 in0.0 mm 0.00 in0.0 mm
01:57 AM 61.7°F16.5°C 42.4°F5.8°C 49% 4.5 mph NNW7.2 kmh NNW 8.3 mph13.4 kmh 29.73 in1006.8 mb 0.00 in0.0 mm 0.00 in0.0 mm 0.00 in0.0 mm
01:56 AM 61.7°F16.5°C 41.8°F5.4°C 48% 5.4 mph NNW8.7 kmh NNW 8.3 mph13.4 kmh 29.73 in1006.8 mb 0.00 in0.0 mm 0.00 in0.0 mm 0.00 in0.0 mm
01:55 AM 61.7°F16.5°C 41.8°F5.4°C 48% 5.4 mph NNW8.7 kmh NNW 10.7 mph17.2 kmh 29.73 in1006.8 mb 0.00 in0.0 mm 0.00 in0.0 mm 0.00 in0.0 mm
01:54 AM 61.9°F16.6°C 42.0°F5.6°C 48% 6.0 mph NW9.7 kmh NW 10.7 mph17.2 kmh 29.73 in1006.8 mb 0.00 in0.0 mm 0.00 in0.0 mm 0.00 in0.0 mm
01:53 AM 61.9°F16.6°C 42.0°F5.6°C 48% 1.6 mph NW2.6 kmh NW 10.7 mph17.2 kmh 29.73 in1006.8 mb 0.00 in0.0 mm 0.00 in0.0 mm 0.00 in0.0 mm
01:52 AM 62.1°F16.7°C 42.2°F5.7°C 48% 3.1 mph NW5.0 kmh NW 10.7 mph17.2 kmh 29.72 in1006.4 mb 0.00 in0.0 mm 0.00 in0.0 mm 0.00 in0.0 mm
01:51 AM 62.1°F16.7°C 42.2°F5.7°C 48% 3.8 mph NNW6.1 kmh NNW 10.7 mph17.2 kmh 29.72 in1006.4 mb 0.00 in0.0 mm 0.00 in0.0 mm 0.00 in0.0 mm
01:50 AM 62.1°F16.7°C 42.2°F5.7°C 48% 5.4 mph NNW8.7 kmh NNW 10.7 mph17.2 kmh 29.73 in1006.8 mb 0.00 in0.0 mm 0.00 in0.0 mm 0.00 in0.0 mm
01:49 AM 62.1°F16.7°C 41.6°F5.3°C 47% 3.8 mph NNW6.1 kmh NNW 10.7 mph17.2 kmh 29.72 in1006.4 mb 0.00 in0.0 mm 0.00 in0.0 mm 0.00 in0.0 mm
01:48 AM 62.1°F16.7°C 41.6°F5.3°C 47% 6.0 mph NNW9.7 kmh NNW 10.7 mph17.2 kmh 29.73 in1006.8 mb 0.00 in0.0 mm 0.00 in0.0 mm 0.00 in0.0 mm
01:47 AM 62.1°F16.7°C 41.6°F5.3°C 47% 3.8 mph NNW6.1 kmh NNW 10.7 mph17.2 kmh 29.73 in1006.8 mb 0.00 in0.0 mm 0.00 in0.0 mm 0.00 in0.0 mm
01:46 AM 62.2°F16.8°C 41.8°F5.4°C 47% 6.0 mph NNW9.7 kmh NNW 10.7 mph17.2 kmh 29.73 in1006.8 mb 0.00 in0.0 mm 0.00 in0.0 mm 0.00 in0.0 mm
01:45 AM 62.2°F16.8°C 41.8°F5.4°C 47% 6.9 mph N11.1 kmh N 9.2 mph14.8 kmh 29.73 in1006.8 mb 0.00 in0.0 mm 0.00 in0.0 mm 0.00 in0.0 mm
01:44 AM 62.2°F16.8°C 41.8°F5.4°C 47% 6.0 mph N9.7 kmh N 8.3 mph13.4 kmh 29.73 in1006.8 mb 0.00 in0.0 mm 0.00 in0.0 mm 0.00 in0.0 mm
01:43 AM 62.2°F16.8°C 41.8°F5.4°C 47% 5.4 mph N8.7 kmh N 8.3 mph13.4 kmh 29.73 in1006.8 mb 0.00 in0.0 mm 0.00 in0.0 mm 0.00 in0.0 mm
01:42 AM 62.2°F16.8°C 41.8°F5.4°C 47% 6.0 mph N9.7 kmh N 7.6 mph12.2 kmh 29.73 in1006.8 mb 0.00 in0.0 mm 0.00 in0.0 mm 0.00 in0.0 mm
01:41 AM 62.4°F16.9°C 41.9°F5.5°C 47% 4.5 mph N7.2 kmh N 7.6 mph12.2 kmh 29.72 in1006.4 mb 0.00 in0.0 mm 0.00 in0.0 mm 0.00 in0.0 mm
01:40 AM 62.4°F16.9°C 41.4°F5.2°C 46% 3.8 mph N6.1 kmh N 7.6 mph12.2 kmh 29.73 in1006.8 mb 0.00 in0.0 mm 0.00 in0.0 mm 0.00 in0.0 mm
01:39 AM 62.4°F16.9°C 41.4°F5.2°C 46% 3.8 mph N6.1 kmh N 7.6 mph12.2 kmh 29.73 in1006.8 mb 0.00 in0.0 mm 0.00 in0.0 mm 0.00 in0.0 mm
01:38 AM 62.4°F16.9°C 41.4°F5.2°C 46% 3.1 mph N5.0 kmh N 7.6 mph12.2 kmh 29.73 in1006.8 mb 0.00 in0.0 mm 0.00 in0.0 mm 0.00 in0.0 mm
01:37 AM 62.6°F17.0°C 41.0°F5.0°C 45% 3.8 mph N6.1 kmh N 7.6 mph12.2 kmh 29.73 in1006.8 mb 0.00 in0.0 mm 0.00 in0.0 mm 0.00 in0.0 mm
01:36 AM 62.6°F17.0°C 41.0°F5.0°C 45% 5.4 mph NNW8.7 kmh NNW 7.6 mph12.2 kmh 29.73 in1006.8 mb 0.00 in0.0 mm 0.00 in0.0 mm 0.00 in0.0 mm
01:35 AM 62.6°F17.0°C 41.0°F5.0°C 45% 3.8 mph NNW6.1 kmh NNW 7.6 mph12.2 kmh 29.73 in1006.8 mb 0.00 in0.0 mm 0.00 in0.0 mm 0.00 in0.0 mm
01:34 AM 62.6°F17.0°C 41.0°F5.0°C 45% 4.5 mph NNW7.2 kmh NNW 7.6 mph12.2 kmh 29.73 in1006.8 mb 0.00 in0.0 mm 0.00 in0.0 mm 0.00 in0.0 mm
01:33 AM 62.6°F17.0°C 41.0°F5.0°C 45% 4.5 mph N7.2 kmh N 6.0 mph9.7 kmh 29.73 in1006.8 mb 0.00 in0.0 mm 0.00 in0.0 mm 0.00 in0.0 mm
01:32 AM 62.6°F17.0°C 41.0°F5.0°C 45% 3.8 mph N6.1 kmh N 6.0 mph9.7 kmh 29.73 in1006.8 mb 0.00 in0.0 mm 0.00 in0.0 mm 0.00 in0.0 mm
01:31 AM 62.6°F17.0°C 41.0°F5.0°C 45% 3.1 mph N5.0 kmh N 6.0 mph9.7 kmh 29.73 in1006.8 mb 0.00 in0.0 mm 0.00 in0.0 mm 0.00 in0.0 mm
01:30 AM 62.6°F17.0°C 41.0°F5.0°C 45% 3.1 mph N5.0 kmh N 7.6 mph12.2 kmh 29.73 in1006.8 mb 0.00 in0.0 mm 0.00 in0.0 mm 0.00 in0.0 mm
01:29 AM 62.8°F17.1°C 41.1°F5.1°C 45% 3.1 mph N5.0 kmh N 7.6 mph12.2 kmh 29.73 in1006.8 mb 0.00 in0.0 mm 0.00 in0.0 mm 0.00 in0.0 mm
01:28 AM 62.8°F17.1°C 41.1°F5.1°C 45% 3.8 mph N6.1 kmh N 7.6 mph12.2 kmh 29.73 in1006.8 mb 0.00 in0.0 mm 0.00 in0.0 mm 0.00 in0.0 mm
01:27 AM 62.8°F17.1°C 41.1°F5.1°C 45% 3.1 mph N5.0 kmh N 7.6 mph12.2 kmh 29.73 in1006.8 mb 0.00 in0.0 mm 0.00 in0.0 mm 0.00 in0.0 mm
01:26 AM 63.0°F17.2°C 41.3°F5.2°C 45% 3.8 mph N6.1 kmh N 7.6 mph12.2 kmh 29.73 in1006.8 mb 0.00 in0.0 mm 0.00 in0.0 mm 0.00 in0.0 mm
01:25 AM 63.0°F17.2°C 41.3°F5.2°C 45% 4.5 mph N7.2 kmh N 7.6 mph12.2 kmh 29.73 in1006.8 mb 0.00 in0.0 mm 0.00 in0.0 mm 0.00 in0.0 mm
01:24 AM 63.1°F17.3°C 40.9°F4.9°C 44% 3.8 mph N6.1 kmh N 7.6 mph12.2 kmh 29.74 in1007.1 mb 0.00 in0.0 mm 0.00 in0.0 mm 0.00 in0.0 mm
01:23 AM 63.1°F17.3°C 40.9°F4.9°C 44% 4.5 mph N7.2 kmh N 7.6 mph12.2 kmh 29.73 in1006.8 mb 0.00 in0.0 mm 0.00 in0.0 mm 0.00 in0.0 mm
01:22 AM 63.1°F17.3°C 40.9°F4.9°C 44% 4.5 mph N7.2 kmh N 7.6 mph12.2 kmh 29.73 in1006.8 mb 0.00 in0.0 mm 0.00 in0.0 mm 0.00 in0.0 mm
01:21 AM 63.3°F17.4°C 41.1°F5.1°C 44% 3.8 mph N6.1 kmh N 8.3 mph13.4 kmh 29.74 in1007.1 mb 0.00 in0.0 mm 0.00 in0.0 mm 0.00 in0.0 mm
01:20 AM 63.5°F17.5°C 41.2°F5.1°C 44% 6.9 mph N11.1 kmh N 9.8 mph15.8 kmh 29.74 in1007.1 mb 0.00 in0.0 mm 0.00 in0.0 mm 0.00 in0.0 mm
01:19 AM 63.5°F17.5°C 41.2°F5.1°C 44% 3.1 mph N5.0 kmh N 9.8 mph15.8 kmh 29.73 in1006.8 mb 0.00 in0.0 mm 0.00 in0.0 mm 0.00 in0.0 mm
01:18 AM 63.7°F17.6°C 40.8°F4.9°C 43% 3.8 mph N6.1 kmh N 9.8 mph15.8 kmh 29.74 in1007.1 mb 0.00 in0.0 mm 0.00 in0.0 mm 0.00 in0.0 mm
01:17 AM 63.9°F17.7°C 40.9°F4.9°C 43% 3.1 mph N5.0 kmh N 9.8 mph15.8 kmh 29.73 in1006.8 mb 0.00 in0.0 mm 0.00 in0.0 mm 0.00 in0.0 mm
01:16 AM 63.9°F17.7°C 40.9°F4.9°C 43% 3.8 mph N6.1 kmh N 9.8 mph15.8 kmh 29.74 in1007.1 mb 0.00 in0.0 mm 0.00 in0.0 mm 0.00 in0.0 mm
01:15 AM 64.0°F17.8°C 41.1°F5.1°C 43% 4.5 mph N7.2 kmh N 9.8 mph15.8 kmh 29.74 in1007.1 mb 0.00 in0.0 mm 0.00 in0.0 mm 0.00 in0.0 mm
01:14 AM 64.0°F17.8°C 41.1°F5.1°C 43% 6.0 mph N9.7 kmh N 9.8 mph15.8 kmh 29.74 in1007.1 mb 0.00 in0.0 mm 0.00 in0.0 mm 0.00 in0.0 mm
01:13 AM 64.2°F17.9°C 41.3°F5.2°C 43% 5.4 mph N8.7 kmh N 9.8 mph15.8 kmh 29.73 in1006.8 mb 0.00 in0.0 mm 0.00 in0.0 mm 0.00 in0.0 mm
01:12 AM 64.2°F17.9°C 41.3°F5.2°C 43% 5.4 mph N8.7 kmh N 9.8 mph15.8 kmh 29.74 in1007.1 mb 0.00 in0.0 mm 0.00 in0.0 mm 0.00 in0.0 mm
01:11 AM 64.4°F18.0°C 42.0°F5.6°C 44% 6.9 mph N11.1 kmh N 9.8 mph15.8 kmh 29.74 in1007.1 mb 0.00 in0.0 mm 0.00 in0.0 mm 0.00 in0.0 mm
01:10 AM 64.4°F18.0°C 42.0°F5.6°C 44% 3.8 mph N6.1 kmh N 9.8 mph15.8 kmh 29.74 in1007.1 mb 0.00 in0.0 mm 0.00 in0.0 mm 0.00 in0.0 mm
01:09 AM 64.4°F18.0°C 42.6°F5.9°C 45% 3.1 mph N5.0 kmh N 6.9 mph11.1 kmh 29.74 in1007.1 mb 0.00 in0.0 mm 0.00 in0.0 mm 0.00 in0.0 mm
01:08 AM 64.4°F18.0°C 42.6°F5.9°C 45% 3.1 mph N5.0 kmh N 7.6 mph12.2 kmh 29.74 in1007.1 mb 0.00 in0.0 mm 0.00 in0.0 mm 0.00 in0.0 mm
01:07 AM 64.4°F18.0°C 42.6°F5.9°C 45% 3.8 mph N6.1 kmh N 7.6 mph12.2 kmh 29.74 in1007.1 mb 0.00 in0.0 mm 0.00 in0.0 mm 0.00 in0.0 mm
01:06 AM 64.6°F18.1°C 42.8°F6.0°C 45% 2.2 mph N3.5 kmh N 7.6 mph12.2 kmh 29.74 in1007.1 mb 0.00 in0.0 mm 0.00 in0.0 mm 0.00 in0.0 mm
01:05 AM 64.6°F18.1°C 42.8°F6.0°C 45% 3.8 mph N6.1 kmh N 7.6 mph12.2 kmh 29.74 in1007.1 mb 0.00 in0.0 mm 0.00 in0.0 mm 0.00 in0.0 mm
01:04 AM 64.6°F18.1°C 42.8°F6.0°C 45% 1.6 mph N2.6 kmh N 7.6 mph12.2 kmh 29.74 in1007.1 mb 0.00 in0.0 mm 0.00 in0.0 mm 0.00 in0.0 mm
01:03 AM 64.6°F18.1°C 42.8°F6.0°C 45% 2.2 mph N3.5 kmh N 7.6 mph12.2 kmh 29.74 in1007.1 mb 0.00 in0.0 mm 0.00 in0.0 mm 0.00 in0.0 mm
01:02 AM 64.6°F18.1°C 42.8°F6.0°C 45% 1.6 mph N2.6 kmh N 7.6 mph12.2 kmh 29.74 in1007.1 mb 0.00 in0.0 mm 0.00 in0.0 mm 0.00 in0.0 mm
01:01 AM 64.6°F18.1°C 42.2°F5.7°C 44% 3.8 mph N6.1 kmh N 7.6 mph12.2 kmh 29.74 in1007.1 mb 0.00 in0.0 mm 0.00 in0.0 mm 0.00 in0.0 mm
01:00 AM 64.8°F18.2°C 42.9°F6.1°C 45% 4.5 mph N7.2 kmh N 7.6 mph12.2 kmh 29.75 in1007.5 mb 0.00 in0.0 mm 0.00 in0.0 mm 0.00 in0.0 mm
12:59 AM 64.8°F18.2°C 42.9°F6.1°C 45% 5.4 mph N8.7 kmh N 7.6 mph12.2 kmh 29.75 in1007.5 mb 0.00 in0.0 mm 0.00 in0.0 mm 0.00 in0.0 mm
12:58 AM 64.8°F18.2°C 42.9°F6.1°C 45% 1.6 mph N2.6 kmh N 5.4 mph8.7 kmh 29.75 in1007.5 mb 0.00 in0.0 mm 0.00 in0.0 mm 0.00 in0.0 mm
12:57 AM 64.9°F18.3°C 43.1°F6.2°C 45% 3.1 mph N5.0 kmh N 5.4 mph8.7 kmh 29.74 in1007.1 mb 0.00 in0.0 mm 0.00 in0.0 mm 0.00 in0.0 mm
12:56 AM 64.9°F18.3°C 43.1°F6.2°C 45% 2.2 mph N3.5 kmh N 5.4 mph8.7 kmh 29.75 in1007.5 mb 0.00 in0.0 mm 0.00 in0.0 mm 0.00 in0.0 mm
12:55 AM 64.9°F18.3°C 43.1°F6.2°C 45% 2.2 mph N3.5 kmh N 5.4 mph8.7 kmh 29.74 in1007.1 mb 0.00 in0.0 mm 0.00 in0.0 mm 0.00 in0.0 mm
12:54 AM 65.1°F18.4°C 43.3°F6.3°C 45% Calm Calm 5.4 mph8.7 kmh 29.74 in1007.1 mb 0.00 in0.0 mm 0.00 in0.0 mm 0.00 in0.0 mm
12:53 AM 65.1°F18.4°C 43.3°F6.3°C 45% 2.2 mph N3.5 kmh N 5.4 mph8.7 kmh 29.74 in1007.1 mb 0.00 in0.0 mm 0.00 in0.0 mm 0.00 in0.0 mm
12:52 AM 65.1°F18.4°C 43.3°F6.3°C 45% 3.1 mph N5.0 kmh N 5.4 mph8.7 kmh 29.74 in1007.1 mb 0.00 in0.0 mm 0.00 in0.0 mm 0.00 in0.0 mm
12:51 AM 65.1°F18.4°C 43.3°F6.3°C 45% 2.2 mph N3.5 kmh N 5.4 mph8.7 kmh 29.74 in1007.1 mb 0.00 in0.0 mm 0.00 in0.0 mm 0.00 in0.0 mm
12:50 AM 65.1°F18.4°C 43.3°F6.3°C 45% 1.6 mph N2.6 kmh N 5.4 mph8.7 kmh 29.74 in1007.1 mb 0.00 in0.0 mm 0.00 in0.0 mm 0.00 in0.0 mm
12:49 AM 65.1°F18.4°C 43.3°F6.3°C 45% 2.2 mph N3.5 kmh N 5.4 mph8.7 kmh 29.75 in1007.5 mb 0.00 in0.0 mm 0.00 in0.0 mm 0.00 in0.0 mm
12:48 AM 65.1°F18.4°C 43.3°F6.3°C 45% 2.2 mph N3.5 kmh N 5.4 mph8.7 kmh 29.74 in1007.1 mb 0.00 in0.0 mm 0.00 in0.0 mm 0.00 in0.0 mm
12:47 AM 65.3°F18.5°C 43.4°F6.3°C 45% 1.6 mph N2.6 kmh N 5.4 mph8.7 kmh 29.74 in1007.1 mb 0.00 in0.0 mm 0.00 in0.0 mm 0.00 in0.0 mm
12:46 AM 65.3°F18.5°C 44.0°F6.7°C 46% 3.8 mph N6.1 kmh N 5.4 mph8.7 kmh 29.75 in1007.5 mb 0.00 in0.0 mm 0.00 in0.0 mm 0.00 in0.0 mm
12:45 AM 65.3°F18.5°C 44.0°F6.7°C 46% 3.1 mph N5.0 kmh N 5.4 mph8.7 kmh 29.74 in1007.1 mb 0.00 in0.0 mm 0.00 in0.0 mm 0.00 in0.0 mm
12:44 AM 65.3°F18.5°C 44.0°F6.7°C 46% 3.8 mph N6.1 kmh N 5.4 mph8.7 kmh 29.75 in1007.5 mb 0.00 in0.0 mm 0.00 in0.0 mm 0.00 in0.0 mm
12:43 AM 65.3°F18.5°C 44.0°F6.7°C 46% 2.2 mph N3.5 kmh N 5.4 mph8.7 kmh 29.74 in1007.1 mb 0.00 in0.0 mm 0.00 in0.0 mm 0.00 in0.0 mm
12:42 AM 65.3°F18.5°C 44.0°F6.7°C 46% 2.2 mph N3.5 kmh N 4.5 mph7.2 kmh 29.75 in1007.5 mb 0.00 in0.0 mm 0.00 in0.0 mm 0.00 in0.0 mm
12:41 AM 65.3°F18.5°C 44.6°F7.0°C 47% 2.2 mph N3.5 kmh N 4.5 mph7.2 kmh 29.75 in1007.5 mb 0.00 in0.0 mm 0.00 in0.0 mm 0.00 in0.0 mm
12:40 AM 65.3°F18.5°C 44.6°F7.0°C 47% 3.8 mph N6.1 kmh N 4.5 mph7.2 kmh 29.74 in1007.1 mb 0.00 in0.0 mm 0.00 in0.0 mm 0.00 in0.0 mm
12:39 AM 65.3°F18.5°C 45.1°F7.3°C 48% 2.2 mph N3.5 kmh N 4.5 mph7.2 kmh 29.75 in1007.5 mb 0.00 in0.0 mm 0.00 in0.0 mm 0.00 in0.0 mm
12:38 AM 65.3°F18.5°C 45.1°F7.3°C 48% 2.2 mph N3.5 kmh N 4.5 mph7.2 kmh 29.74 in1007.1 mb 0.00 in0.0 mm 0.00 in0.0 mm 0.00 in0.0 mm
12:37 AM 65.3°F18.5°C 45.7°F7.6°C 49% 3.1 mph N5.0 kmh N 4.5 mph7.2 kmh 29.74 in1007.1 mb 0.00 in0.0 mm 0.00 in0.0 mm 0.00 in0.0 mm
12:36 AM 65.3°F18.5°C 45.7°F7.6°C 49% 2.2 mph N3.5 kmh N 6.0 mph9.7 kmh 29.74 in1007.1 mb 0.00 in0.0 mm 0.00 in0.0 mm 0.00 in0.0 mm
12:35 AM 65.3°F18.5°C 46.2°F7.9°C 50% 3.1 mph N5.0 kmh N 6.0 mph9.7 kmh 29.75 in1007.5 mb 0.00 in0.0 mm 0.00 in0.0 mm 0.00 in0.0 mm
12:34 AM 65.5°F18.6°C 46.4°F8.0°C 50% 3.1 mph N5.0 kmh N 6.0 mph9.7 kmh 29.75 in1007.5 mb 0.00 in0.0 mm 0.00 in0.0 mm 0.00 in0.0 mm
12:33 AM 65.5°F18.6°C 46.4°F8.0°C 50% 2.2 mph N3.5 kmh N 6.0 mph9.7 kmh 29.75 in1007.5 mb 0.00 in0.0 mm 0.00 in0.0 mm 0.00 in0.0 mm
12:32 AM 65.5°F18.6°C 46.4°F8.0°C 50% 1.6 mph N2.6 kmh N 6.0 mph9.7 kmh 29.75 in1007.5 mb 0.00 in0.0 mm 0.00 in0.0 mm 0.00 in0.0 mm
12:31 AM 65.5°F18.6°C 46.4°F8.0°C 50% 2.2 mph N3.5 kmh N 6.0 mph9.7 kmh 29.75 in1007.5 mb 0.00 in0.0 mm 0.00 in0.0 mm 0.00 in0.0 mm
12:30 AM 65.5°F18.6°C 46.4°F8.0°C 50% 3.1 mph N5.0 kmh N 6.0 mph9.7 kmh 29.75 in1007.5 mb 0.00 in0.0 mm 0.00 in0.0 mm 0.00 in0.0 mm
12:29 AM 65.5°F18.6°C 46.4°F8.0°C 50% 1.6 mph N2.6 kmh N 6.0 mph9.7 kmh 29.75 in1007.5 mb 0.00 in0.0 mm 0.00 in0.0 mm 0.00 in0.0 mm
12:28 AM 65.5°F18.6°C 46.4°F8.0°C 50% 1.6 mph N2.6 kmh N 6.0 mph9.7 kmh 29.75 in1007.5 mb 0.00 in0.0 mm 0.00 in0.0 mm 0.00 in0.0 mm
12:27 AM 65.5°F18.6°C 46.4°F8.0°C 50% 2.2 mph N3.5 kmh N 6.0 mph9.7 kmh 29.75 in1007.5 mb 0.00 in0.0 mm 0.00 in0.0 mm 0.00 in0.0 mm
12:26 AM 65.5°F18.6°C 45.8°F7.7°C 49% 3.8 mph N6.1 kmh N 6.0 mph9.7 kmh 29.74 in1007.1 mb 0.00 in0.0 mm 0.00 in0.0 mm 0.00 in0.0 mm
12:25 AM 65.5°F18.6°C 45.8°F7.7°C 49% 2.2 mph N3.5 kmh N 4.5 mph7.2 kmh 29.75 in1007.5 mb 0.00 in0.0 mm 0.00 in0.0 mm 0.00 in0.0 mm
12:24 AM 65.7°F18.7°C 45.5°F7.5°C 48% 2.2 mph N3.5 kmh N 4.5 mph7.2 kmh 29.75 in1007.5 mb 0.00 in0.0 mm 0.00 in0.0 mm 0.00 in0.0 mm
12:23 AM 65.7°F18.7°C 45.5°F7.5°C 48% 1.6 mph N2.6 kmh N 4.5 mph7.2 kmh 29.75 in1007.5 mb 0.00 in0.0 mm 0.00 in0.0 mm 0.00 in0.0 mm
12:22 AM 65.7°F18.7°C 45.5°F7.5°C 48% 1.6 mph N2.6 kmh N 4.5 mph7.2 kmh 29.75 in1007.5 mb 0.00 in0.0 mm 0.00 in0.0 mm 0.00 in0.0 mm
12:21 AM 65.7°F18.7°C 45.5°F7.5°C 48% 1.6 mph N2.6 kmh N 4.5 mph7.2 kmh 29.75 in1007.5 mb 0.00 in0.0 mm 0.00 in0.0 mm 0.00 in0.0 mm
12:20 AM 65.8°F18.8°C 45.6°F7.6°C 48% 2.2 mph N3.5 kmh N 4.5 mph7.2 kmh 29.75 in1007.5 mb 0.00 in0.0 mm 0.00 in0.0 mm 0.00 in0.0 mm
12:19 AM 65.8°F18.8°C 45.6°F7.6°C 48% 3.1 mph N5.0 kmh N 5.4 mph8.7 kmh 29.75 in1007.5 mb 0.00 in0.0 mm 0.00 in0.0 mm 0.00 in0.0 mm
12:18 AM 65.8°F18.8°C 45.6°F7.6°C 48% 1.6 mph N2.6 kmh N 5.4 mph8.7 kmh 29.75 in1007.5 mb 0.00 in0.0 mm 0.00 in0.0 mm 0.00 in0.0 mm
12:17 AM 66.0°F18.9°C 45.8°F7.7°C 48% 0.7 mph N1.1 kmh N 6.0 mph9.7 kmh 29.75 in1007.5 mb 0.00 in0.0 mm 0.00 in0.0 mm 0.00 in0.0 mm
12:16 AM 66.0°F18.9°C 45.2°F7.3°C 47% 1.6 mph N2.6 kmh N 6.0 mph9.7 kmh 29.75 in1007.5 mb 0.00 in0.0 mm 0.00 in0.0 mm 0.00 in0.0 mm
12:15 AM 66.2°F19.0°C 44.8°F7.1°C 46% 1.6 mph N2.6 kmh N 6.0 mph9.7 kmh 29.75 in1007.5 mb 0.00 in0.0 mm 0.00 in0.0 mm 0.00 in0.0 mm
12:14 AM 66.2°F19.0°C 44.8°F7.1°C 46% 1.6 mph N2.6 kmh N 6.0 mph9.7 kmh 29.75 in1007.5 mb 0.00 in0.0 mm 0.00 in0.0 mm 0.00 in0.0 mm
12:13 AM 66.4°F19.1°C 45.0°F7.2°C 46% 1.6 mph N2.6 kmh N 6.0 mph9.7 kmh 29.75 in1007.5 mb 0.00 in0.0 mm 0.00 in0.0 mm 0.00 in0.0 mm
12:12 AM 66.6°F19.2°C 45.2°F7.3°C 46% 2.2 mph N3.5 kmh N 6.0 mph9.7 kmh 29.76 in1007.8 mb 0.00 in0.0 mm 0.00 in0.0 mm 0.00 in0.0 mm
12:11 AM 66.6°F19.2°C 45.2°F7.3°C 46% 1.6 mph N2.6 kmh N 6.0 mph9.7 kmh 29.76 in1007.8 mb 0.00 in0.0 mm 0.00 in0.0 mm 0.00 in0.0 mm
12:10 AM 66.7°F19.3°C 45.3°F7.4°C 46% 3.1 mph N5.0 kmh N 6.0 mph9.7 kmh 29.75 in1007.5 mb 0.00 in0.0 mm 0.00 in0.0 mm 0.00 in0.0 mm
12:09 AM 66.9°F19.4°C 45.5°F7.5°C 46% 3.8 mph N6.1 kmh N 6.0 mph9.7 kmh 29.76 in1007.8 mb 0.00 in0.0 mm 0.00 in0.0 mm 0.00 in0.0 mm
12:08 AM 66.9°F19.4°C 45.5°F7.5°C 46% 3.8 mph N6.1 kmh N 6.0 mph9.7 kmh 29.76 in1007.8 mb 0.00 in0.0 mm 0.00 in0.0 mm 0.00 in0.0 mm
12:07 AM 67.1°F19.5°C 45.6°F7.6°C 46% 3.8 mph N6.1 kmh N 6.0 mph9.7 kmh 29.76 in1007.8 mb 0.00 in0.0 mm 0.00 in0.0 mm 0.00 in0.0 mm
12:06 AM 67.3°F19.6°C 45.8°F7.7°C 46% 3.1 mph N5.0 kmh N 6.0 mph9.7 kmh 29.75 in1007.5 mb 0.00 in0.0 mm 0.00 in0.0 mm 0.00 in0.0 mm
12:05 AM 67.5°F19.7°C 46.0°F7.8°C 46% 3.8 mph N6.1 kmh N 6.0 mph9.7 kmh 29.75 in1007.5 mb 0.00 in0.0 mm 0.00 in0.0 mm 0.00 in0.0 mm
12:04 AM 67.5°F19.7°C 45.4°F7.4°C 45% 3.1 mph N5.0 kmh N 6.0 mph9.7 kmh 29.76 in1007.8 mb 0.00 in0.0 mm 0.00 in0.0 mm 0.00 in0.0 mm
12:03 AM 67.6°F19.8°C 45.6°F7.6°C 45% 3.1 mph N5.0 kmh N 8.3 mph13.4 kmh 29.75 in1007.5 mb 0.00 in0.0 mm 0.00 in0.0 mm 0.00 in0.0 mm
12:02 AM 67.6°F19.8°C 45.0°F7.2°C 44% 3.1 mph N5.0 kmh N 8.3 mph13.4 kmh 29.75 in1007.5 mb 0.00 in0.0 mm 0.00 in0.0 mm 0.00 in0.0 mm
12:01 AM 67.6°F19.8°C 43.7°F6.5°C 42% 2.2 mph N3.5 kmh N 8.3 mph13.4 kmh 29.75 in1007.5 mb 0.00 in0.0 mm 0.00 in0.0 mm 0.00 in0.0 mm
12:00 AM 67.6°F19.8°C 43.1°F6.2°C 41% 3.8 mph N6.1 kmh N 8.3 mph13.4 kmh 29.76 in1007.8 mb 0.00 in0.0 mm 0.00 in0.0 mm 0.00 in0.0 mm